Darstellungsparameter: Aktuell verwendete Einstellungen:
Skalierung der Graphiken ... ?
xyx+y,   Skalierungsfaktor:      Skalierung: Modus: x, Faktor: 1
Darstellungszeitraum ... ?
Vom - - bis: - -   Zeitraum: 13.02.2011 - 12.08.2011
Min/Max/Avg-Anzeige ... ?
Zeige MMA aktuell
Zeige MMA Monat
Zeige MMA alles
Zeige --A aktuell
Zeige --A Monat
Zeige --A alles
Keine MMA-Anzeige
MMA:
Minimum Maximum Average (ber die Originaldaten)
MMA-Basis: 13.02.2011 - 12.08.2011
Quicknavigation für Darstellung... ?
Tage:      1T, 2T, 3T, 5T -1T -2T -3T -5T +1T +2T +3T +5T
Wochen: 1W, 2W, 3W -1W -2W -3W +1W +2W +3W
Monate: 1M, 3M, 6M -1M -3M -6M +1M +3M +6M
Jahre:    1J, 3J, 5J, 10J -1J -3J -5J -10J +1J +3J +5J +10J
Nutze für die Darstellung ... ?
Originaldaten oder Mittelwerte auf ...
Stundenbasis Tagesbasis Wochenbasis
Monatsbasis Jahresbasis      Datenbasis: Original-Daten
Darstellen als:
Statistik (Auto) Statistik J:M      Darstellung:
Zur Graphik,    zurück zur Übersicht aller Sensoren.
 
Tabellarische Datenbersicht: ?
 
Sensor: Nr:Datum:Temp:Feuchte:Taupunkt:
Aussen-T/F 1 13-02-2011 00:09:03 5.3 C 90 % 3.8 C
2 13-02-2011 00:21:03 5.3 C 90 % 3.8 C
3 13-02-2011 00:33:04 5.3 C 89 % 3.64 C
4 13-02-2011 00:45:04 5.2 C 89 % 3.54 C
5 13-02-2011 00:57:04 5.1 C 89 % 3.44 C
6 13-02-2011 01:09:04 5 C 89 % 3.34 C
7 13-02-2011 01:21:04 5.1 C 89 % 3.44 C
8 13-02-2011 01:33:04 5.1 C 90 % 3.6 C
9 13-02-2011 01:45:04 5.1 C 90 % 3.6 C
10 13-02-2011 01:57:04 5 C 90 % 3.5 C
11 13-02-2011 02:09:04 4.9 C 91 % 3.56 C
12 13-02-2011 02:21:04 4.8 C 91 % 3.46 C
13 13-02-2011 02:33:04 4.7 C 91 % 3.36 C
14 13-02-2011 02:45:04 4.7 C 91 % 3.36 C
15 13-02-2011 02:57:04 4.6 C 91 % 3.26 C
16 13-02-2011 03:09:04 4.7 C 91 % 3.36 C
17 13-02-2011 03:21:04 4.9 C 91 % 3.56 C
18 13-02-2011 03:33:04 4.9 C 91 % 3.56 C
19 13-02-2011 03:45:04 5 C 91 % 3.66 C
20 13-02-2011 03:57:04 5.1 C 91 % 3.76 C
21 13-02-2011 04:09:04 5 C 91 % 3.66 C
22 13-02-2011 04:21:04 5 C 91 % 3.66 C
23 13-02-2011 04:33:05 5 C 91 % 3.66 C
24 13-02-2011 04:45:05 4.8 C 92 % 3.61 C
25 13-02-2011 04:57:05 4.8 C 92 % 3.61 C
Sensor: Nr:Datum:Temp:Feuchte:Taupunkt:
Aussen-T/F 26 13-02-2011 05:09:05 4.6 C 92 % 3.42 C
27 13-02-2011 05:21:05 4.4 C 92 % 3.22 C
28 13-02-2011 05:33:05 3.9 C 92 % 2.72 C
29 13-02-2011 05:45:05 4.1 C 92 % 2.92 C
30 13-02-2011 05:57:05 4.2 C 92 % 3.02 C
31 13-02-2011 06:09:05 4.2 C 92 % 3.02 C
32 13-02-2011 06:21:05 4 C 92 % 2.82 C
33 13-02-2011 06:33:05 4 C 92 % 2.82 C
34 13-02-2011 06:45:05 3.8 C 92 % 2.62 C
35 13-02-2011 06:57:05 3.4 C 92 % 2.23 C
36 13-02-2011 07:09:05 3.2 C 92 % 2.03 C
37 13-02-2011 07:21:05 3 C 92 % 1.83 C
38 13-02-2011 07:33:05 2.8 C 93 % 1.78 C
39 13-02-2011 07:45:05 2.3 C 92 % 1.14 C
40 13-02-2011 07:57:05 2 C 92 % 0.84 C
41 13-02-2011 08:09:05 2.2 C 92 % 1.04 C
42 13-02-2011 08:21:05 2.1 C 92 % 0.94 C
43 13-02-2011 08:33:05 1.5 C 93 % 0.49 C
44 13-02-2011 08:45:06 1.4 C 93 % 0.4 C
45 13-02-2011 08:57:06 1.5 C 93 % 0.49 C
46 13-02-2011 09:09:03 1.8 C 93 % 0.79 C
47 13-02-2011 09:21:03 1.9 C 93 % 0.89 C
48 13-02-2011 09:33:03 2.4 C 92 % 1.24 C
49 13-02-2011 09:45:02 3.7 C 92 % 2.52 C
50 13-02-2011 09:57:02 4 C 92 % 2.82 C
Sensor: Nr:Datum:Temp:Feuchte:Taupunkt:
Aussen-T/F 51 13-02-2011 10:09:02 4.2 C 92 % 3.02 C
52 13-02-2011 10:21:01 4.3 C 91 % 2.96 C
53 13-02-2011 10:33:02 4.8 C 90 % 3.3 C
54 13-02-2011 10:45:01 5.1 C 88 % 3.28 C
55 13-02-2011 10:57:01 5.3 C 86 % 3.15 C
56 13-02-2011 11:09:02 5.4 C 84 % 2.92 C
57 13-02-2011 11:21:02 6.1 C 82 % 3.26 C
58 13-02-2011 11:33:02 6 C 78 % 2.46 C
59 13-02-2011 11:45:02 6.3 C 76 % 2.39 C
60 13-02-2011 11:57:02 6.9 C 75 % 2.78 C
61 13-02-2011 12:09:02 7.2 C 71 % 2.3 C
62 13-02-2011 12:21:02 7.6 C 70 % 2.49 C
63 13-02-2011 12:33:01 7.5 C 71 % 2.59 C
64 13-02-2011 12:45:02 7.7 C 71 % 2.78 C
65 13-02-2011 12:57:02 7.8 C 68 % 2.27 C
66 13-02-2011 13:09:01 7.2 C 67 % 1.49 C
67 13-02-2011 13:21:01 7.4 C 67 % 1.69 C
68 13-02-2011 13:33:02 7.5 C 63 % 0.92 C
69 13-02-2011 13:45:02 7.9 C 61 % 0.86 C
70 13-02-2011 13:57:03 7.8 C 61 % 0.76 C
71 13-02-2011 14:09:01 8.6 C 61 % 1.52 C
72 13-02-2011 14:21:02 8.6 C 60 % 1.29 C
73 13-02-2011 14:33:02 9.4 C 58 % 1.57 C
74 13-02-2011 14:45:02 8.8 C 58 % 1 C
75 13-02-2011 14:57:02 8.5 C 57 % 0.48 C
Sensor: Nr:Datum:Temp:Feuchte:Taupunkt:
Aussen-T/F 76 13-02-2011 15:09:02 8.4 C 57 % 0.39 C
77 13-02-2011 15:21:02 8.5 C 58 % 0.72 C
78 13-02-2011 15:33:02 8.9 C 56 % 0.61 C
79 13-02-2011 15:45:02 9.5 C 55 % 0.92 C
80 13-02-2011 15:57:02 9.2 C 55 % 0.64 C
81 13-02-2011 16:09:02 9.1 C 56 % 0.8 C
82 13-02-2011 16:21:02 8.5 C 56 % 0.24 C
83 13-02-2011 16:33:02 8.2 C 60 % 0.91 C
84 13-02-2011 16:45:02 7.7 C 65 % 1.55 C
85 13-02-2011 16:57:02 7.3 C 64 % 0.95 C
86 13-02-2011 17:09:02 6.9 C 70 % 1.82 C
87 13-02-2011 17:21:02 6.2 C 74 % 1.92 C
88 13-02-2011 17:33:02 5.9 C 77 % 2.19 C
89 13-02-2011 17:45:02 5.6 C 78 % 2.07 C
90 13-02-2011 17:57:02 5.2 C 79 % 1.86 C
91 13-02-2011 18:09:02 4.8 C 81 % 1.82 C
92 13-02-2011 18:21:02 4.6 C 82 % 1.8 C
93 13-02-2011 18:33:01 4.3 C 83 % 1.67 C
94 13-02-2011 18:45:02 4.3 C 84 % 1.84 C
95 13-02-2011 18:57:02 4.4 C 84 % 1.94 C
96 13-02-2011 19:09:01 4.3 C 85 % 2.01 C
97 13-02-2011 19:21:01 4.4 C 85 % 2.11 C
98 13-02-2011 19:33:02 4.5 C 86 % 2.37 C
99 13-02-2011 19:45:01 4.3 C 85 % 2.01 C
100 13-02-2011 19:57:01 4.3 C 85 % 2.01 C
Sensor: Nr:Datum:Temp:Feuchte:Taupunkt:
Aussen-T/F 101 13-02-2011 20:09:02 4.3 C 86 % 2.17 C
102 13-02-2011 20:21:02 4.4 C 86 % 2.27 C
103 13-02-2011 20:33:02 4.3 C 85 % 2.01 C
104 13-02-2011 20:45:01 4.2 C 85 % 1.91 C
105 13-02-2011 20:57:01 4.2 C 86 % 2.07 C
106 13-02-2011 21:09:02 4.4 C 86 % 2.27 C
107 13-02-2011 21:21:02 4.2 C 86 % 2.07 C
108 13-02-2011 21:33:01 4.2 C 86 % 2.07 C
109 13-02-2011 21:45:02 4.2 C 86 % 2.07 C
110 13-02-2011 21:57:02 4.1 C 86 % 1.97 C
111 13-02-2011 22:09:01 4.2 C 86 % 2.07 C
112 13-02-2011 22:21:02 4.2 C 86 % 2.07 C
113 13-02-2011 22:34:03 4 C 86 % 1.88 C
114 13-02-2011 22:46:03 3.9 C 87 % 1.94 C
115 13-02-2011 22:58:03 4 C 87 % 2.04 C
116 13-02-2011 23:10:03 4.1 C 87 % 2.14 C
117 13-02-2011 23:22:03 3.9 C 88 % 2.1 C
118 13-02-2011 23:34:03 3.8 C 88 % 2 C
119 13-02-2011 23:46:03 3.8 C 88 % 2 C
120 13-02-2011 23:58:03 3.7 C 88 % 1.9 C
121 14-02-2011 00:10:03 3.6 C 88 % 1.8 C
122 14-02-2011 00:22:03 3.5 C 88 % 1.7 C
123 14-02-2011 00:34:03 3.4 C 89 % 1.76 C
124 14-02-2011 00:46:03 3.2 C 89 % 1.57 C
125 14-02-2011 00:58:03 3.1 C 89 % 1.47 C
Sensor: Nr:Datum:Temp:Feuchte:Taupunkt:
Aussen-T/F 126 14-02-2011 01:10:03 2.8 C 89 % 1.17 C
127 14-02-2011 01:22:03 2.9 C 90 % 1.43 C
128 14-02-2011 01:34:04 3 C 89 % 1.37 C
129 14-02-2011 01:46:04 3.1 C 89 % 1.47 C
130 14-02-2011 01:58:04 3 C 90 % 1.52 C
131 14-02-2011 02:10:04 2.8 C 90 % 1.33 C
132 14-02-2011 02:22:04 2.7 C 90 % 1.23 C
133 14-02-2011 02:34:04 2.6 C 90 % 1.13 C
134 14-02-2011 02:46:04 2.5 C 90 % 1.03 C
135 14-02-2011 02:58:04 2.5 C 90 % 1.03 C
136 14-02-2011 03:10:04 2.6 C 91 % 1.28 C
137 14-02-2011 03:22:04 2.3 C 91 % 0.99 C
138 14-02-2011 03:34:04 2.2 C 91 % 0.89 C
139 14-02-2011 03:46:04 2.2 C 91 % 0.89 C
140 14-02-2011 03:58:04 2 C 91 % 0.69 C
141 14-02-2011 04:10:04 2.1 C 91 % 0.79 C
142 14-02-2011 04:22:04 1.7 C 91 % 0.39 C
143 14-02-2011 04:34:04 1.6 C 91 % 0.29 C
144 14-02-2011 04:46:04 1.7 C 91 % 0.39 C
145 14-02-2011 04:58:04 1.6 C 91 % 0.29 C
146 14-02-2011 05:10:04 1.7 C 92 % 0.54 C
147 14-02-2011 05:22:04 1.9 C 92 % 0.74 C
148 14-02-2011 05:34:05 1.7 C 92 % 0.54 C
149 14-02-2011 05:46:02 2 C 91 % 0.69 C
150 14-02-2011 05:58:02 2 C 91 % 0.69 C
Sensor: Nr:Datum:Temp:Feuchte:Taupunkt:
Aussen-T/F 151 14-02-2011 06:10:02 2.1 C 92 % 0.94 C
152 14-02-2011 06:22:02 1.6 C 92 % 0.44 C
153 14-02-2011 06:34:02 1.6 C 92 % 0.44 C
154 14-02-2011 06:46:02 1.3 C 92 % 0.15 C
155 14-02-2011 06:58:02 1.4 C 92 % 0.25 C
156 14-02-2011 07:10:01 0.8 C 92 % -0.35 C
157 14-02-2011 07:22:01 1 C 92 % -0.15 C
158 14-02-2011 07:34:02 1.1 C 92 % -0.05 C
159 14-02-2011 07:46:02 1.2 C 92 % 0.05 C
160 14-02-2011 07:58:02 0.7 C 92 % -0.45 C
161 14-02-2011 08:10:02 0.4 C 92 % -0.74 C
162 14-02-2011 08:22:02 0.6 C 92 % -0.55 C
163 14-02-2011 08:34:02 1.4 C 92 % 0.25 C
164 14-02-2011 08:46:02 1.6 C 93 % 0.59 C
165 14-02-2011 08:58:02 2.4 C 92 % 1.24 C
166 14-02-2011 09:10:02 2.5 C 92 % 1.34 C
167 14-02-2011 09:22:02 3 C 92 % 1.83 C
168 14-02-2011 09:34:02 3.4 C 92 % 2.23 C
169 14-02-2011 09:46:02 3.6 C 92 % 2.42 C
170 14-02-2011 09:58:02 3.6 C 92 % 2.42 C
171 14-02-2011 10:10:02 3.7 C 91 % 2.37 C
172 14-02-2011 10:22:02 4.2 C 90 % 2.71 C
173 14-02-2011 10:34:02 4.7 C 89 % 3.05 C
174 14-02-2011 10:46:02 5.4 C 87 % 3.41 C
175 14-02-2011 10:58:02 6 C 85 % 3.67 C
Sensor: Nr:Datum:Temp:Feuchte:Taupunkt:
Aussen-T/F 176 14-02-2011 11:10:01 6.3 C 81 % 3.29 C
177 14-02-2011 11:22:02 6.8 C 79 % 3.42 C
178 14-02-2011 11:34:02 6.7 C 75 % 2.59 C
179 14-02-2011 11:46:02 7.1 C 72 % 2.4 C
180 14-02-2011 11:58:02 7.7 C 70 % 2.58 C
181 14-02-2011 12:10:03 7.7 C 68 % 2.18 C
182 14-02-2011 12:22:02 8.2 C 66 % 2.24 C
183 14-02-2011 12:34:02 8.4 C 65 % 2.21 C
184 14-02-2011 12:46:01 9.1 C 62 % 2.22 C
185 14-02-2011 12:58:01 9.2 C 59 % 1.62 C
186 14-02-2011 13:10:02 9.8 C 59 % 2.18 C
187 14-02-2011 13:22:01 9.6 C 60 % 2.23 C
188 14-02-2011 13:34:01 10.1 C 58 % 2.22 C
189 14-02-2011 13:46:01 9.9 C 57 % 1.79 C
190 14-02-2011 13:58:01 11 C 55 % 2.32 C
191 14-02-2011 14:10:02 10.2 C 56 % 1.83 C
192 14-02-2011 14:22:52 10.2 C 56 % 1.83 C
193 14-02-2011 14:34:47 9.7 C 58 % 1.85 C
194 14-02-2011 14:46:02 9.5 C 59 % 1.9 C
195 14-02-2011 14:58:02 10 C 57 % 1.89 C
196 14-02-2011 15:10:01 10 C 58 % 2.13 C
197 14-02-2011 15:22:02 10.6 C 58 % 2.69 C
198 14-02-2011 15:34:01 11 C 54 % 2.06 C
199 14-02-2011 15:46:02 10.5 C 57 % 2.35 C
200 14-02-2011 15:58:02 9.6 C 60 % 2.23 C
Sensor: Nr:Datum:Temp:Feuchte:Taupunkt:
Aussen-T/F 201 14-02-2011 16:10:02 9.3 C 61 % 2.18 C
202 14-02-2011 16:22:02 9.2 C 62 % 2.31 C
203 14-02-2011 16:34:02 8.9 C 64 % 2.47 C
204 14-02-2011 16:46:01 8.6 C 66 % 2.62 C
205 14-02-2011 16:58:01 8 C 68 % 2.47 C
206 14-02-2011 17:10:02 7.2 C 72 % 2.5 C
207 14-02-2011 17:22:01 6.7 C 77 % 2.96 C
208 14-02-2011 17:34:02 6.3 C 79 % 2.93 C
209 14-02-2011 17:46:02 6.2 C 80 % 3.01 C
210 14-02-2011 17:58:02 5.9 C 82 % 3.07 C
211 14-02-2011 18:10:02 6.2 C 82 % 3.36 C
212 14-02-2011 18:22:01 6.3 C 83 % 3.63 C
213 14-02-2011 18:34:02 6.2 C 83 % 3.53 C
214 14-02-2011 18:46:02 6.4 C 83 % 3.73 C
215 14-02-2011 18:58:02 6.5 C 82 % 3.66 C
216 14-02-2011 19:10:02 6.6 C 82 % 3.75 C
217 14-02-2011 19:22:02 6.5 C 82 % 3.66 C
218 14-02-2011 19:34:02 6.5 C 83 % 3.83 C
219 14-02-2011 19:46:01 6.4 C 84 % 3.9 C
220 14-02-2011 19:58:01 6.4 C 85 % 4.07 C
221 14-02-2011 20:10:02 6.4 C 86 % 4.23 C
222 14-02-2011 20:22:01 6.3 C 86 % 4.14 C
223 14-02-2011 20:34:01 6.4 C 86 % 4.23 C
224 14-02-2011 20:46:01 6.4 C 86 % 4.23 C
225 14-02-2011 20:58:01 6.3 C 86 % 4.14 C
Sensor: Nr:Datum:Temp:Feuchte:Taupunkt:
Aussen-T/F 226 14-02-2011 21:10:02 6.3 C 86 % 4.14 C
227 14-02-2011 21:22:01 6.3 C 86 % 4.14 C
228 14-02-2011 21:35:01 6.3 C 86 % 4.14 C
229 14-02-2011 21:47:01 6.2 C 86 % 4.04 C
230 14-02-2011 21:59:01 6.2 C 86 % 4.04 C
231 14-02-2011 22:11:01 6.1 C 86 % 3.94 C
232 14-02-2011 22:23:01 6.2 C 86 % 4.04 C
233 14-02-2011 22:35:01 6.2 C 85 % 3.87 C
234 14-02-2011 22:47:01 6.1 C 85 % 3.77 C
235 14-02-2011 22:59:01 6 C 85 % 3.67 C
236 14-02-2011 23:11:01 6 C 85 % 3.67 C
237 14-02-2011 23:23:02 5.9 C 86 % 3.74 C
238 14-02-2011 23:35:02 5.9 C 86 % 3.74 C
239 14-02-2011 23:47:02 5.9 C 86 % 3.74 C
240 14-02-2011 23:59:02 5.9 C 87 % 3.91 C
241 15-02-2011 00:11:02 5.9 C 87 % 3.91 C
242 15-02-2011 00:23:02 5.9 C 87 % 3.91 C
243 15-02-2011 00:35:02 5.9 C 87 % 3.91 C
244 15-02-2011 00:47:02 6 C 87 % 4 C
245 15-02-2011 00:59:02 5.9 C 88 % 4.07 C
246 15-02-2011 01:11:02 5.9 C 88 % 4.07 C
247 15-02-2011 01:23:02 5.9 C 89 % 4.23 C
248 15-02-2011 01:35:02 5.9 C 89 % 4.23 C
249 15-02-2011 01:47:02 5.8 C 89 % 4.13 C
250 15-02-2011 01:59:02 5.9 C 89 % 4.23 C
Sensor: Nr:Datum:Temp:Feuchte:Taupunkt:
Aussen-T/F 251 15-02-2011 02:11:02 5.9 C 90 % 4.39 C
252 15-02-2011 02:23:02 5.7 C 90 % 4.19 C
253 15-02-2011 02:35:02 5.6 C 90 % 4.09 C
254 15-02-2011 02:47:02 5.4 C 90 % 3.89 C
255 15-02-2011 02:59:02 5.2 C 90 % 3.7 C
256 15-02-2011 03:11:02 4.9 C 90 % 3.4 C
257 15-02-2011 03:23:02 4.8 C 90 % 3.3 C
258 15-02-2011 03:35:03 4.6 C 90 % 3.1 C
259 15-02-2011 03:47:03 4.4 C 90 % 2.91 C
260 15-02-2011 03:59:03 4.4 C 90 % 2.91 C
261 15-02-2011 04:11:03 4.5 C 90 % 3.01 C
262 15-02-2011 04:23:03 4.5 C 90 % 3.01 C
263 15-02-2011 04:35:03 4.5 C 90 % 3.01 C
264 15-02-2011 04:47:03 4.6 C 91 % 3.26 C
265 15-02-2011 04:59:03 4.4 C 90 % 2.91 C
266 15-02-2011 05:11:03 4.3 C 90 % 2.81 C
267 15-02-2011 05:23:03 4.3 C 90 % 2.81 C
268 15-02-2011 05:35:03 4.2 C 90 % 2.71 C
269 15-02-2011 05:47:03 4.3 C 91 % 2.96 C
270 15-02-2011 05:59:03 4.3 C 91 % 2.96 C
271 15-02-2011 06:11:03 4.2 C 91 % 2.87 C
272 15-02-2011 06:23:03 4.2 C 91 % 2.87 C
273 15-02-2011 06:35:03 4.3 C 91 % 2.96 C
274 15-02-2011 06:47:03 4.3 C 91 % 2.96 C
275 15-02-2011 06:59:03 4.2 C 91 % 2.87 C
Sensor: Nr:Datum:Temp:Feuchte:Taupunkt:
Aussen-T/F 276 15-02-2011 07:11:03 4 C 91 % 2.67 C
277 15-02-2011 07:23:03 3.9 C 92 % 2.72 C
278 15-02-2011 07:35:01 3.6 C 91 % 2.27 C
279 15-02-2011 07:47:01 3.6 C 91 % 2.27 C
280 15-02-2011 07:59:01 3.6 C 91 % 2.27 C
281 15-02-2011 08:11:02 3.7 C 91 % 2.37 C
282 15-02-2011 08:23:02 3.7 C 91 % 2.37 C
283 15-02-2011 08:35:01 3.8 C 92 % 2.62 C
284 15-02-2011 08:47:02 3.9 C 92 % 2.72 C
285 15-02-2011 08:59:02 4.1 C 91 % 2.77 C
286 15-02-2011 09:11:01 4.2 C 91 % 2.87 C
287 15-02-2011 09:23:02 4.6 C 91 % 3.26 C
288 15-02-2011 09:35:01 4.7 C 90 % 3.2 C
289 15-02-2011 09:47:02 4.6 C 90 % 3.1 C
290 15-02-2011 09:59:02 4.9 C 89 % 3.24 C
291 15-02-2011 10:11:02 5.4 C 88 % 3.58 C
292 15-02-2011 10:23:02 5.6 C 87 % 3.61 C
293 15-02-2011 10:35:02 5.8 C 86 % 3.64 C
294 15-02-2011 10:47:01 5.6 C 83 % 2.95 C
295 15-02-2011 10:59:01 5.9 C 82 % 3.07 C
296 15-02-2011 11:11:01 6.4 C 79 % 3.03 C
297 15-02-2011 11:23:02 7.1 C 75 % 2.98 C
298 15-02-2011 11:35:01 6.8 C 74 % 2.5 C
299 15-02-2011 11:47:02 7.1 C 72 % 2.4 C
300 15-02-2011 11:59:03 7.5 C 71 % 2.59 C
Sensor: Nr:Datum:Temp:Feuchte:Taupunkt:
Aussen-T/F 301 15-02-2011 12:11:01 8 C 67 % 2.26 C
302 15-02-2011 12:23:01 7.8 C 68 % 2.27 C
303 15-02-2011 12:35:01 7.6 C 68 % 2.08 C
304 15-02-2011 12:47:02 7.4 C 69 % 2.1 C
305 15-02-2011 12:59:02 7.4 C 68 % 1.89 C
306 15-02-2011 13:11:01 7.3 C 67 % 1.59 C
307 15-02-2011 13:23:02 7.8 C 68 % 2.27 C
308 15-02-2011 13:35:01 7.8 C 68 % 2.27 C
309 15-02-2011 13:47:02 6.9 C 68 % 1.41 C
310 15-02-2011 13:59:02 7.1 C 69 % 1.81 C
311 15-02-2011 14:11:01 7.1 C 70 % 2.01 C
312 15-02-2011 14:23:02 6.5 C 72 % 1.83 C
313 15-02-2011 14:35:02 6.7 C 71 % 1.82 C
314 15-02-2011 14:47:02 7 C 70 % 1.91 C
315 15-02-2011 14:59:02 6.3 C 71 % 1.44 C
316 15-02-2011 15:11:02 6.7 C 72 % 2.02 C
317 15-02-2011 15:23:02 6.8 C 71 % 1.92 C
318 15-02-2011 15:35:03 6.3 C 72 % 1.63 C
319 15-02-2011 15:47:02 6.1 C 73 % 1.63 C
320 15-02-2011 15:59:02 5.7 C 74 % 1.44 C
321 15-02-2011 16:11:02 5.7 C 75 % 1.62 C
322 15-02-2011 16:23:02 5.5 C 76 % 1.62 C
323 15-02-2011 16:35:02 5.5 C 78 % 1.98 C
324 15-02-2011 16:47:01 5.3 C 78 % 1.78 C
325 15-02-2011 16:59:01 5.4 C 78 % 1.88 C
Sensor: Nr:Datum:Temp:Feuchte:Taupunkt:
Aussen-T/F 326 15-02-2011 17:11:02 5.2 C 77 % 1.51 C
327 15-02-2011 17:23:01 5.1 C 78 % 1.59 C
328 15-02-2011 17:35:02 5 C 77 % 1.31 C
329 15-02-2011 17:47:01 4.8 C 79 % 1.47 C
330 15-02-2011 17:59:01 4.8 C 79 % 1.47 C
331 15-02-2011 18:11:02 4.5 C 79 % 1.18 C
332 15-02-2011 18:23:02 4.5 C 80 % 1.36 C
333 15-02-2011 18:35:02 4.5 C 80 % 1.36 C
334 15-02-2011 18:47:02 4.8 C 79 % 1.47 C
335 15-02-2011 18:59:02 4.8 C 79 % 1.47 C
336 15-02-2011 19:11:02 4.7 C 79 % 1.38 C
337 15-02-2011 19:23:02 4.4 C 79 % 1.09 C
338 15-02-2011 19:35:02 4.1 C 81 % 1.14 C
339 15-02-2011 19:47:02 4 C 81 % 1.04 C
340 15-02-2011 19:59:02 3.7 C 83 % 1.09 C
341 15-02-2011 20:11:01 3.2 C 84 % 0.76 C
342 15-02-2011 20:23:02 3.4 C 85 % 1.12 C
343 15-02-2011 20:35:01 3 C 86 % 0.89 C
344 15-02-2011 20:47:02 3.5 C 87 % 1.55 C
345 15-02-2011 20:59:02 4 C 87 % 2.04 C
346 15-02-2011 21:11:01 3.9 C 87 % 1.94 C
347 15-02-2011 21:23:01 4.1 C 86 % 1.97 C
348 15-02-2011 21:35:02 4.1 C 86 % 1.97 C
349 15-02-2011 21:47:02 4.3 C 86 % 2.17 C
350 15-02-2011 21:59:02 4.8 C 86 % 2.66 C
Sensor: Nr:Datum:Temp:Feuchte:Taupunkt:
Aussen-T/F 351 15-02-2011 22:12:03 4.8 C 85 % 2.5 C
352 15-02-2011 22:24:03 4.6 C 84 % 2.14 C
353 15-02-2011 22:36:03 4.1 C 84 % 1.65 C
354 15-02-2011 22:48:03 3.5 C 85 % 1.22 C
355 15-02-2011 23:00:03 4.1 C 86 % 1.97 C
356 15-02-2011 23:12:03 4.2 C 87 % 2.23 C
357 15-02-2011 23:24:03 4.3 C 87 % 2.33 C
358 15-02-2011 23:36:03 4.6 C 87 % 2.63 C
359 15-02-2011 23:48:03 4.6 C 87 % 2.63 C
360 16-02-2011 00:00:03 4.5 C 87 % 2.53 C
361 16-02-2011 00:12:03 4.8 C 87 % 2.82 C
362 16-02-2011 00:24:03 5.2 C 84 % 2.72 C
363 16-02-2011 00:36:03 5.2 C 84 % 2.72 C
364 16-02-2011 00:48:03 4.2 C 83 % 1.58 C
365 16-02-2011 01:00:03 3.5 C 84 % 1.06 C
366 16-02-2011 01:12:03 2.9 C 86 % 0.8 C
367 16-02-2011 01:24:03 3.4 C 87 % 1.45 C
368 16-02-2011 01:36:03 3.7 C 88 % 1.9 C
369 16-02-2011 01:48:03 4.1 C 88 % 2.3 C
370 16-02-2011 02:00:03 4.3 C 89 % 2.65 C
371 16-02-2011 02:12:04 4.5 C 89 % 2.85 C
372 16-02-2011 02:24:04 4.4 C 89 % 2.75 C
373 16-02-2011 02:36:04 3.8 C 89 % 2.16 C
374 16-02-2011 02:48:04 4.1 C 89 % 2.45 C
375 16-02-2011 03:00:04 4.5 C 89 % 2.85 C
Sensor: Nr:Datum:Temp:Feuchte:Taupunkt:
Aussen-T/F 376 16-02-2011 03:12:04 4.3 C 89 % 2.65 C
377 16-02-2011 03:24:04 4.2 C 89 % 2.55 C
378 16-02-2011 03:36:04 4.4 C 89 % 2.75 C
379 16-02-2011 03:48:04 4.7 C 89 % 3.05 C
380 16-02-2011 04:00:04 4.5 C 88 % 2.69 C
381 16-02-2011 04:12:04 4.1 C 88 % 2.3 C
382 16-02-2011 04:24:04 4 C 88 % 2.2 C
383 16-02-2011 04:36:04 3.2 C 88 % 1.41 C
384 16-02-2011 04:48:04 3.1 C 88 % 1.31 C
385 16-02-2011 05:00:04 2.7 C 89 % 1.07 C
386 16-02-2011 05:12:04 2.2 C 89 % 0.58 C
387 16-02-2011 05:24:04 2.4 C 89 % 0.78 C
388 16-02-2011 05:36:04 2.3 C 89 % 0.68 C
389 16-02-2011 05:48:04 3.3 C 90 % 1.82 C
390 16-02-2011 06:00:04 3.2 C 90 % 1.72 C
391 16-02-2011 06:12:04 3.6 C 90 % 2.12 C
392 16-02-2011 06:24:05 3.8 C 90 % 2.31 C
393 16-02-2011 06:36:05 3.9 C 90 % 2.41 C
394 16-02-2011 06:48:05 4.2 C 89 % 2.55 C
395 16-02-2011 07:00:05 4.5 C 88 % 2.69 C
396 16-02-2011 07:12:05 4.3 C 87 % 2.33 C
397 16-02-2011 07:24:05 3.8 C 87 % 1.84 C
398 16-02-2011 07:36:05 4.1 C 86 % 1.97 C
399 16-02-2011 07:48:02 3.8 C 86 % 1.68 C
400 16-02-2011 08:00:02 3.8 C 86 % 1.68 C
Sensor: Nr:Datum:Temp:Feuchte:Taupunkt:
Aussen-T/F 401 16-02-2011 08:12:02 4.1 C 85 % 1.81 C
402 16-02-2011 08:24:03 4.2 C 85 % 1.91 C
403 16-02-2011 08:36:02 4.4 C 85 % 2.11 C
404 16-02-2011 08:48:03 4.5 C 85 % 2.2 C
405 16-02-2011 09:00:03 4.7 C 85 % 2.4 C
406 16-02-2011 09:12:02 5.1 C 82 % 2.29 C
407 16-02-2011 09:24:02 5.7 C 82 % 2.87 C
408 16-02-2011 09:36:02 5.9 C 80 % 2.72 C
409 16-02-2011 09:48:02 5.8 C 78 % 2.27 C
410 16-02-2011 10:00:02 6.6 C 75 % 2.49 C
411 16-02-2011 10:12:02 6.5 C 71 % 1.63 C
412 16-02-2011 10:24:02 6.7 C 70 % 1.63 C
413 16-02-2011 10:36:02 7.5 C 68 % 1.99 C
414 16-02-2011 10:48:02 7.6 C 67 % 1.88 C
415 16-02-2011 11:00:02 7.4 C 68 % 1.89 C
416 16-02-2011 11:12:03 7.4 C 66 % 1.48 C
417 16-02-2011 11:24:02 7.4 C 68 % 1.89 C
418 16-02-2011 11:36:02 7.9 C 66 % 1.95 C
419 16-02-2011 11:48:01 8.2 C 64 % 1.81 C
420 16-02-2011 12:00:01 8.3 C 63 % 1.68 C
421 16-02-2011 12:12:02 7.8 C 63 % 1.21 C
422 16-02-2011 12:24:01 7.9 C 66 % 1.95 C
423 16-02-2011 12:36:01 7.9 C 66 % 1.95 C
424 16-02-2011 12:48:01 7.7 C 66 % 1.76 C
425 16-02-2011 13:00:01 8.4 C 62 % 1.55 C
Sensor: Nr:Datum:Temp:Feuchte:Taupunkt:
Aussen-T/F 426 16-02-2011 13:12:02 9.5 C 59 % 1.9 C
427 16-02-2011 13:24:02 9.5 C 58 % 1.66 C
428 16-02-2011 13:36:01 9.3 C 59 % 1.71 C
429 16-02-2011 13:48:02 8.6 C 61 % 1.52 C
430 16-02-2011 14:00:02 8.4 C 62 % 1.55 C
431 16-02-2011 14:12:01 8.6 C 62 % 1.74 C
432 16-02-2011 14:24:02 9.6 C 59 % 1.99 C
433 16-02-2011 14:36:01 9.6 C 57 % 1.51 C
434 16-02-2011 14:48:02 9 C 59 % 1.43 C
435 16-02-2011 15:00:02 8.8 C 61 % 1.71 C
436 16-02-2011 15:12:02 8.7 C 61 % 1.61 C
437 16-02-2011 15:24:02 8.8 C 61 % 1.71 C
438 16-02-2011 15:36:02 9.5 C 61 % 2.37 C
439 16-02-2011 15:48:02 9.3 C 60 % 1.95 C
440 16-02-2011 16:00:02 10.6 C 56 % 2.2 C
441 16-02-2011 16:12:02 10.6 C 55 % 1.95 C
442 16-02-2011 16:24:01 10.7 C 53 % 1.52 C
443 16-02-2011 16:36:02 9.8 C 57 % 1.7 C
444 16-02-2011 16:48:02 8.8 C 62 % 1.93 C
445 16-02-2011 17:00:02 7.9 C 67 % 2.16 C
446 16-02-2011 17:12:02 7.5 C 69 % 2.19 C
447 16-02-2011 17:24:02 6.4 C 73 % 1.92 C
448 16-02-2011 17:36:02 5.4 C 77 % 1.7 C
449 16-02-2011 17:48:02 4.9 C 80 % 1.75 C
450 16-02-2011 18:00:02 4.4 C 82 % 1.6 C
Sensor: Nr:Datum:Temp:Feuchte:Taupunkt:
Aussen-T/F 451 16-02-2011 18:12:03 4.2 C 83 % 1.58 C
452 16-02-2011 18:24:02 3.8 C 84 % 1.35 C
453 16-02-2011 18:36:02 3.5 C 85 % 1.22 C
454 16-02-2011 18:48:02 3.5 C 86 % 1.38 C
455 16-02-2011 19:00:02 3.3 C 86 % 1.19 C
456 16-02-2011 19:12:01 3 C 87 % 1.05 C
457 16-02-2011 19:24:01 2.9 C 88 % 1.11 C
458 16-02-2011 19:36:02 2.7 C 88 % 0.92 C
459 16-02-2011 19:48:02 2.6 C 88 % 0.82 C
460 16-02-2011 20:00:02 2.3 C 88 % 0.52 C
461 16-02-2011 20:12:02 2.3 C 88 % 0.52 C
462 16-02-2011 20:24:02 2.1 C 89 % 0.48 C
463 16-02-2011 20:36:02 2.1 C 89 % 0.48 C
464 16-02-2011 20:48:01 1.4 C 89 % -0.21 C
465 16-02-2011 21:00:01 1.8 C 90 % 0.34 C
466 16-02-2011 21:12:02 1.5 C 89 % -0.11 C
467 16-02-2011 21:24:01 1.3 C 90 % -0.15 C
468 16-02-2011 21:36:02 1.5 C 90 % 0.04 C
469 16-02-2011 21:49:03 1.4 C 90 % -0.06 C
470 16-02-2011 22:01:04 1.4 C 90 % -0.06 C
471 16-02-2011 22:13:04 0.7 C 91 % -0.6 C
472 16-02-2011 22:25:04 0.6 C 91 % -0.7 C
473 16-02-2011 22:37:04 0.6 C 91 % -0.7 C
474 16-02-2011 22:49:04 0 C 91 % -1.29 C
475 16-02-2011 23:01:04 -0.2 C 91 % -1.49 C
Sensor: Nr:Datum:Temp:Feuchte:Taupunkt:
Aussen-T/F 476 16-02-2011 23:13:04 -0.4 C 91 % -1.69 C
477 16-02-2011 23:25:04 -0.4 C 91 % -1.69 C
478 16-02-2011 23:37:04 0 C 91 % -1.29 C
479 16-02-2011 23:49:04 -0.3 C 91 % -1.59 C
480 17-02-2011 00:01:04 -0.8 C 91 % -2.08 C
481 17-02-2011 00:13:04 -0.9 C 90 % -2.33 C
482 17-02-2011 00:25:04 -1 C 90 % -2.43 C
483 17-02-2011 00:37:04 -1 C 90 % -2.43 C
484 17-02-2011 00:49:04 -1 C 90 % -2.43 C
485 17-02-2011 01:01:04 -0.9 C 90 % -2.33 C
486 17-02-2011 01:13:04 -0.7 C 91 % -1.98 C
487 17-02-2011 01:25:04 -1 C 91 % -2.28 C
488 17-02-2011 01:37:04 -0.5 C 91 % -1.78 C
489 17-02-2011 01:49:04 -0.5 C 91 % -1.78 C
490 17-02-2011 02:01:05 -0.4 C 91 % -1.69 C
491 17-02-2011 02:13:05 -0.3 C 91 % -1.59 C
492 17-02-2011 02:25:05 -0.3 C 92 % -1.44 C
493 17-02-2011 02:37:05 -0.7 C 91 % -1.98 C
494 17-02-2011 02:49:05 -0.5 C 91 % -1.78 C
495 17-02-2011 03:01:05 -0.5 C 92 % -1.64 C
496 17-02-2011 03:13:05 -0.4 C 92 % -1.54 C
497 17-02-2011 03:25:05 -0.2 C 92 % -1.34 C
498 17-02-2011 03:37:05 -0.1 C 92 % -1.24 C
499 17-02-2011 03:49:05 0 C 92 % -1.14 C
500 17-02-2011 04:01:05 -0.1 C 92 % -1.24 C
Sensor: Nr:Datum:Temp:Feuchte:Taupunkt:
Aussen-T/F 501 17-02-2011 04:13:05 0 C 92 % -1.14 C
502 17-02-2011 04:25:05 0.1 C 92 % -1.04 C
503 17-02-2011 04:37:05 0.2 C 92 % -0.94 C
504 17-02-2011 04:49:05 0.4 C 93 % -0.6 C
505 17-02-2011 05:01:05 0.5 C 93 % -0.5 C
506 17-02-2011 05:13:05 0.5 C 93 % -0.5 C
507 17-02-2011 05:25:05 0.5 C 93 % -0.5 C
508 17-02-2011 05:37:05 0.5 C 93 % -0.5 C
509 17-02-2011 05:49:05 0.6 C 93 % -0.4 C
510 17-02-2011 06:01:05 0.8 C 93 % -0.2 C
511 17-02-2011 06:13:06 0.8 C 93 % -0.2 C
512 17-02-2011 06:25:06 0.9 C 93 % -0.1 C
513 17-02-2011 06:37:06 1.1 C 93 % 0.1 C
514 17-02-2011 06:49:06 1.1 C 93 % 0.1 C
515 17-02-2011 07:01:06 1.1 C 93 % 0.1 C
516 17-02-2011 07:13:06 1.2 C 93 % 0.2 C
517 17-02-2011 07:25:06 1.2 C 93 % 0.2 C
518 17-02-2011 07:37:03 1.3 C 93 % 0.3 C
519 17-02-2011 07:49:02 1.3 C 93 % 0.3 C
520 17-02-2011 08:01:02 1.4 C 93 % 0.4 C
521 17-02-2011 08:13:02 1.4 C 93 % 0.4 C
522 17-02-2011 08:25:02 1.4 C 93 % 0.4 C
523 17-02-2011 08:37:02 1.6 C 93 % 0.59 C
524 17-02-2011 08:49:02 1.8 C 93 % 0.79 C
525 17-02-2011 09:01:02 2.1 C 93 % 1.09 C
Sensor: Nr:Datum:Temp:Feuchte:Taupunkt:
Aussen-T/F 526 17-02-2011 09:13:02 2.2 C 93 % 1.19 C
527 17-02-2011 09:25:02 2.5 C 93 % 1.49 C
528 17-02-2011 09:37:02 2.4 C 92 % 1.24 C
529 17-02-2011 09:49:02 2.4 C 92 % 1.24 C
530 17-02-2011 10:01:02 3.1 C 92 % 1.93 C
531 17-02-2011 10:13:02 3.4 C 90 % 1.92 C
532 17-02-2011 10:25:02 4.1 C 85 % 1.81 C
533 17-02-2011 10:37:02 4.2 C 75 % 0.17 C
534 17-02-2011 10:49:02 4.1 C 69 % -1.06 C
535 17-02-2011 11:01:03 3.8 C 68 % -1.55 C
536 17-02-2011 11:13:03 3.6 C 69 % -1.54 C
537 17-02-2011 11:25:02 3.5 C 70 % -1.44 C
538 17-02-2011 11:37:02 4.4 C 65 % -1.59 C
539 17-02-2011 11:49:01 4.7 C 61 % -2.16 C
540 17-02-2011 12:01:01 6.1 C 55 % -2.25 C
541 17-02-2011 12:13:02 5.8 C 55 % -2.53 C
542 17-02-2011 12:25:01 5.6 C 54 % -2.96 C
543 17-02-2011 12:37:01 5.7 C 54 % -2.87 C
544 17-02-2011 12:49:01 7.4 C 52 % -1.8 C
545 17-02-2011 13:01:01 8 C 47 % -2.61 C
546 17-02-2011 13:13:01 6.5 C 48 % -3.7 C
547 17-02-2011 13:25:02 7 C 48 % -3.24 C
548 17-02-2011 13:37:01 5.6 C 53 % -3.21 C
549 17-02-2011 13:49:02 5 C 56 % -3.03 C
550 17-02-2011 14:01:02 5.1 C 57 % -2.7 C
Sensor: Nr:Datum:Temp:Feuchte:Taupunkt:
Aussen-T/F 551 17-02-2011 14:13:02 5.3 C 56 % -2.75 C
552 17-02-2011 14:25:02 5.7 C 55 % -2.62 C
553 17-02-2011 14:37:02 5.8 C 55 % -2.53 C
554 17-02-2011 14:49:02 5.6 C 52 % -3.46 C
555 17-02-2011 15:01:01 6.1 C 53 % -2.74 C
556 17-02-2011 15:13:01 6.1 C 52 % -3 C
557 17-02-2011 15:25:02 5.5 C 54 % -3.05 C
558 17-02-2011 15:37:02 5.5 C 54 % -3.05 C
559 17-02-2011 15:49:02 5.8 C 52 % -3.28 C
560 17-02-2011 16:01:02 4.7 C 56 % -3.31 C
561 17-02-2011 16:13:02 4.4 C 58 % -3.12 C
562 17-02-2011 16:25:02 4.1 C 59 % -3.18 C
563 17-02-2011 16:37:02 4 C 59 % -3.27 C
564 17-02-2011 16:49:01 3.6 C 62 % -2.98 C
565 17-02-2011 17:01:01 3.3 C 61 % -3.49 C
566 17-02-2011 17:13:01 3 C 62 % -3.55 C
567 17-02-2011 17:25:01 2.9 C 64 % -3.22 C
568 17-02-2011 17:37:01 2.6 C 63 % -3.72 C
569 17-02-2011 17:49:01 2.1 C 66 % -3.57 C
570 17-02-2011 18:01:01 1.5 C 69 % -3.55 C
571 17-02-2011 18:13:01 1.4 C 71 % -3.27 C
572 17-02-2011 18:25:02 1 C 72 % -3.47 C
573 17-02-2011 18:37:01 0.6 C 73 % -3.67 C
574 17-02-2011 18:49:03 0.3 C 74 % -3.78 C
575 17-02-2011 19:01:02 0 C 76 % -3.71 C
Sensor: Nr:Datum:Temp:Feuchte:Taupunkt:
Aussen-T/F 576 17-02-2011 19:13:02 -0.4 C 78 % -3.76 C
577 17-02-2011 19:25:02 -0.4 C 79 % -3.59 C
578 17-02-2011 19:37:02 -0.9 C 79 % -4.08 C
579 17-02-2011 19:49:02 -0.8 C 81 % -3.64 C
580 17-02-2011 20:01:02 -0.2 C 83 % -2.73 C
581 17-02-2011 20:13:02 0.2 C 83 % -2.34 C
582 17-02-2011 20:25:02 0.2 C 83 % -2.34 C
583 17-02-2011 20:37:02 0.3 C 82 % -2.4 C
584 17-02-2011 20:49:01 0.5 C 81 % -2.37 C
585 17-02-2011 21:02:02 0.5 C 81 % -2.37 C
586 17-02-2011 21:14:03 0.8 C 80 % -2.25 C
587 17-02-2011 21:26:03 1 C 78 % -2.39 C
588 17-02-2011 21:38:03 1.1 C 76 % -2.65 C
589 17-02-2011 21:50:03 1.3 C 74 % -2.81 C
590 17-02-2011 22:02:03 1.3 C 73 % -2.99 C
591 17-02-2011 22:14:03 1.3 C 72 % -3.18 C
592 17-02-2011 22:26:03 1.3 C 72 % -3.18 C
593 17-02-2011 22:38:03 1.3 C 72 % -3.18 C
594 17-02-2011 22:50:03 1.3 C 72 % -3.18 C
595 17-02-2011 23:02:03 1.3 C 72 % -3.18 C
596 17-02-2011 23:14:03 1.4 C 71 % -3.27 C
597 17-02-2011 23:26:03 1.4 C 71 % -3.27 C
598 17-02-2011 23:38:03 1.4 C 72 % -3.08 C
599 17-02-2011 23:50:03 1.3 C 72 % -3.18 C
600 18-02-2011 00:02:03 1.3 C 72 % -3.18 C
Sensor: Nr:Datum:Temp:Feuchte:Taupunkt:
Aussen-T/F 601 18-02-2011 00:14:03 1.4 C 72 % -3.08 C
602 18-02-2011 00:26:03 1.3 C 72 % -3.18 C
603 18-02-2011 00:38:03 1.2 C 73 % -3.09 C
604 18-02-2011 00:50:03 1.2 C 73 % -3.09 C
605 18-02-2011 01:02:03 1.3 C 73 % -2.99 C
606 18-02-2011 01:14:03 1.2 C 72 % -3.27 C
607 18-02-2011 01:26:04 1.2 C 72 % -3.27 C
608 18-02-2011 01:38:04 1.2 C 72 % -3.27 C
609 18-02-2011 01:50:04 1.2 C 72 % -3.27 C
610 18-02-2011 02:02:04 1.2 C 73 % -3.09 C
611 18-02-2011 02:14:04 1.3 C 74 % -2.81 C
612 18-02-2011 02:26:04 1.2 C 74 % -2.91 C
613 18-02-2011 02:38:04 1.2 C 74 % -2.91 C
614 18-02-2011 02:50:04 1.2 C 74 % -2.91 C
615 18-02-2011 03:02:04 1.2 C 74 % -2.91 C
616 18-02-2011 03:14:04 1.2 C 74 % -2.91 C
617 18-02-2011 03:26:04 1.3 C 73 % -2.99 C
618 18-02-2011 03:38:04 1.3 C 73 % -2.99 C
619 18-02-2011 03:50:04 1.3 C 72 % -3.18 C
620 18-02-2011 04:02:04 1.3 C 73 % -2.99 C
621 18-02-2011 04:14:04 1.3 C 73 % -2.99 C
622 18-02-2011 04:26:04 1.3 C 72 % -3.18 C
623 18-02-2011 04:38:04 1.3 C 72 % -3.18 C
624 18-02-2011 04:50:04 1.3 C 72 % -3.18 C
625 18-02-2011 05:02:04 1.2 C 72 % -3.27 C
Sensor: Nr:Datum:Temp:Feuchte:Taupunkt:
Aussen-T/F 626 18-02-2011 05:14:04 1.2 C 72 % -3.27 C
627 18-02-2011 05:26:04 1.2 C 73 % -3.09 C
628 18-02-2011 05:38:05 1.2 C 73 % -3.09 C
629 18-02-2011 05:50:05 1.1 C 74 % -3 C
630 18-02-2011 06:02:05 1.1 C 74 % -3 C
631 18-02-2011 06:14:05 1.2 C 74 % -2.91 C
632 18-02-2011 06:26:05 1.2 C 75 % -2.73 C
633 18-02-2011 06:38:05 1.2 C 74 % -2.91 C
634 18-02-2011 06:50:05 1.2 C 74 % -2.91 C
635 18-02-2011 07:02:05 1.3 C 74 % -2.81 C
636 18-02-2011 07:14:05 1.2 C 75 % -2.73 C
637 18-02-2011 07:26:05 1.2 C 75 % -2.73 C
638 18-02-2011 07:38:02 1.3 C 74 % -2.81 C
639 18-02-2011 07:50:02 1.2 C 74 % -2.91 C
640 18-02-2011 08:02:03 1.4 C 74 % -2.71 C
641 18-02-2011 08:14:03 1.4 C 75 % -2.53 C
642 18-02-2011 08:26:02 1.5 C 74 % -2.62 C
643 18-02-2011 08:38:03 1.6 C 74 % -2.52 C
644 18-02-2011 08:50:02 1.7 C 74 % -2.42 C
645 18-02-2011 09:02:02 1.8 C 74 % -2.33 C
646 18-02-2011 09:14:02 2 C 71 % -2.69 C
647 18-02-2011 09:26:01 2.2 C 70 % -2.69 C
648 18-02-2011 09:38:02 2.3 C 69 % -2.79 C
649 18-02-2011 09:50:02 2.3 C 69 % -2.79 C
650 18-02-2011 10:02:02 2.5 C 69 % -2.6 C
Sensor: Nr:Datum:Temp:Feuchte:Taupunkt:
Aussen-T/F 651 18-02-2011 10:14:02 2.4 C 68 % -2.89 C
652 18-02-2011 10:26:02 2.5 C 68 % -2.79 C
653 18-02-2011 10:38:02 2.5 C 69 % -2.6 C
654 18-02-2011 10:50:02 2.7 C 69 % -2.4 C
655 18-02-2011 11:02:01 2.8 C 69 % -2.31 C
656 18-02-2011 11:14:01 2.8 C 68 % -2.51 C
657 18-02-2011 11:26:02 3 C 67 % -2.51 C
658 18-02-2011 11:38:02 3 C 67 % -2.51 C
659 18-02-2011 11:50:02 3 C 67 % -2.51 C
660 18-02-2011 12:02:02 3.1 C 67 % -2.42 C
661 18-02-2011 12:14:02 3.3 C 67 % -2.23 C
662 18-02-2011 12:26:02 3.2 C 67 % -2.32 C
663 18-02-2011 12:38:02 3.2 C 67 % -2.32 C
664 18-02-2011 12:50:02 3.1 C 67 % -2.42 C
665 18-02-2011 13:02:02 3.2 C 68 % -2.12 C
666 18-02-2011 13:14:02 3.2 C 67 % -2.32 C
667 18-02-2011 13:26:01 3.5 C 68 % -1.84 C
668 18-02-2011 13:38:02 3.4 C 67 % -2.13 C
669 18-02-2011 13:50:02 3.6 C 66 % -2.14 C
670 18-02-2011 14:02:02 3.4 C 67 % -2.13 C
671 18-02-2011 14:14:03 3.7 C 67 % -1.85 C
672 18-02-2011 14:26:01 3.6 C 67 % -1.94 C
673 18-02-2011 14:38:02 3.6 C 67 % -1.94 C
674 18-02-2011 14:50:01 3.5 C 68 % -1.84 C
675 18-02-2011 15:02:02 3.7 C 68 % -1.64 C
Sensor: Nr:Datum:Temp:Feuchte:Taupunkt:
Aussen-T/F 676 18-02-2011 15:14:02 3.8 C 67 % -1.75 C
677 18-02-2011 15:26:02 3.6 C 66 % -2.14 C
678 18-02-2011 15:38:02 3.6 C 66 % -2.14 C
679 18-02-2011 15:50:02 3.6 C 67 % -1.94 C
680 18-02-2011 16:02:01 3.6 C 67 % -1.94 C
681 18-02-2011 16:14:01 3.5 C 68 % -1.84 C
682 18-02-2011 16:26:02 3.4 C 68 % -1.93 C
683 18-02-2011 16:38:01 3.2 C 69 % -1.93 C
684 18-02-2011 16:50:03 3.1 C 70 % -1.83 C
685 18-02-2011 17:02:02 3 C 71 % -1.73 C
686 18-02-2011 17:14:02 2.9 C 72 % -1.64 C
687 18-02-2011 17:26:02 2.9 C 72 % -1.64 C
688 18-02-2011 17:38:03 2.9 C 73 % -1.45 C
689 18-02-2011 17:50:02 2.8 C 74 % -1.36 C
690 18-02-2011 18:02:02 2.8 C 74 % -1.36 C
691 18-02-2011 18:14:02 2.8 C 75 % -1.18 C
692 18-02-2011 18:26:02 2.7 C 75 % -1.28 C
693 18-02-2011 18:38:02 2.7 C 76 % -1.1 C
694 18-02-2011 18:50:02 2.6 C 75 % -1.37 C
695 18-02-2011 19:02:01 2.6 C 76 % -1.19 C
696 18-02-2011 19:14:01 2.7 C 76 % -1.1 C
697 18-02-2011 19:26:02 2.6 C 76 % -1.19 C
698 18-02-2011 19:38:01 2.7 C 77 % -0.92 C
699 18-02-2011 19:50:02 2.6 C 77 % -1.02 C
700 18-02-2011 20:02:01 2.5 C 77 % -1.11 C
Sensor: Nr:Datum:Temp:Feuchte:Taupunkt:
Aussen-T/F 701 18-02-2011 20:14:01 2.5 C 77 % -1.11 C
702 18-02-2011 20:26:01 2.5 C 77 % -1.11 C
703 18-02-2011 20:38:02 2.5 C 78 % -0.94 C
704 18-02-2011 20:50:02 2.4 C 78 % -1.03 C
705 18-02-2011 21:02:02 2.4 C 79 % -0.86 C
706 18-02-2011 21:14:02 2.4 C 79 % -0.86 C
707 18-02-2011 21:26:02 2.4 C 79 % -0.86 C
708 18-02-2011 21:38:02 2.4 C 79 % -0.86 C
709 18-02-2011 21:51:04 2.3 C 79 % -0.96 C
710 18-02-2011 22:03:04 2.3 C 79 % -0.96 C
711 18-02-2011 22:15:04 2.3 C 79 % -0.96 C
712 18-02-2011 22:27:04 2.2 C 79 % -1.05 C
713 18-02-2011 22:39:04 2.2 C 80 % -0.88 C
714 18-02-2011 22:51:04 2.2 C 80 % -0.88 C
715 18-02-2011 23:03:04 2.3 C 80 % -0.79 C
716 18-02-2011 23:15:04 2.2 C 81 % -0.71 C
717 18-02-2011 23:27:04 2.2 C 81 % -0.71 C
718 18-02-2011 23:39:04 2.2 C 81 % -0.71 C
719 18-02-2011 23:51:04 2.2 C 81 % -0.71 C
720 19-02-2011 00:03:04 2.1 C 81 % -0.81 C
721 19-02-2011 00:15:04 2.1 C 81 % -0.81 C
722 19-02-2011 00:27:04 2.2 C 81 % -0.71 C
723 19-02-2011 00:39:04 2.2 C 82 % -0.55 C
724 19-02-2011 00:51:04 2.2 C 82 % -0.55 C
725 19-02-2011 01:03:04 2.1 C 82 % -0.64 C
Sensor: Nr:Datum:Temp:Feuchte:Taupunkt:
Aussen-T/F 726 19-02-2011 01:15:05 2.1 C 82 % -0.64 C
727 19-02-2011 01:27:05 2.1 C 82 % -0.64 C
728 19-02-2011 01:39:05 2.1 C 82 % -0.64 C
729 19-02-2011 01:51:05 2 C 82 % -0.74 C
730 19-02-2011 02:03:05 2 C 82 % -0.74 C
731 19-02-2011 02:15:05 2 C 82 % -0.74 C
732 19-02-2011 02:27:05 1.9 C 83 % -0.67 C
733 19-02-2011 02:39:05 2 C 82 % -0.74 C
734 19-02-2011 02:51:05 2 C 82 % -0.74 C
735 19-02-2011 03:03:05 1.9 C 83 % -0.67 C
736 19-02-2011 03:15:05 1.9 C 83 % -0.67 C
737 19-02-2011 03:27:05 2 C 83 % -0.58 C
738 19-02-2011 03:39:05 2 C 83 % -0.58 C
739 19-02-2011 03:51:05 1.9 C 83 % -0.67 C
740 19-02-2011 04:03:05 1.9 C 84 % -0.51 C
741 19-02-2011 04:15:05 1.9 C 84 % -0.51 C
742 19-02-2011 04:27:05 1.8 C 84 % -0.61 C
743 19-02-2011 04:39:05 1.9 C 84 % -0.51 C
744 19-02-2011 04:51:05 1.8 C 84 % -0.61 C
745 19-02-2011 05:03:05 1.8 C 84 % -0.61 C
746 19-02-2011 05:15:05 1.8 C 84 % -0.61 C
747 19-02-2011 05:27:06 1.9 C 83 % -0.67 C
748 19-02-2011 05:39:06 1.9 C 82 % -0.84 C
749 19-02-2011 05:51:06 2 C 79 % -1.25 C
750 19-02-2011 06:03:06 2 C 79 % -1.25 C
Sensor: Nr:Datum:Temp:Feuchte:Taupunkt:
Aussen-T/F 751 19-02-2011 06:15:06 1.8 C 79 % -1.44 C
752 19-02-2011 06:27:06 1.7 C 80 % -1.37 C
753 19-02-2011 06:39:06 1.7 C 81 % -1.2 C
754 19-02-2011 06:51:06 1.8 C 81 % -1.1 C
755 19-02-2011 07:03:06 1.8 C 80 % -1.27 C
756 19-02-2011 07:15:06 1.7 C 80 % -1.37 C
757 19-02-2011 07:27:06 1.6 C 80 % -1.47 C
758 19-02-2011 07:39:06 1.6 C 81 % -1.3 C
759 19-02-2011 07:51:06 1.7 C 80 % -1.37 C
760 19-02-2011 08:03:06 1.7 C 80 % -1.37 C
761 19-02-2011 08:15:06 1.7 C 79 % -1.54 C
762 19-02-2011 08:27:06 1.8 C 78 % -1.62 C
763 19-02-2011 08:39:06 1.8 C 77 % -1.79 C
764 19-02-2011 08:51:02 1.9 C 77 % -1.69 C
765 19-02-2011 09:03:02 2 C 75 % -1.95 C
766 19-02-2011 09:15:02 2 C 74 % -2.13 C
767 19-02-2011 09:27:02 2.1 C 73 % -2.22 C
768 19-02-2011 09:39:02 2.2 C 73 % -2.13 C
769 19-02-2011 09:51:02 2.1 C 73 % -2.22 C
770 19-02-2011 10:03:02 2.2 C 73 % -2.13 C
771 19-02-2011 10:15:02 2.5 C 72 % -2.02 C
772 19-02-2011 10:27:02 2.8 C 71 % -1.92 C
773 19-02-2011 10:39:02 3.2 C 69 % -1.93 C
774 19-02-2011 10:51:02 3.4 C 68 % -1.93 C
775 19-02-2011 11:03:02 3.4 C 67 % -2.13 C
Sensor: Nr:Datum:Temp:Feuchte:Taupunkt:
Aussen-T/F 776 19-02-2011 11:15:02 3.8 C 66 % -1.95 C
777 19-02-2011 11:27:02 3.8 C 65 % -2.16 C
778 19-02-2011 11:39:02 4 C 63 % -2.39 C
779 19-02-2011 11:51:02 4.1 C 61 % -2.73 C
780 19-02-2011 12:03:02 4.4 C 61 % -2.45 C
781 19-02-2011 12:15:02 4.9 C 60 % -2.2 C
782 19-02-2011 12:27:03 5.4 C 57 % -2.42 C
783 19-02-2011 12:39:01 5.3 C 56 % -2.75 C
784 19-02-2011 12:51:02 4.7 C 60 % -2.39 C
785 19-02-2011 13:03:01 4.7 C 61 % -2.16 C
786 19-02-2011 13:15:01 4.9 C 60 % -2.2 C
787 19-02-2011 13:27:01 5.1 C 59 % -2.24 C
788 19-02-2011 13:39:02 5.2 C 59 % -2.14 C
789 19-02-2011 13:51:02 5.8 C 57 % -2.04 C
790 19-02-2011 14:03:02 5.2 C 58 % -2.37 C
791 19-02-2011 14:15:02 4.8 C 59 % -2.52 C
792 19-02-2011 14:27:02 4.6 C 61 % -2.26 C
793 19-02-2011 14:39:02 4.5 C 61 % -2.35 C
794 19-02-2011 14:51:02 4.6 C 61 % -2.26 C
795 19-02-2011 15:03:02 4.7 C 61 % -2.16 C
796 19-02-2011 15:15:02 4.6 C 62 % -2.04 C
797 19-02-2011 15:27:02 4.6 C 61 % -2.26 C
798 19-02-2011 15:39:02 4.5 C 61 % -2.35 C
799 19-02-2011 15:51:02 4.9 C 61 % -1.97 C
800 19-02-2011 16:03:02 4.8 C 61 % -2.07 C
Sensor: Nr:Datum:Temp:Feuchte:Taupunkt:
Aussen-T/F 801 19-02-2011 16:15:03 4.6 C 62 % -2.04 C
802 19-02-2011 16:27:03 4.3 C 64 % -1.89 C
803 19-02-2011 16:39:02 4.2 C 65 % -1.78 C
804 19-02-2011 16:51:02 4.1 C 65 % -1.87 C
805 19-02-2011 17:03:02 4.1 C 66 % -1.67 C
806 19-02-2011 17:15:02 3.8 C 67 % -1.75 C
807 19-02-2011 17:27:02 3.6 C 69 % -1.54 C
808 19-02-2011 17:39:02 3.6 C 70 % -1.35 C
809 19-02-2011 17:51:02 3.6 C 70 % -1.35 C
810 19-02-2011 18:03:02 3.3 C 71 % -1.44 C
811 19-02-2011 18:15:02 3.1 C 71 % -1.63 C
812 19-02-2011 18:27:02 3 C 72 % -1.54 C
813 19-02-2011 18:39:01 2.9 C 74 % -1.27 C
814 19-02-2011 18:51:02 2.8 C 74 % -1.36 C
815 19-02-2011 19:03:01 2.8 C 74 % -1.36 C
816 19-02-2011 19:15:01 3 C 74 % -1.17 C
817 19-02-2011 19:27:01 2.9 C 74 % -1.27 C
818 19-02-2011 19:39:02 2.9 C 74 % -1.27 C
819 19-02-2011 19:51:02 2.9 C 74 % -1.27 C
820 19-02-2011 20:03:02 2.6 C 74 % -1.56 C
821 19-02-2011 20:15:01 2.5 C 74 % -1.65 C
822 19-02-2011 20:27:01 2.4 C 74 % -1.75 C
823 19-02-2011 20:39:02 1.6 C 76 % -2.16 C
824 19-02-2011 20:51:02 1.6 C 79 % -1.64 C
825 19-02-2011 21:03:02 2 C 80 % -1.08 C
Sensor: Nr:Datum:Temp:Feuchte:Taupunkt:
Aussen-T/F 826 19-02-2011 21:15:01 2.3 C 79 % -0.96 C
827 19-02-2011 21:27:01 2.4 C 77 % -1.21 C
828 19-02-2011 21:39:02 2.5 C 76 % -1.29 C
829 19-02-2011 21:51:02 2.6 C 74 % -1.56 C
830 19-02-2011 22:03:02 2.5 C 74 % -1.65 C
831 19-02-2011 22:15:02 2.4 C 73 % -1.93 C
832 19-02-2011 22:27:02 2.2 C 73 % -2.13 C
833 19-02-2011 22:40:03 1.9 C 75 % -2.05 C
834 19-02-2011 22:52:03 1.8 C 75 % -2.15 C
835 19-02-2011 23:04:03 1.8 C 75 % -2.15 C
836 19-02-2011 23:16:03 1.7 C 76 % -2.07 C
837 19-02-2011 23:28:03 1.8 C 76 % -1.97 C
838 19-02-2011 23:40:03 1.9 C 75 % -2.05 C
839 19-02-2011 23:52:03 1.8 C 74 % -2.33 C
840 20-02-2011 00:04:03 1.7 C 74 % -2.42 C
841 20-02-2011 00:16:03 1.7 C 73 % -2.61 C
842 20-02-2011 00:28:03 1.6 C 72 % -2.89 C
843 20-02-2011 00:40:04 1.5 C 72 % -2.99 C
844 20-02-2011 00:52:04 1.4 C 72 % -3.08 C
845 20-02-2011 01:04:04 1.3 C 72 % -3.18 C
846 20-02-2011 01:16:04 1.1 C 72 % -3.37 C
847 20-02-2011 01:28:04 0.9 C 74 % -3.2 C
848 20-02-2011 01:40:04 0.7 C 75 % -3.21 C
849 20-02-2011 01:52:04 0.5 C 75 % -3.4 C
850 20-02-2011 02:04:04 0.5 C 76 % -3.23 C
Sensor: Nr:Datum:Temp:Feuchte:Taupunkt:
Aussen-T/F 851 20-02-2011 02:16:04 0.5 C 76 % -3.23 C
852 20-02-2011 02:28:04 0.5 C 76 % -3.23 C
853 20-02-2011 02:40:04 0.6 C 76 % -3.13 C
854 20-02-2011 02:52:04 0.7 C 75 % -3.21 C
855 20-02-2011 03:04:04 0.8 C 74 % -3.29 C
856 20-02-2011 03:16:04 0.8 C 73 % -3.48 C
857 20-02-2011 03:28:04 0.7 C 73 % -3.57 C
858 20-02-2011 03:40:04 0.6 C 72 % -3.85 C
859 20-02-2011 03:52:04 0.6 C 72 % -3.85 C
860 20-02-2011 04:04:04 0.6 C 72 % -3.85 C
861 20-02-2011 04:16:04 0.5 C 72 % -3.95 C
862 20-02-2011 04:28:04 0.5 C 72 % -3.95 C
863 20-02-2011 04:40:05 0.5 C 72 % -3.95 C
864 20-02-2011 04:52:05 0.5 C 72 % -3.95 C
865 20-02-2011 05:04:05 0.5 C 71 % -4.13 C
866 20-02-2011 05:16:05 0.4 C 72 % -4.04 C
867 20-02-2011 05:28:05 0.3 C 72 % -4.14 C
868 20-02-2011 05:40:05 0.3 C 72 % -4.14 C
869 20-02-2011 05:52:05 0.2 C 72 % -4.24 C
870 20-02-2011 06:04:05 0.3 C 71 % -4.33 C
871 20-02-2011 06:16:05 0.3 C 71 % -4.33 C
872 20-02-2011 06:28:05 0.4 C 71 % -4.23 C
873 20-02-2011 06:40:05 0.4 C 71 % -4.23 C
874 20-02-2011 06:52:05 0.4 C 71 % -4.23 C
875 20-02-2011 07:04:05 0.4 C 71 % -4.23 C
Sensor: Nr:Datum:Temp:Feuchte:Taupunkt:
Aussen-T/F 876 20-02-2011 07:16:05 0.5 C 70 % -4.32 C
877 20-02-2011 07:28:05 0.4 C 70 % -4.42 C
878 20-02-2011 07:40:05 0.4 C 69 % -4.61 C
879 20-02-2011 07:52:05 0.4 C 68 % -4.8 C
880 20-02-2011 08:04:05 0.5 C 68 % -4.71 C
881 20-02-2011 08:16:05 0.4 C 68 % -4.8 C
882 20-02-2011 08:28:05 0.5 C 67 % -4.9 C
883 20-02-2011 08:40:05 0.6 C 67 % -4.81 C
884 20-02-2011 08:52:06 0.7 C 66 % -4.91 C
885 20-02-2011 09:04:06 0.7 C 66 % -4.91 C
886 20-02-2011 09:16:06 0.9 C 65 % -4.92 C
887 20-02-2011 09:28:06 1.2 C 63 % -5.05 C
888 20-02-2011 09:40:03 1.2 C 62 % -5.26 C
889 20-02-2011 09:52:01 1.5 C 61 % -5.19 C
890 20-02-2011 10:04:02 1.5 C 60 % -5.4 C
891 20-02-2011 10:16:02 1.6 C 60 % -5.31 C
892 20-02-2011 10:28:02 1.6 C 59 % -5.53 C
893 20-02-2011 10:40:01 1.7 C 59 % -5.43 C
894 20-02-2011 10:52:02 1.7 C 58 % -5.66 C
895 20-02-2011 11:04:01 1.8 C 57 % -5.79 C
896 20-02-2011 11:16:02 2.3 C 57 % -5.32 C
897 20-02-2011 11:28:02 2 C 56 % -5.84 C
898 20-02-2011 11:40:01 2.4 C 56 % -5.46 C
899 20-02-2011 11:52:03 2.2 C 55 % -5.89 C
900 20-02-2011 12:04:02 2.5 C 55 % -5.61 C
Sensor: Nr:Datum:Temp:Feuchte:Taupunkt:
Aussen-T/F 901 20-02-2011 12:16:02 2.4 C 54 % -5.94 C
902 20-02-2011 12:28:02 2.5 C 54 % -5.85 C
903 20-02-2011 12:40:02 2.5 C 54 % -5.85 C
904 20-02-2011 12:52:02 2.2 C 54 % -6.12 C
905 20-02-2011 13:04:01 2.3 C 54 % -6.03 C
906 20-02-2011 13:16:02 2.2 C 54 % -6.12 C
907 20-02-2011 13:28:02 2.3 C 54 % -6.03 C
908 20-02-2011 13:40:02 2.1 C 54 % -6.22 C
909 20-02-2011 13:52:01 2.2 C 54 % -6.12 C
910 20-02-2011 14:04:02 2.2 C 54 % -6.12 C
911 20-02-2011 14:16:01 2.2 C 53 % -6.37 C
912 20-02-2011 14:28:01 2 C 53 % -6.55 C
913 20-02-2011 14:40:01 1.9 C 54 % -6.4 C
914 20-02-2011 14:52:01 2.4 C 52 % -6.43 C
915 20-02-2011 15:04:02 2.5 C 51 % -6.59 C
916 20-02-2011 15:16:01 2.6 C 50 % -6.75 C
917 20-02-2011 15:28:01 2.5 C 50 % -6.85 C
918 20-02-2011 15:40:02 2.6 C 50 % -6.75 C
919 20-02-2011 15:52:01 2.2 C 50 % -7.12 C
920 20-02-2011 16:04:02 1.7 C 53 % -6.83 C
921 20-02-2011 16:16:02 1.6 C 53 % -6.93 C
922 20-02-2011 16:28:02 1.3 C 55 % -6.73 C
923 20-02-2011 16:40:01 1.1 C 55 % -6.91 C
924 20-02-2011 16:52:01 1 C 56 % -6.77 C
925 20-02-2011 17:04:01 1 C 57 % -6.54 C
Sensor: Nr:Datum:Temp:Feuchte:Taupunkt:
Aussen-T/F 926 20-02-2011 17:16:02 0.7 C 57 % -6.82 C
927 20-02-2011 17:28:02 0.5 C 58 % -6.79 C
928 20-02-2011 17:40:01 0.5 C 58 % -6.79 C
929 20-02-2011 17:52:02 0.3 C 58 % -6.97 C
930 20-02-2011 18:04:01 0.1 C 57 % -7.39 C
931 20-02-2011 18:16:01 0.1 C 58 % -7.16 C
932 20-02-2011 18:28:01 0 C 59 % -7.04 C
933 20-02-2011 18:40:01 0 C 58 % -7.26 C
934 20-02-2011 18:52:02 -0.2 C 58 % -7.45 C
935 20-02-2011 19:04:01 -0.2 C 58 % -7.45 C
936 20-02-2011 19:16:02 -0.3 C 58 % -7.55 C
937 20-02-2011 19:28:02 -0.3 C 59 % -7.33 C
938 20-02-2011 19:40:02 -0.3 C 58 % -7.55 C
939 20-02-2011 19:52:02 -0.5 C 57 % -7.96 C
940 20-02-2011 20:04:02 -0.6 C 58 % -7.83 C
941 20-02-2011 20:16:02 -0.7 C 58 % -7.92 C
942 20-02-2011 20:28:02 -0.8 C 57 % -8.24 C
943 20-02-2011 20:40:01 -0.9 C 57 % -8.34 C
944 20-02-2011 20:52:01 -0.9 C 57 % -8.34 C
945 20-02-2011 21:04:01 -0.9 C 57 % -8.34 C
946 20-02-2011 21:16:02 -0.9 C 56 % -8.56 C
947 20-02-2011 21:28:02 -1.1 C 56 % -8.75 C
948 20-02-2011 21:40:01 -1.1 C 57 % -8.52 C
949 20-02-2011 21:53:06 -1.2 C 57 % -8.62 C
950 20-02-2011 22:05:06 -1.3 C 57 % -8.71 C
Sensor: Nr:Datum:Temp:Feuchte:Taupunkt:
Aussen-T/F 951 20-02-2011 22:17:06 -1.4 C 57 % -8.81 C
952 20-02-2011 22:29:06 -1.4 C 57 % -8.81 C
953 20-02-2011 22:41:06 -1.4 C 57 % -8.81 C
954 20-02-2011 22:53:06 -1.5 C 57 % -8.9 C
955 20-02-2011 23:05:06 -1.6 C 57 % -8.99 C
956 20-02-2011 23:17:07 -1.6 C 57 % -8.99 C
957 20-02-2011 23:29:07 -1.7 C 57 % -9.09 C
958 20-02-2011 23:41:07 -1.6 C 57 % -8.99 C
959 20-02-2011 23:53:07 -1.7 C 56 % -9.31 C
960 21-02-2011 00:05:07 -1.8 C 56 % -9.41 C
961 21-02-2011 00:17:07 -1.8 C 56 % -9.41 C
962 21-02-2011 00:29:07 -1.8 C 56 % -9.41 C
963 21-02-2011 00:41:07 -1.9 C 57 % -9.28 C
964 21-02-2011 00:53:07 -1.9 C 57 % -9.28 C
965 21-02-2011 01:05:07 -1.9 C 56 % -9.5 C
966 21-02-2011 01:17:07 -2 C 55 % -9.82 C
967 21-02-2011 01:29:07 -2 C 56 % -9.59 C
968 21-02-2011 01:41:07 -2.1 C 56 % -9.69 C
969 21-02-2011 01:53:07 -2.1 C 56 % -9.69 C
970 21-02-2011 02:05:07 -2.1 C 56 % -9.69 C
971 21-02-2011 02:17:07 -2.2 C 56 % -9.78 C
972 21-02-2011 02:29:07 -2.3 C 56 % -9.87 C
973 21-02-2011 02:41:07 -2.3 C 56 % -9.87 C
974 21-02-2011 02:53:07 -2.3 C 56 % -9.87 C
975 21-02-2011 03:05:07 -2.3 C 56 % -9.87 C
Sensor: Nr:Datum:Temp:Feuchte:Taupunkt:
Aussen-T/F 976 21-02-2011 03:17:08 -2.3 C 56 % -9.87 C
977 21-02-2011 03:29:08 -2.4 C 55 % -10.2 C
978 21-02-2011 03:41:08 -2.5 C 55 % -10.29 C
979 21-02-2011 03:53:08 -2.5 C 56 % -10.06 C
980 21-02-2011 04:05:08 -2.6 C 55 % -10.38 C
981 21-02-2011 04:17:08 -2.6 C 54 % -10.61 C
982 21-02-2011 04:29:08 -2.7 C 55 % -10.48 C
983 21-02-2011 04:41:08 -2.6 C 55 % -10.38 C
984 21-02-2011 04:53:08 -2.7 C 55 % -10.48 C
985 21-02-2011 05:05:08 -2.7 C 55 % -10.48 C
986 21-02-2011 05:17:08 -2.7 C 55 % -10.48 C
987 21-02-2011 05:29:08 -2.7 C 55 % -10.48 C
988 21-02-2011 05:41:08 -2.7 C 55 % -10.48 C
989 21-02-2011 05:53:08 -2.8 C 55 % -10.57 C
990 21-02-2011 06:05:08 -2.8 C 55 % -10.57 C
991 21-02-2011 06:17:08 -2.9 C 55 % -10.66 C
992 21-02-2011 06:29:08 -2.9 C 55 % -10.66 C
993 21-02-2011 06:41:08 -3 C 55 % -10.76 C
994 21-02-2011 06:53:08 -3 C 55 % -10.76 C
995 21-02-2011 07:05:08 -3.1 C 55 % -10.85 C
996 21-02-2011 07:17:02 -3.2 C 55 % -10.94 C
997 21-02-2011 07:29:02 -3.2 C 55 % -10.94 C
998 21-02-2011 07:41:02 -3.3 C 54 % -11.27 C
999 21-02-2011 07:53:02 -3.3 C 54 % -11.27 C
1000 21-02-2011 08:05:03 -3.3 C 54 % -11.27 C
Sensor: Nr:Datum:Temp:Feuchte:Taupunkt:
Aussen-T/F 1001 21-02-2011 08:17:02 -3.4 C 53 % -11.59 C
1002 21-02-2011 08:29:02 -3.3 C 54 % -11.27 C
1003 21-02-2011 08:41:02 -3.3 C 54 % -11.27 C
1004 21-02-2011 08:53:01 -3.3 C 54 % -11.27 C
1005 21-02-2011 09:05:02 -3.2 C 53 % -11.41 C
1006 21-02-2011 09:17:01 -3.2 C 53 % -11.41 C
1007 21-02-2011 09:29:01 -3 C 53 % -11.22 C
1008 21-02-2011 09:41:02 -2.7 C 52 % -11.18 C
1009 21-02-2011 09:53:02 -2.5 C 51 % -11.24 C
1010 21-02-2011 10:05:02 -2.4 C 51 % -11.14 C
1011 21-02-2011 10:17:02 -2.2 C 50 % -11.21 C
1012 21-02-2011 10:29:03 -2 C 50 % -11.02 C
1013 21-02-2011 10:41:01 -1.6 C 49 % -10.91 C
1014 21-02-2011 10:53:02 -2 C 48 % -11.53 C
1015 21-02-2011 11:05:01 -1.8 C 47 % -11.61 C
1016 21-02-2011 11:17:01 -1.5 C 48 % -11.07 C
1017 21-02-2011 11:29:01 -1.1 C 47 % -10.97 C
1018 21-02-2011 11:41:02 -1.9 C 46 % -11.97 C
1019 21-02-2011 11:53:02 -1.3 C 46 % -11.42 C
1020 21-02-2011 12:05:02 -1 C 45 % -11.42 C
1021 21-02-2011 12:17:02 -1.2 C 46 % -11.33 C
1022 21-02-2011 12:29:02 -1.1 C 46 % -11.24 C
1023 21-02-2011 12:41:02 -1.1 C 46 % -11.24 C
1024 21-02-2011 12:53:02 -1.3 C 46 % -11.42 C
1025 21-02-2011 13:05:02 -1.1 C 46 % -11.24 C
Sensor: Nr:Datum:Temp:Feuchte:Taupunkt:
Aussen-T/F 1026 21-02-2011 13:17:02 -1 C 47 % -10.87 C
1027 21-02-2011 13:29:02 -1 C 47 % -10.87 C
1028 21-02-2011 13:41:02 -0.7 C 47 % -10.6 C
1029 21-02-2011 13:53:02 -0.6 C 46 % -10.78 C
1030 21-02-2011 14:05:02 -0.4 C 46 % -10.59 C
1031 21-02-2011 14:17:03 -0.2 C 46 % -10.41 C
1032 21-02-2011 14:29:03 -0.7 C 46 % -10.87 C
1033 21-02-2011 14:41:02 -0.6 C 46 % -10.78 C
1034 21-02-2011 14:53:02 -0.4 C 47 % -10.32 C
1035 21-02-2011 15:05:02 -0.3 C 46 % -10.5 C
1036 21-02-2011 15:17:02 0 C 46 % -10.21 C
1037 21-02-2011 15:29:02 -0.2 C 46 % -10.41 C
1038 21-02-2011 15:41:02 -0.1 C 47 % -10.05 C
1039 21-02-2011 15:53:02 -0.2 C 47 % -10.14 C
1040 21-02-2011 16:05:02 -0.6 C 47 % -10.51 C
1041 21-02-2011 16:17:02 -0.7 C 48 % -10.33 C
1042 21-02-2011 16:29:02 -0.6 C 49 % -9.98 C
1043 21-02-2011 16:41:01 -0.6 C 49 % -9.98 C
1044 21-02-2011 16:53:02 -0.7 C 50 % -9.82 C
1045 21-02-2011 17:05:01 -0.8 C 50 % -9.91 C
1046 21-02-2011 17:17:02 -0.9 C 50 % -10 C
1047 21-02-2011 17:29:02 -1 C 51 % -9.85 C
1048 21-02-2011 17:41:02 -1.1 C 51 % -9.94 C
1049 21-02-2011 17:53:02 -1.2 C 51 % -10.03 C
1050 21-02-2011 18:05:03 -1.1 C 52 % -9.69 C
Sensor: Nr:Datum:Temp:Feuchte:Taupunkt:
Aussen-T/F 1051 21-02-2011 18:17:02 -1.1 C 51 % -9.94 C
1052 21-02-2011 18:29:02 -1.2 C 51 % -10.03 C
1053 21-02-2011 18:41:02 -1.2 C 52 % -9.79 C
1054 21-02-2011 18:53:01 -1.2 C 51 % -10.03 C
1055 21-02-2011 19:05:02 -1.2 C 51 % -10.03 C
1056 21-02-2011 19:17:01 -1.1 C 51 % -9.94 C
1057 21-02-2011 19:29:01 -1.2 C 51 % -10.03 C
1058 21-02-2011 19:41:02 -1.1 C 51 % -9.94 C
1059 21-02-2011 19:53:01 -1.1 C 51 % -9.94 C
1060 21-02-2011 20:05:02 -1.1 C 51 % -9.94 C
1061 21-02-2011 20:17:01 -1.1 C 51 % -9.94 C
1062 21-02-2011 20:29:01 -1.1 C 52 % -9.69 C
1063 21-02-2011 20:41:02 -1.2 C 51 % -10.03 C
1064 21-02-2011 20:53:02 -1.1 C 51 % -9.94 C
1065 21-02-2011 21:05:02 -1.2 C 52 % -9.79 C
1066 21-02-2011 21:17:01 -1.3 C 53 % -9.64 C
1067 21-02-2011 21:29:01 -1.4 C 52 % -9.97 C
1068 21-02-2011 21:41:02 -1.3 C 52 % -9.88 C
1069 21-02-2011 21:53:02 -1.3 C 50 % -10.37 C
1070 21-02-2011 22:05:02 -1.5 C 50 % -10.56 C
1071 21-02-2011 22:17:02 -1.5 C 50 % -10.56 C
1072 21-02-2011 22:29:02 -1.7 C 49 % -11 C
1073 21-02-2011 22:42:10 -1.9 C 50 % -10.93 C
1074 21-02-2011 22:54:10 -2 C 50 % -11.02 C
1075 21-02-2011 23:06:11 -2.4 C 51 % -11.14 C
Sensor: Nr:Datum:Temp:Feuchte:Taupunkt:
Aussen-T/F 1076 21-02-2011 23:18:11 -2.6 C 52 % -11.09 C
1077 21-02-2011 23:30:11 -2.9 C 53 % -11.13 C
1078 21-02-2011 23:42:11 -3.3 C 54 % -11.27 C
1079 21-02-2011 23:54:12 -3.7 C 56 % -11.19 C
1080 22-02-2011 00:06:12 -3.9 C 57 % -11.15 C
1081 22-02-2011 00:18:12 -3.7 C 58 % -10.75 C
1082 22-02-2011 00:30:12 -3.6 C 56 % -11.09 C
1083 22-02-2011 00:42:12 -3.3 C 55 % -11.04 C
1084 22-02-2011 00:54:12 -3.3 C 54 % -11.27 C
1085 22-02-2011 01:06:12 -3.1 C 54 % -11.08 C
1086 22-02-2011 01:18:12 -3.1 C 53 % -11.31 C
1087 22-02-2011 01:30:13 -3.2 C 53 % -11.41 C
1088 22-02-2011 01:42:13 -3.3 C 53 % -11.5 C
1089 22-02-2011 01:54:13 -3.2 C 53 % -11.41 C
1090 22-02-2011 02:06:13 -3.3 C 53 % -11.5 C
1091 22-02-2011 02:18:13 -3.3 C 53 % -11.5 C
1092 22-02-2011 02:30:13 -3.3 C 52 % -11.74 C
1093 22-02-2011 02:42:13 -3.3 C 52 % -11.74 C
1094 22-02-2011 02:54:13 -3.5 C 53 % -11.69 C
1095 22-02-2011 03:06:13 -3.7 C 53 % -11.87 C
1096 22-02-2011 03:18:13 -3.8 C 53 % -11.97 C
1097 22-02-2011 03:30:13 -4 C 53 % -12.15 C
1098 22-02-2011 03:42:13 -4.2 C 54 % -12.11 C
1099 22-02-2011 03:54:13 -4.4 C 55 % -12.07 C
1100 22-02-2011 04:06:13 -4.5 C 55 % -12.16 C
Sensor: Nr:Datum:Temp:Feuchte:Taupunkt:
Aussen-T/F 1101 22-02-2011 04:18:13 -4.7 C 55 % -12.35 C
1102 22-02-2011 04:30:13 -4.9 C 55 % -12.54 C
1103 22-02-2011 04:42:13 -5.2 C 56 % -12.59 C
1104 22-02-2011 04:54:13 -5.5 C 56 % -12.88 C
1105 22-02-2011 05:06:13 -5.6 C 58 % -12.54 C
1106 22-02-2011 05:18:13 -5.7 C 58 % -12.63 C
1107 22-02-2011 05:30:14 -6 C 58 % -12.91 C
1108 22-02-2011 05:42:14 -6.3 C 60 % -12.78 C
1109 22-02-2011 05:54:14 -6.7 C 60 % -13.16 C
1110 22-02-2011 06:06:14 -7.2 C 62 % -13.23 C
1111 22-02-2011 06:18:14 -7.9 C 64 % -13.5 C
1112 22-02-2011 06:30:14 -8.1 C 67 % -13.13 C
1113 22-02-2011 06:42:14 -8 C 68 % -12.85 C
1114 22-02-2011 06:54:14 -7.7 C 69 % -12.39 C
1115 22-02-2011 07:06:14 -8 C 68 % -12.85 C
1116 22-02-2011 07:18:03 -8.2 C 69 % -12.87 C
1117 22-02-2011 07:30:03 -8.7 C 69 % -13.35 C
1118 22-02-2011 07:42:03 -8.4 C 71 % -12.71 C
1119 22-02-2011 07:54:02 -8.3 C 71 % -12.61 C
1120 22-02-2011 08:06:02 -8.1 C 71 % -12.42 C
1121 22-02-2011 08:18:02 -7.7 C 70 % -12.21 C
1122 22-02-2011 08:30:02 -7.8 C 67 % -12.85 C
1123 22-02-2011 08:42:02 -7.5 C 66 % -12.74 C
1124 22-02-2011 08:54:01 -7.5 C 65 % -12.93 C
1125 22-02-2011 09:06:01 -7.3 C 65 % -12.74 C
Sensor: Nr:Datum:Temp:Feuchte:Taupunkt:
Aussen-T/F 1126 22-02-2011 09:18:02 -6.9 C 64 % -12.55 C
1127 22-02-2011 09:30:02 -6.9 C 63 % -12.75 C
1128 22-02-2011 09:42:01 -6.9 C 62 % -12.94 C
1129 22-02-2011 09:54:02 -6.8 C 61 % -13.05 C
1130 22-02-2011 10:06:02 -6.5 C 60 % -12.97 C
1131 22-02-2011 10:18:02 -6.1 C 59 % -12.8 C
1132 22-02-2011 10:30:02 -5.7 C 58 % -12.63 C
1133 22-02-2011 10:42:03 -5.3 C 57 % -12.47 C
1134 22-02-2011 10:54:01 -5 C 55 % -12.63 C
1135 22-02-2011 11:06:02 -4.5 C 53 % -12.62 C
1136 22-02-2011 11:18:01 -3.6 C 50 % -12.5 C
1137 22-02-2011 11:30:01 -3.7 C 49 % -12.85 C
1138 22-02-2011 11:42:01 -3.1 C 47 % -12.81 C
1139 22-02-2011 11:54:01 -2.8 C 45 % -13.07 C
1140 22-02-2011 12:06:01 -1.9 C 44 % -12.52 C
1141 22-02-2011 12:18:02 -1 C 41 % -12.57 C
1142 22-02-2011 12:30:02 -1.1 C 41 % -12.67 C
1143 22-02-2011 12:42:01 0.3 C 40 % -11.69 C
1144 22-02-2011 12:54:03 3.5 C 31 % -12 C
1145 22-02-2011 13:06:02 3.1 C 26 % -14.51 C
1146 22-02-2011 13:18:02 3.8 C 26 % -13.9 C
1147 22-02-2011 13:30:02 2.3 C 23 % -16.66 C
1148 22-02-2011 13:42:02 0.7 C 32 % -14.07 C
1149 22-02-2011 13:54:02 -0.2 C 37 % -13.12 C
1150 22-02-2011 14:06:02 0.4 C 38 % -12.23 C
Sensor: Nr:Datum:Temp:Feuchte:Taupunkt:
Aussen-T/F 1151 22-02-2011 14:18:02 1.3 C 35 % -12.44 C
1152 22-02-2011 14:30:02 1.3 C 35 % -12.44 C
1153 22-02-2011 14:42:02 2.9 C 32 % -12.14 C
1154 22-02-2011 14:54:02 2.2 C 30 % -13.54 C
1155 22-02-2011 15:06:02 3 C 30 % -12.85 C
1156 22-02-2011 15:18:01 4.1 C 27 % -13.19 C
1157 22-02-2011 15:30:01 3.5 C 25 % -14.64 C
1158 22-02-2011 15:42:02 3 C 25 % -15.07 C
1159 22-02-2011 15:54:02 3.8 C 25 % -14.38 C
1160 22-02-2011 16:06:02 4.4 C 20 % -16.55 C
1161 22-02-2011 16:18:01 6.3 C 20 % -14.97 C
1162 22-02-2011 16:30:01 6.6 C 20 % -14.72 C
1163 22-02-2011 16:42:02 5.5 C 20 % -15.64 C
1164 22-02-2011 16:54:02 6.7 C 20 % -14.64 C
1165 22-02-2011 17:06:02 5.2 C 20 % -15.89 C
1166 22-02-2011 17:18:01 4 C 20 % -16.89 C
1167 22-02-2011 17:30:01 1 C 36 % -12.36 C
1168 22-02-2011 17:42:02 -1.2 C 42 % -12.46 C
1169 22-02-2011 17:54:02 -2.5 C 46 % -12.52 C
1170 22-02-2011 18:06:02 -3.3 C 50 % -12.23 C
1171 22-02-2011 18:18:02 -3.8 C 55 % -11.51 C
1172 22-02-2011 18:30:02 -3.8 C 57 % -11.06 C
1173 22-02-2011 18:42:02 -4 C 58 % -11.03 C
1174 22-02-2011 18:54:02 -3.9 C 60 % -10.51 C
1175 22-02-2011 19:06:01 -4.4 C 59 % -11.19 C
Sensor: Nr:Datum:Temp:Feuchte:Taupunkt:
Aussen-T/F 1176 22-02-2011 19:18:02 -4.5 C 59 % -11.29 C
1177 22-02-2011 19:30:03 -4.2 C 60 % -10.79 C
1178 22-02-2011 19:42:01 -4.7 C 61 % -11.06 C
1179 22-02-2011 19:54:02 -4.8 C 61 % -11.15 C
1180 22-02-2011 20:06:03 -4.8 C 59 % -11.57 C
1181 22-02-2011 20:18:01 -5.3 C 60 % -11.83 C
1182 22-02-2011 20:30:01 -5.4 C 62 % -11.52 C
1183 22-02-2011 20:42:01 -5.2 C 64 % -10.93 C
1184 22-02-2011 20:54:01 -5 C 66 % -10.36 C
1185 22-02-2011 21:06:01 -5.2 C 64 % -10.93 C
1186 22-02-2011 21:18:02 -5.1 C 63 % -11.04 C
1187 22-02-2011 21:30:02 -5.3 C 62 % -11.43 C
1188 22-02-2011 21:42:01 -5.5 C 61 % -11.82 C
1189 22-02-2011 21:54:02 -5.7 C 62 % -11.8 C
1190 22-02-2011 22:06:01 -5.5 C 62 % -11.61 C
1191 22-02-2011 22:19:03 -5.4 C 62 % -11.52 C
1192 22-02-2011 22:31:03 -5.6 C 63 % -11.51 C
1193 22-02-2011 22:43:03 -5.5 C 64 % -11.22 C
1194 22-02-2011 22:55:03 -5.8 C 61 % -12.1 C
1195 22-02-2011 23:07:03 -5.9 C 61 % -12.2 C
1196 22-02-2011 23:19:04 -6 C 61 % -12.29 C
1197 22-02-2011 23:31:04 -6.1 C 60 % -12.59 C
1198 22-02-2011 23:43:04 -6.3 C 59 % -12.99 C
1199 22-02-2011 23:55:04 -6.2 C 62 % -12.28 C
1200 23-02-2011 00:07:04 -6.4 C 63 % -12.27 C
Sensor: Nr:Datum:Temp:Feuchte:Taupunkt:
Aussen-T/F 1201 23-02-2011 00:19:04 -6.4 C 63 % -12.27 C
1202 23-02-2011 00:31:04 -6.8 C 63 % -12.65 C
1203 23-02-2011 00:43:04 -7 C 64 % -12.65 C
1204 23-02-2011 00:55:04 -6.9 C 64 % -12.55 C
1205 23-02-2011 01:07:04 -6.9 C 65 % -12.36 C
1206 23-02-2011 01:19:04 -7.3 C 65 % -12.74 C
1207 23-02-2011 01:31:04 -7.4 C 65 % -12.84 C
1208 23-02-2011 01:43:04 -7 C 66 % -12.27 C
1209 23-02-2011 01:55:04 -7.4 C 65 % -12.84 C
1210 23-02-2011 02:07:04 -7.8 C 65 % -13.22 C
1211 23-02-2011 02:19:04 -7.8 C 65 % -13.22 C
1212 23-02-2011 02:31:04 -7.9 C 65 % -13.31 C
1213 23-02-2011 02:43:04 -8.1 C 66 % -13.32 C
1214 23-02-2011 02:55:04 -7.9 C 67 % -12.94 C
1215 23-02-2011 03:07:04 -7.9 C 68 % -12.76 C
1216 23-02-2011 03:19:05 -7.3 C 68 % -12.18 C
1217 23-02-2011 03:31:05 -8.1 C 67 % -13.13 C
1218 23-02-2011 03:43:05 -8.6 C 68 % -13.43 C
1219 23-02-2011 03:55:05 -8.8 C 69 % -13.44 C
1220 23-02-2011 04:07:05 -8.6 C 70 % -13.07 C
1221 23-02-2011 04:19:05 -8.5 C 70 % -12.98 C
1222 23-02-2011 04:31:05 -8.7 C 70 % -13.17 C
1223 23-02-2011 04:43:05 -8.9 C 71 % -13.19 C
1224 23-02-2011 04:55:05 -9.1 C 71 % -13.38 C
1225 23-02-2011 05:07:05 -8.9 C 72 % -13.02 C
Sensor: Nr:Datum:Temp:Feuchte:Taupunkt:
Aussen-T/F 1226 23-02-2011 05:19:05 -8.8 C 73 % -12.75 C
1227 23-02-2011 05:31:05 -8.7 C 73 % -12.65 C
1228 23-02-2011 05:43:05 -8.7 C 73 % -12.65 C
1229 23-02-2011 05:55:05 -8.9 C 72 % -13.02 C
1230 23-02-2011 06:07:05 -9.1 C 72 % -13.21 C
1231 23-02-2011 06:19:05 -9.4 C 72 % -13.5 C
1232 23-02-2011 06:31:05 -9.5 C 72 % -13.59 C
1233 23-02-2011 06:43:05 -9.4 C 72 % -13.5 C
1234 23-02-2011 06:55:05 -9.4 C 72 % -13.5 C
1235 23-02-2011 07:07:05 -9.5 C 72 % -13.59 C
1236 23-02-2011 07:19:02 -9.1 C 73 % -13.04 C
1237 23-02-2011 07:31:02 -9.2 C 73 % -13.14 C
1238 23-02-2011 07:43:02 -9.3 C 73 % -13.23 C
1239 23-02-2011 07:55:02 -8.8 C 74 % -12.58 C
1240 23-02-2011 08:07:02 -8.3 C 75 % -11.93 C
1241 23-02-2011 08:19:01 -7.9 C 75 % -11.54 C
1242 23-02-2011 08:31:02 -7.6 C 75 % -11.25 C
1243 23-02-2011 08:43:02 -7.2 C 75 % -10.87 C
1244 23-02-2011 08:55:02 -6.5 C 74 % -10.36 C
1245 23-02-2011 09:07:02 -5.8 C 73 % -9.85 C
1246 23-02-2011 09:19:01 -5.3 C 70 % -9.9 C
1247 23-02-2011 09:31:02 -4.8 C 67 % -9.97 C
1248 23-02-2011 09:43:02 -4.5 C 65 % -10.07 C
1249 23-02-2011 09:55:02 -3.8 C 61 % -10.21 C
1250 23-02-2011 10:07:02 -3.3 C 61 % -9.73 C
Sensor: Nr:Datum:Temp:Feuchte:Taupunkt:
Aussen-T/F 1251 23-02-2011 10:19:02 -2.7 C 59 % -9.59 C
1252 23-02-2011 10:31:02 -2.3 C 56 % -9.87 C
1253 23-02-2011 10:43:02 -1.8 C 53 % -10.1 C
1254 23-02-2011 10:55:02 -1.3 C 49 % -10.63 C
1255 23-02-2011 11:07:01 -0.9 C 46 % -11.05 C
1256 23-02-2011 11:19:01 -0.5 C 44 % -11.24 C
1257 23-02-2011 11:31:02 -0.6 C 41 % -12.21 C
1258 23-02-2011 11:43:02 0.3 C 38 % -12.32 C
1259 23-02-2011 11:55:02 0.2 C 39 % -12.09 C
1260 23-02-2011 12:07:02 1.1 C 37 % -11.94 C
1261 23-02-2011 12:19:02 1.2 C 32 % -13.63 C
1262 23-02-2011 12:31:02 1.3 C 29 % -14.74 C
1263 23-02-2011 12:43:02 1.8 C 23 % -17.08 C
1264 23-02-2011 12:55:02 3.2 C 20 % -17.56 C
1265 23-02-2011 13:07:02 4.4 C 20 % -16.55 C
1266 23-02-2011 13:19:02 3.1 C 20 % -17.64 C
1267 23-02-2011 13:31:02 3.8 C 20 % -17.05 C
1268 23-02-2011 13:43:02 3.3 C 20 % -17.47 C
1269 23-02-2011 13:55:02 3.7 C 20 % -17.14 C
1270 23-02-2011 14:07:02 3.9 C 20 % -16.97 C
1271 23-02-2011 14:19:03 4.2 C 20 % -16.72 C
1272 23-02-2011 14:31:02 3.9 C 20 % -16.97 C
1273 23-02-2011 14:43:02 3.8 C 20 % -17.05 C
1274 23-02-2011 14:55:02 4 C 20 % -16.89 C
1275 23-02-2011 15:07:02 4.1 C 20 % -16.8 C
Sensor: Nr:Datum:Temp:Feuchte:Taupunkt:
Aussen-T/F 1276 23-02-2011 15:19:02 3.7 C 20 % -17.14 C
1277 23-02-2011 15:31:02 3.5 C 20 % -17.31 C
1278 23-02-2011 15:43:02 3.7 C 20 % -17.14 C
1279 23-02-2011 15:55:02 3.7 C 20 % -17.14 C
1280 23-02-2011 16:07:01 3.2 C 20 % -17.56 C
1281 23-02-2011 16:19:02 3 C 20 % -17.72 C
1282 23-02-2011 16:31:02 3.1 C 20 % -17.64 C
1283 23-02-2011 16:43:02 2.8 C 20 % -17.89 C
1284 23-02-2011 16:55:01 2.9 C 20 % -17.81 C
1285 23-02-2011 17:07:02 2.3 C 20 % -18.31 C
1286 23-02-2011 17:19:01 1.6 C 30 % -14.07 C
1287 23-02-2011 17:31:02 1.4 C 30 % -14.24 C
1288 23-02-2011 17:43:02 0.8 C 35 % -12.89 C
1289 23-02-2011 17:55:02 0.2 C 41 % -11.47 C
1290 23-02-2011 18:07:02 -0.1 C 45 % -10.6 C
1291 23-02-2011 18:19:01 -0.2 C 45 % -10.69 C
1292 23-02-2011 18:31:02 -0.3 C 45 % -10.78 C
1293 23-02-2011 18:43:02 -0.3 C 46 % -10.5 C
1294 23-02-2011 18:55:02 -0.6 C 48 % -10.24 C
1295 23-02-2011 19:07:02 0.1 C 45 % -10.4 C
1296 23-02-2011 19:19:02 0.1 C 42 % -11.26 C
1297 23-02-2011 19:31:02 0.4 C 42 % -10.99 C
1298 23-02-2011 19:43:02 0.3 C 42 % -11.08 C
1299 23-02-2011 19:55:02 0.4 C 41 % -11.29 C
1300 23-02-2011 20:07:02 0.3 C 41 % -11.38 C
Sensor: Nr:Datum:Temp:Feuchte:Taupunkt:
Aussen-T/F 1301 23-02-2011 20:19:02 0.2 C 41 % -11.47 C
1302 23-02-2011 20:31:02 0.1 C 43 % -10.97 C
1303 23-02-2011 20:43:02 -0.3 C 45 % -10.78 C
1304 23-02-2011 20:55:02 0.1 C 45 % -10.4 C
1305 23-02-2011 21:07:02 0.5 C 42 % -10.9 C
1306 23-02-2011 21:19:02 0.1 C 45 % -10.4 C
1307 23-02-2011 21:31:02 -0.2 C 47 % -10.14 C
1308 23-02-2011 21:43:02 -0.3 C 49 % -9.7 C
1309 23-02-2011 21:55:02 -0.4 C 50 % -9.54 C
1310 23-02-2011 22:07:02 -0.1 C 49 % -9.52 C
1311 23-02-2011 22:19:02 0 C 47 % -9.94 C
1312 23-02-2011 22:31:02 -0.1 C 48 % -9.78 C
1313 23-02-2011 22:43:02 -0.1 C 49 % -9.52 C
1314 23-02-2011 22:55:02 -0.1 C 48 % -9.78 C
1315 23-02-2011 23:07:02 -0.2 C 52 % -8.86 C
1316 23-02-2011 23:19:02 -0.3 C 50 % -9.45 C
1317 23-02-2011 23:31:02 -0.2 C 54 % -8.37 C
1318 23-02-2011 23:43:02 -0.3 C 54 % -8.47 C
1319 23-02-2011 23:55:01 -0.3 C 54 % -8.47 C
1320 24-02-2011 00:07:01 -0.3 C 55 % -8.23 C
1321 24-02-2011 00:19:02 -0.4 C 54 % -8.56 C
1322 24-02-2011 00:31:01 -0.4 C 55 % -8.33 C
1323 24-02-2011 00:43:01 -0.5 C 55 % -8.42 C
1324 24-02-2011 00:55:03 -0.6 C 56 % -8.28 C
1325 24-02-2011 01:07:02 -0.7 C 57 % -8.15 C
Sensor: Nr:Datum:Temp:Feuchte:Taupunkt:
Aussen-T/F 1326 24-02-2011 01:19:02 -0.9 C 58 % -8.11 C
1327 24-02-2011 01:31:03 -0.9 C 59 % -7.89 C
1328 24-02-2011 01:43:03 -0.6 C 59 % -7.61 C
1329 24-02-2011 01:55:02 -0.6 C 58 % -7.83 C
1330 24-02-2011 02:07:01 -0.6 C 58 % -7.83 C
1331 24-02-2011 02:19:02 -0.6 C 58 % -7.83 C
1332 24-02-2011 02:31:02 -0.5 C 56 % -8.19 C
1333 24-02-2011 02:43:02 -0.4 C 52 % -9.04 C
1334 24-02-2011 02:56:03 -0.3 C 54 % -8.47 C
1335 24-02-2011 03:08:03 -0.2 C 55 % -8.14 C
1336 24-02-2011 03:20:04 -0.2 C 57 % -7.68 C
1337 24-02-2011 03:32:02 -0.2 C 57 % -7.68 C
1338 24-02-2011 03:44:02 0 C 57 % -7.48 C
1339 24-02-2011 03:56:03 0 C 57 % -7.48 C
1340 24-02-2011 04:08:01 0.1 C 58 % -7.16 C
1341 24-02-2011 04:20:02 0.4 C 54 % -7.8 C
1342 24-02-2011 04:32:02 0.4 C 55 % -7.57 C
1343 24-02-2011 04:44:02 0 C 62 % -6.39 C
1344 24-02-2011 04:56:01 -0.3 C 66 % -5.87 C
1345 24-02-2011 05:08:02 -0.6 C 70 % -5.38 C
1346 24-02-2011 05:20:01 -0.8 C 71 % -5.39 C
1347 24-02-2011 05:32:01 -0.8 C 75 % -4.67 C
1348 24-02-2011 05:44:02 -1 C 77 % -4.51 C
1349 24-02-2011 05:56:01 -1 C 79 % -4.17 C
1350 24-02-2011 06:08:02 -0.9 C 80 % -3.91 C
Sensor: Nr:Datum:Temp:Feuchte:Taupunkt:
Aussen-T/F 1351 24-02-2011 06:20:01 -0.9 C 79 % -4.08 C
1352 24-02-2011 06:32:02 -0.9 C 78 % -4.24 C
1353 24-02-2011 06:44:02 -0.9 C 78 % -4.24 C
1354 24-02-2011 06:56:01 -0.8 C 78 % -4.15 C
1355 24-02-2011 07:08:02 -0.8 C 79 % -3.98 C
1356 24-02-2011 07:20:02 -0.8 C 79 % -3.98 C
1357 24-02-2011 07:32:03 -0.8 C 80 % -3.81 C
1358 24-02-2011 07:44:03 -0.7 C 80 % -3.71 C
1359 24-02-2011 07:56:02 -0.7 C 80 % -3.71 C
1360 24-02-2011 08:08:02 -0.6 C 81 % -3.45 C
1361 24-02-2011 08:20:02 -0.6 C 82 % -3.29 C
1362 24-02-2011 08:32:02 -0.5 C 82 % -3.19 C
1363 24-02-2011 08:44:02 -0.3 C 83 % -2.83 C
1364 24-02-2011 08:56:02 0 C 83 % -2.53 C
1365 24-02-2011 09:08:03 0 C 82 % -2.7 C
1366 24-02-2011 09:20:02 0.1 C 82 % -2.6 C
1367 24-02-2011 09:32:03 0.1 C 82 % -2.6 C
1368 24-02-2011 09:44:03 0.1 C 82 % -2.6 C
1369 24-02-2011 09:56:02 0.3 C 82 % -2.4 C
1370 24-02-2011 10:08:02 0.4 C 82 % -2.3 C
1371 24-02-2011 10:20:02 0.6 C 82 % -2.11 C
1372 24-02-2011 10:32:02 0.7 C 82 % -2.01 C
1373 24-02-2011 10:44:02 1 C 80 % -2.05 C
1374 24-02-2011 10:56:02 1.1 C 80 % -1.96 C
1375 24-02-2011 11:08:02 1.1 C 79 % -2.12 C
Sensor: Nr:Datum:Temp:Feuchte:Taupunkt:
Aussen-T/F 1376 24-02-2011 11:20:03 1.5 C 79 % -1.74 C
1377 24-02-2011 11:32:02 1.7 C 77 % -1.89 C
1378 24-02-2011 11:44:02 1.8 C 77 % -1.79 C
1379 24-02-2011 11:56:03 1.8 C 76 % -1.97 C
1380 24-02-2011 12:08:02 1.9 C 76 % -1.87 C
1381 24-02-2011 12:20:02 2.5 C 75 % -1.47 C
1382 24-02-2011 12:32:02 2.5 C 75 % -1.47 C
1383 24-02-2011 12:44:02 2.9 C 74 % -1.27 C
1384 24-02-2011 12:56:02 3.5 C 69 % -1.64 C
1385 24-02-2011 13:08:02 3.4 C 68 % -1.93 C
1386 24-02-2011 13:20:02 3.1 C 68 % -2.22 C
1387 24-02-2011 13:32:02 3.9 C 69 % -1.26 C
1388 24-02-2011 13:44:02 3.4 C 68 % -1.93 C
1389 24-02-2011 13:56:02 3.1 C 69 % -2.02 C
1390 24-02-2011 14:08:02 2.6 C 72 % -1.93 C
1391 24-02-2011 14:20:01 2.3 C 74 % -1.85 C
1392 24-02-2011 14:32:02 2.5 C 76 % -1.29 C
1393 24-02-2011 14:44:02 2.7 C 75 % -1.28 C
1394 24-02-2011 14:56:02 3 C 74 % -1.17 C
1395 24-02-2011 15:08:02 3.4 C 73 % -0.97 C
1396 24-02-2011 15:20:02 3.4 C 71 % -1.35 C
1397 24-02-2011 15:32:02 3 C 71 % -1.73 C
1398 24-02-2011 15:44:02 3.1 C 72 % -1.45 C
1399 24-02-2011 15:56:01 3 C 73 % -1.35 C
1400 24-02-2011 16:08:01 2.8 C 74 % -1.36 C
Sensor: Nr:Datum:Temp:Feuchte:Taupunkt:
Aussen-T/F 1401 24-02-2011 16:20:02 2.7 C 74 % -1.46 C
1402 24-02-2011 16:32:01 2.6 C 75 % -1.37 C
1403 24-02-2011 16:44:01 2.3 C 76 % -1.48 C
1404 24-02-2011 16:56:02 2.2 C 78 % -1.23 C
1405 24-02-2011 17:08:02 2 C 79 % -1.25 C
1406 24-02-2011 17:20:03 1.8 C 81 % -1.1 C
1407 24-02-2011 17:32:02 1.5 C 82 % -1.23 C
1408 24-02-2011 17:44:02 1.4 C 84 % -1 C
1409 24-02-2011 17:56:02 1.5 C 84 % -0.9 C
1410 24-02-2011 18:08:02 1.5 C 85 % -0.74 C
1411 24-02-2011 18:20:02 1.3 C 85 % -0.94 C
1412 24-02-2011 18:32:03 1.2 C 85 % -1.03 C
1413 24-02-2011 18:44:03 1.2 C 86 % -0.88 C
1414 24-02-2011 18:56:02 1.2 C 86 % -0.88 C
1415 24-02-2011 19:08:01 1.2 C 87 % -0.72 C
1416 24-02-2011 19:20:02 1.2 C 87 % -0.72 C
1417 24-02-2011 19:32:02 1.3 C 87 % -0.62 C
1418 24-02-2011 19:44:02 1.3 C 87 % -0.62 C
1419 24-02-2011 19:56:01 1.3 C 88 % -0.46 C
1420 24-02-2011 20:08:02 1.3 C 88 % -0.46 C
1421 24-02-2011 20:20:01 1.3 C 88 % -0.46 C
1422 24-02-2011 20:32:02 1.2 C 88 % -0.56 C
1423 24-02-2011 20:44:02 1.3 C 88 % -0.46 C
1424 24-02-2011 20:56:02 1.3 C 88 % -0.46 C
1425 24-02-2011 21:08:02 1.3 C 88 % -0.46 C
Sensor: Nr:Datum:Temp:Feuchte:Taupunkt:
Aussen-T/F 1426 24-02-2011 21:20:01 1.3 C 88 % -0.46 C
1427 24-02-2011 21:33:03 1.3 C 89 % -0.31 C
1428 24-02-2011 21:45:03 1.3 C 89 % -0.31 C
1429 24-02-2011 21:57:03 1.4 C 89 % -0.21 C
1430 24-02-2011 22:09:03 1.4 C 89 % -0.21 C
1431 24-02-2011 22:21:03 1.4 C 89 % -0.21 C
1432 24-02-2011 22:33:03 1.4 C 89 % -0.21 C
1433 24-02-2011 22:45:03 1.4 C 89 % -0.21 C
1434 24-02-2011 22:57:03 1.4 C 89 % -0.21 C
1435 24-02-2011 23:09:03 1.4 C 89 % -0.21 C
1436 24-02-2011 23:21:03 1.4 C 89 % -0.21 C
1437 24-02-2011 23:33:03 1.4 C 89 % -0.21 C
1438 24-02-2011 23:45:03 1.4 C 89 % -0.21 C
1439 24-02-2011 23:57:03 1.4 C 89 % -0.21 C
1440 25-02-2011 00:09:03 1.4 C 89 % -0.21 C
1441 25-02-2011 00:21:03 1.4 C 89 % -0.21 C
1442 25-02-2011 00:33:04 1.5 C 89 % -0.11 C
1443 25-02-2011 00:45:04 1.5 C 89 % -0.11 C
1444 25-02-2011 00:57:04 1.4 C 89 % -0.21 C
1445 25-02-2011 01:09:04 1.4 C 89 % -0.21 C
1446 25-02-2011 01:21:04 1.5 C 89 % -0.11 C
1447 25-02-2011 01:33:04 1.4 C 90 % -0.06 C
1448 25-02-2011 01:45:04 1.4 C 90 % -0.06 C
1449 25-02-2011 01:57:04 1.5 C 90 % 0.04 C
1450 25-02-2011 02:09:04 1.4 C 90 % -0.06 C
Sensor: Nr:Datum:Temp:Feuchte:Taupunkt:
Aussen-T/F 1451 25-02-2011 02:21:04 1.4 C 90 % -0.06 C
1452 25-02-2011 02:33:04 1.4 C 90 % -0.06 C
1453 25-02-2011 02:45:04 1.4 C 90 % -0.06 C
1454 25-02-2011 02:57:04 1.5 C 90 % 0.04 C
1455 25-02-2011 03:09:04 1.5 C 90 % 0.04 C
1456 25-02-2011 03:21:04 1.5 C 90 % 0.04 C
1457 25-02-2011 03:33:04 1.6 C 90 % 0.14 C
1458 25-02-2011 03:45:04 1.5 C 90 % 0.04 C
1459 25-02-2011 03:57:04 1.4 C 90 % -0.06 C
1460 25-02-2011 04:09:04 1.5 C 90 % 0.04 C
1461 25-02-2011 04:21:04 1.4 C 90 % -0.06 C
1462 25-02-2011 04:33:04 1.5 C 90 % 0.04 C
1463 25-02-2011 04:45:05 1.5 C 90 % 0.04 C
1464 25-02-2011 04:57:05 1.5 C 90 % 0.04 C
1465 25-02-2011 05:09:05 1.6 C 91 % 0.29 C
1466 25-02-2011 05:21:05 1.6 C 91 % 0.29 C
1467 25-02-2011 05:33:05 1.6 C 91 % 0.29 C
1468 25-02-2011 05:45:05 1.7 C 91 % 0.39 C
1469 25-02-2011 05:57:05 1.7 C 91 % 0.39 C
1470 25-02-2011 06:09:05 1.7 C 91 % 0.39 C
1471 25-02-2011 06:21:05 1.6 C 91 % 0.29 C
1472 25-02-2011 06:33:05 1.7 C 91 % 0.39 C
1473 25-02-2011 06:45:05 1.7 C 91 % 0.39 C
1474 25-02-2011 06:57:05 1.8 C 91 % 0.49 C
1475 25-02-2011 07:09:05 1.8 C 91 % 0.49 C
Sensor: Nr:Datum:Temp:Feuchte:Taupunkt:
Aussen-T/F 1476 25-02-2011 07:21:03 1.9 C 91 % 0.59 C
1477 25-02-2011 07:33:02 1.9 C 91 % 0.59 C
1478 25-02-2011 07:45:03 1.7 C 91 % 0.39 C
1479 25-02-2011 07:57:03 1.8 C 91 % 0.49 C
1480 25-02-2011 08:09:02 1.8 C 91 % 0.49 C
1481 25-02-2011 08:21:02 2 C 90 % 0.54 C
1482 25-02-2011 08:33:02 2.2 C 90 % 0.73 C
1483 25-02-2011 08:45:02 2.4 C 91 % 1.08 C
1484 25-02-2011 08:57:03 2.6 C 91 % 1.28 C
1485 25-02-2011 09:09:01 2.6 C 90 % 1.13 C
1486 25-02-2011 09:21:02 2.7 C 90 % 1.23 C
1487 25-02-2011 09:33:02 2.7 C 90 % 1.23 C
1488 25-02-2011 09:45:02 3.3 C 90 % 1.82 C
1489 25-02-2011 09:57:02 3.3 C 89 % 1.67 C
1490 25-02-2011 10:09:03 3.4 C 88 % 1.61 C
1491 25-02-2011 10:21:02 3.3 C 87 % 1.35 C
1492 25-02-2011 10:33:02 3.9 C 87 % 1.94 C
1493 25-02-2011 10:45:01 4 C 85 % 1.71 C
1494 25-02-2011 10:57:01 3.8 C 85 % 1.52 C
1495 25-02-2011 11:09:02 4.4 C 83 % 1.77 C
1496 25-02-2011 11:21:01 4.3 C 82 % 1.51 C
1497 25-02-2011 11:33:01 4.3 C 81 % 1.34 C
1498 25-02-2011 11:45:01 4.7 C 81 % 1.73 C
1499 25-02-2011 11:57:01 5.1 C 78 % 1.59 C
1500 25-02-2011 12:09:01 5.1 C 76 % 1.23 C
Sensor: Nr:Datum:Temp:Feuchte:Taupunkt:
Aussen-T/F 1501 25-02-2011 12:21:02 5.6 C 75 % 1.53 C
1502 25-02-2011 12:33:01 5.1 C 74 % 0.86 C
1503 25-02-2011 12:45:03 5.6 C 74 % 1.34 C
1504 25-02-2011 12:57:03 5.2 C 73 % 0.77 C
1505 25-02-2011 13:09:02 5.8 C 74 % 1.53 C
1506 25-02-2011 13:21:02 6.3 C 72 % 1.63 C
1507 25-02-2011 13:33:02 6.3 C 70 % 1.24 C
1508 25-02-2011 13:45:02 6.2 C 71 % 1.34 C
1509 25-02-2011 13:57:03 6 C 70 % 0.95 C
1510 25-02-2011 14:09:01 6.1 C 71 % 1.25 C
1511 25-02-2011 14:21:02 6.2 C 71 % 1.34 C
1512 25-02-2011 14:33:03 6.3 C 72 % 1.63 C
1513 25-02-2011 14:45:02 5.8 C 71 % 0.96 C
1514 25-02-2011 14:57:03 5.9 C 72 % 1.25 C
1515 25-02-2011 15:09:01 6.3 C 71 % 1.44 C
1516 25-02-2011 15:21:01 6.4 C 71 % 1.54 C
1517 25-02-2011 15:33:02 6.1 C 70 % 1.05 C
1518 25-02-2011 15:45:02 6 C 72 % 1.35 C
1519 25-02-2011 15:57:02 5.9 C 74 % 1.63 C
1520 25-02-2011 16:09:02 5.9 C 75 % 1.82 C
1521 25-02-2011 16:21:02 5.4 C 76 % 1.52 C
1522 25-02-2011 16:33:02 5.3 C 78 % 1.78 C
1523 25-02-2011 16:45:02 5.2 C 79 % 1.86 C
1524 25-02-2011 16:57:02 5.1 C 79 % 1.77 C
1525 25-02-2011 17:09:02 5 C 79 % 1.67 C
Sensor: Nr:Datum:Temp:Feuchte:Taupunkt:
Aussen-T/F 1526 25-02-2011 17:21:02 4.8 C 81 % 1.82 C
1527 25-02-2011 17:33:02 4.8 C 79 % 1.47 C
1528 25-02-2011 17:45:02 4.5 C 80 % 1.36 C
1529 25-02-2011 17:57:02 4.2 C 81 % 1.24 C
1530 25-02-2011 18:09:02 4.1 C 81 % 1.14 C
1531 25-02-2011 18:21:02 4.1 C 82 % 1.31 C
1532 25-02-2011 18:33:02 4.2 C 82 % 1.41 C
1533 25-02-2011 18:45:02 4.3 C 82 % 1.51 C
1534 25-02-2011 18:57:02 4.4 C 82 % 1.6 C
1535 25-02-2011 19:09:02 4.1 C 82 % 1.31 C
1536 25-02-2011 19:21:02 4 C 82 % 1.21 C
1537 25-02-2011 19:33:01 3.8 C 83 % 1.19 C
1538 25-02-2011 19:45:02 3.9 C 84 % 1.45 C
1539 25-02-2011 19:57:02 3.9 C 84 % 1.45 C
1540 25-02-2011 20:09:01 3.8 C 84 % 1.35 C
1541 25-02-2011 20:21:01 3.8 C 84 % 1.35 C
1542 25-02-2011 20:33:02 3.8 C 84 % 1.35 C
1543 25-02-2011 20:45:02 3.9 C 85 % 1.61 C
1544 25-02-2011 20:57:02 3.8 C 85 % 1.52 C
1545 25-02-2011 21:09:02 3.7 C 85 % 1.42 C
1546 25-02-2011 21:21:02 3.7 C 85 % 1.42 C
1547 25-02-2011 21:33:02 3.6 C 85 % 1.32 C
1548 25-02-2011 21:45:02 3.6 C 86 % 1.48 C
1549 25-02-2011 21:57:02 3.6 C 86 % 1.48 C
1550 25-02-2011 22:09:02 3.7 C 86 % 1.58 C
Sensor: Nr:Datum:Temp:Feuchte:Taupunkt:
Aussen-T/F 1551 25-02-2011 22:21:03 3.7 C 86 % 1.58 C
1552 25-02-2011 22:34:04 3.7 C 86 % 1.58 C
1553 25-02-2011 22:46:04 3.8 C 87 % 1.84 C
1554 25-02-2011 22:58:04 4 C 86 % 1.88 C
1555 25-02-2011 23:10:04 4 C 85 % 1.71 C
1556 25-02-2011 23:22:04 3.9 C 86 % 1.78 C
1557 25-02-2011 23:34:04 3.8 C 86 % 1.68 C
1558 25-02-2011 23:46:04 3.7 C 86 % 1.58 C
1559 25-02-2011 23:58:04 3.6 C 86 % 1.48 C
1560 26-02-2011 00:10:04 3.6 C 86 % 1.48 C
1561 26-02-2011 00:22:04 3.6 C 86 % 1.48 C
1562 26-02-2011 00:34:04 3.6 C 86 % 1.48 C
1563 26-02-2011 00:46:04 3.6 C 86 % 1.48 C
1564 26-02-2011 00:58:04 3.6 C 87 % 1.64 C
1565 26-02-2011 01:10:04 3.6 C 87 % 1.64 C
1566 26-02-2011 01:22:04 3.5 C 87 % 1.55 C
1567 26-02-2011 01:34:04 3.5 C 87 % 1.55 C
1568 26-02-2011 01:46:05 3.5 C 87 % 1.55 C
1569 26-02-2011 01:58:05 3.5 C 87 % 1.55 C
1570 26-02-2011 02:10:05 3.5 C 87 % 1.55 C
1571 26-02-2011 02:22:05 3.5 C 87 % 1.55 C
1572 26-02-2011 02:34:05 3.5 C 87 % 1.55 C
1573 26-02-2011 02:46:05 3.5 C 87 % 1.55 C
1574 26-02-2011 02:58:05 3.5 C 87 % 1.55 C
1575 26-02-2011 03:10:05 3.5 C 86 % 1.38 C
Sensor: Nr:Datum:Temp:Feuchte:Taupunkt:
Aussen-T/F 1576 26-02-2011 03:22:05 3.4 C 86 % 1.29 C
1577 26-02-2011 03:34:05 3.4 C 86 % 1.29 C
1578 26-02-2011 03:46:05 3.4 C 86 % 1.29 C
1579 26-02-2011 03:58:05 3.4 C 86 % 1.29 C
1580 26-02-2011 04:10:05 3.3 C 86 % 1.19 C
1581 26-02-2011 04:22:05 3.3 C 86 % 1.19 C
1582 26-02-2011 04:34:05 3.4 C 86 % 1.29 C
1583 26-02-2011 04:46:05 3.5 C 86 % 1.38 C
1584 26-02-2011 04:58:05 3.4 C 86 % 1.29 C
1585 26-02-2011 05:10:05 3.3 C 86 % 1.19 C
1586 26-02-2011 05:22:05 3.4 C 86 % 1.29 C
1587 26-02-2011 05:34:05 3.8 C 85 % 1.52 C
1588 26-02-2011 05:46:06 4.1 C 82 % 1.31 C
1589 26-02-2011 05:58:06 4.1 C 79 % 0.79 C
1590 26-02-2011 06:10:06 4.1 C 77 % 0.44 C
1591 26-02-2011 06:22:06 4 C 77 % 0.34 C
1592 26-02-2011 06:34:06 3.7 C 78 % 0.23 C
1593 26-02-2011 06:46:06 3.4 C 79 % 0.11 C
1594 26-02-2011 06:58:06 2.9 C 82 % 0.14 C
1595 26-02-2011 07:10:06 2.7 C 83 % 0.11 C
1596 26-02-2011 07:22:06 2.7 C 84 % 0.27 C
1597 26-02-2011 07:34:06 2.6 C 85 % 0.34 C
1598 26-02-2011 07:46:06 2.9 C 85 % 0.63 C
1599 26-02-2011 07:58:06 3.6 C 83 % 0.99 C
1600 26-02-2011 08:10:06 3.8 C 79 % 0.5 C
Sensor: Nr:Datum:Temp:Feuchte:Taupunkt:
Aussen-T/F 1601 26-02-2011 08:22:06 3.8 C 78 % 0.33 C
1602 26-02-2011 08:34:03 3.9 C 78 % 0.42 C
1603 26-02-2011 08:46:02 4 C 76 % 0.16 C
1604 26-02-2011 08:58:02 4.2 C 75 % 0.17 C
1605 26-02-2011 09:10:02 4.2 C 74 % -0.01 C
1606 26-02-2011 09:22:02 4.2 C 73 % -0.2 C
1607 26-02-2011 09:34:02 4.1 C 73 % -0.29 C
1608 26-02-2011 09:46:02 3.9 C 73 % -0.49 C
1609 26-02-2011 09:58:03 4.1 C 72 % -0.48 C
1610 26-02-2011 10:10:01 4.1 C 72 % -0.48 C
1611 26-02-2011 10:22:02 4.3 C 71 % -0.48 C
1612 26-02-2011 10:34:02 4.7 C 69 % -0.49 C
1613 26-02-2011 10:46:02 5.2 C 67 % -0.41 C
1614 26-02-2011 10:58:02 5.7 C 65 % -0.35 C
1615 26-02-2011 11:10:03 5.6 C 63 % -0.87 C
1616 26-02-2011 11:22:02 5.6 C 62 % -1.09 C
1617 26-02-2011 11:34:03 5.6 C 62 % -1.09 C
1618 26-02-2011 11:46:02 6.5 C 62 % -0.24 C
1619 26-02-2011 11:58:02 6.1 C 60 % -1.07 C
1620 26-02-2011 12:10:02 7.4 C 58 % -0.31 C
1621 26-02-2011 12:22:02 7.8 C 56 % -0.41 C
1622 26-02-2011 12:34:02 8 C 53 % -0.98 C
1623 26-02-2011 12:46:02 7.7 C 55 % -0.75 C
1624 26-02-2011 12:58:02 7.1 C 57 % -0.83 C
1625 26-02-2011 13:10:02 7.4 C 57 % -0.55 C
Sensor: Nr:Datum:Temp:Feuchte:Taupunkt:
Aussen-T/F 1626 26-02-2011 13:22:02 8.4 C 54 % -0.35 C
1627 26-02-2011 13:34:02 8.6 C 51 % -0.95 C
1628 26-02-2011 13:46:02 8.9 C 53 % -0.15 C
1629 26-02-2011 13:58:02 8.7 C 53 % -0.33 C
1630 26-02-2011 14:10:02 8.6 C 53 % -0.42 C
1631 26-02-2011 14:22:02 8 C 56 % -0.23 C
1632 26-02-2011 14:34:02 8.9 C 54 % 0.11 C
1633 26-02-2011 14:46:02 9.5 C 51 % -0.12 C
1634 26-02-2011 14:58:02 8.8 C 52 % -0.5 C
1635 26-02-2011 15:10:02 8.7 C 53 % -0.33 C
1636 26-02-2011 15:22:03 8 C 56 % -0.23 C
1637 26-02-2011 15:34:02 7.7 C 58 % -0.03 C
1638 26-02-2011 15:46:02 7.7 C 60 % 0.44 C
1639 26-02-2011 15:58:02 7.8 C 58 % 0.07 C
1640 26-02-2011 16:10:02 7.7 C 58 % -0.03 C
1641 26-02-2011 16:22:02 7.4 C 60 % 0.16 C
1642 26-02-2011 16:34:01 7 C 62 % 0.23 C
1643 26-02-2011 16:46:02 6.9 C 64 % 0.57 C
1644 26-02-2011 16:58:03 6.7 C 65 % 0.6 C
1645 26-02-2011 17:10:01 6.7 C 66 % 0.81 C
1646 26-02-2011 17:22:01 6.6 C 67 % 0.92 C
1647 26-02-2011 17:34:02 6.4 C 68 % 0.94 C
1648 26-02-2011 17:46:02 6.3 C 69 % 1.04 C
1649 26-02-2011 17:58:02 6 C 71 % 1.15 C
1650 26-02-2011 18:10:02 5.8 C 74 % 1.53 C
Sensor: Nr:Datum:Temp:Feuchte:Taupunkt:
Aussen-T/F 1651 26-02-2011 18:22:02 5.8 C 75 % 1.72 C
1652 26-02-2011 18:34:02 5.6 C 76 % 1.71 C
1653 26-02-2011 18:46:02 5.4 C 77 % 1.7 C
1654 26-02-2011 18:58:02 5.2 C 80 % 2.04 C
1655 26-02-2011 19:10:02 5.1 C 83 % 2.46 C
1656 26-02-2011 19:22:02 5 C 84 % 2.53 C
1657 26-02-2011 19:34:02 5 C 84 % 2.53 C
1658 26-02-2011 19:46:02 4.8 C 86 % 2.66 C
1659 26-02-2011 19:58:02 4.9 C 86 % 2.76 C
1660 26-02-2011 20:10:02 4.8 C 86 % 2.66 C
1661 26-02-2011 20:22:02 4.9 C 86 % 2.76 C
1662 26-02-2011 20:34:02 4.7 C 87 % 2.73 C
1663 26-02-2011 20:46:02 4.7 C 87 % 2.73 C
1664 26-02-2011 20:58:02 4.6 C 87 % 2.63 C
1665 26-02-2011 21:10:02 4.6 C 88 % 2.79 C
1666 26-02-2011 21:22:02 4.6 C 88 % 2.79 C
1667 26-02-2011 21:34:01 4.6 C 88 % 2.79 C
1668 26-02-2011 21:47:02 4.6 C 88 % 2.79 C
1669 26-02-2011 21:59:02 4.6 C 88 % 2.79 C
1670 26-02-2011 22:11:02 4.7 C 88 % 2.89 C
1671 26-02-2011 22:23:02 4.6 C 89 % 2.95 C
1672 26-02-2011 22:35:02 4.4 C 89 % 2.75 C
1673 26-02-2011 22:47:02 4.4 C 89 % 2.75 C
1674 26-02-2011 22:59:02 4.3 C 89 % 2.65 C
1675 26-02-2011 23:11:02 4.3 C 89 % 2.65 C
Sensor: Nr:Datum:Temp:Feuchte:Taupunkt:
Aussen-T/F 1676 26-02-2011 23:23:02 4.4 C 89 % 2.75 C
1677 26-02-2011 23:35:02 4.7 C 90 % 3.2 C
1678 26-02-2011 23:47:02 5 C 89 % 3.34 C
1679 26-02-2011 23:59:03 5.1 C 89 % 3.44 C
1680 27-02-2011 00:11:03 5.1 C 90 % 3.6 C
1681 27-02-2011 00:23:03 4.7 C 90 % 3.2 C
1682 27-02-2011 00:35:03 4.5 C 90 % 3.01 C
1683 27-02-2011 00:47:03 4.5 C 90 % 3.01 C
1684 27-02-2011 00:59:03 4.6 C 90 % 3.1 C
1685 27-02-2011 01:11:03 4.5 C 90 % 3.01 C
1686 27-02-2011 01:23:03 4.3 C 90 % 2.81 C
1687 27-02-2011 01:35:03 4.5 C 91 % 3.16 C
1688 27-02-2011 01:47:03 4.7 C 91 % 3.36 C
1689 27-02-2011 01:59:03 4.7 C 91 % 3.36 C
1690 27-02-2011 02:11:03 4.7 C 91 % 3.36 C
1691 27-02-2011 02:23:03 4.7 C 91 % 3.36 C
1692 27-02-2011 02:35:03 4.6 C 91 % 3.26 C
1693 27-02-2011 02:47:03 4.6 C 91 % 3.26 C
1694 27-02-2011 02:59:03 4.7 C 91 % 3.36 C
1695 27-02-2011 03:11:03 4.7 C 90 % 3.2 C
1696 27-02-2011 03:23:03 4.7 C 90 % 3.2 C
1697 27-02-2011 03:35:03 4.8 C 90 % 3.3 C
1698 27-02-2011 03:47:03 4.9 C 90 % 3.4 C
1699 27-02-2011 03:59:04 4.8 C 90 % 3.3 C
1700 27-02-2011 04:11:04 4.7 C 90 % 3.2 C
Sensor: Nr:Datum:Temp:Feuchte:Taupunkt:
Aussen-T/F 1701 27-02-2011 04:23:04 4.7 C 90 % 3.2 C
1702 27-02-2011 04:35:04 4.6 C 90 % 3.1 C
1703 27-02-2011 04:47:04 4.6 C 90 % 3.1 C
1704 27-02-2011 04:59:04 4.5 C 90 % 3.01 C
1705 27-02-2011 05:11:04 4.5 C 90 % 3.01 C
1706 27-02-2011 05:23:04 4.4 C 90 % 2.91 C
1707 27-02-2011 05:35:04 4.5 C 90 % 3.01 C
1708 27-02-2011 05:47:04 4.4 C 90 % 2.91 C
1709 27-02-2011 05:59:04 4.5 C 90 % 3.01 C
1710 27-02-2011 06:11:04 4.4 C 90 % 2.91 C
1711 27-02-2011 06:23:04 4.4 C 90 % 2.91 C
1712 27-02-2011 06:35:04 4.3 C 90 % 2.81 C
1713 27-02-2011 06:47:04 4.2 C 90 % 2.71 C
1714 27-02-2011 06:59:04 4.2 C 90 % 2.71 C
1715 27-02-2011 07:11:04 4.3 C 91 % 2.96 C
1716 27-02-2011 07:23:04 4.3 C 91 % 2.96 C
1717 27-02-2011 07:35:03 4.3 C 90 % 2.81 C
1718 27-02-2011 07:47:02 4.3 C 90 % 2.81 C
1719 27-02-2011 07:59:02 4.3 C 90 % 2.81 C
1720 27-02-2011 08:11:03 4.3 C 89 % 2.65 C
1721 27-02-2011 08:23:02 4.5 C 88 % 2.69 C
1722 27-02-2011 08:35:02 4.6 C 88 % 2.79 C
1723 27-02-2011 08:47:02 4.7 C 87 % 2.73 C
1724 27-02-2011 08:59:02 5 C 84 % 2.53 C
1725 27-02-2011 09:11:01 5 C 83 % 2.36 C
Sensor: Nr:Datum:Temp:Feuchte:Taupunkt:
Aussen-T/F 1726 27-02-2011 09:23:02 5.2 C 82 % 2.39 C
1727 27-02-2011 09:35:02 5.4 C 81 % 2.41 C
1728 27-02-2011 09:47:02 5.7 C 78 % 2.17 C
1729 27-02-2011 09:59:02 5.8 C 77 % 2.09 C
1730 27-02-2011 10:11:03 5.7 C 78 % 2.17 C
1731 27-02-2011 10:23:02 5.7 C 78 % 2.17 C
1732 27-02-2011 10:35:03 6.7 C 74 % 2.4 C
1733 27-02-2011 10:47:02 6.7 C 71 % 1.82 C
1734 27-02-2011 10:59:02 6.8 C 72 % 2.12 C
1735 27-02-2011 11:11:02 7 C 68 % 1.51 C
1736 27-02-2011 11:23:02 7.1 C 65 % 0.98 C
1737 27-02-2011 11:35:02 7.1 C 65 % 0.98 C
1738 27-02-2011 11:47:02 7.4 C 62 % 0.61 C
1739 27-02-2011 11:59:02 7.6 C 60 % 0.35 C
1740 27-02-2011 12:11:02 7.8 C 58 % 0.07 C
1741 27-02-2011 12:23:01 7.8 C 57 % -0.17 C
1742 27-02-2011 12:35:02 7.7 C 56 % -0.51 C
1743 27-02-2011 12:47:01 7.2 C 57 % -0.73 C
1744 27-02-2011 12:59:01 7.2 C 58 % -0.5 C
1745 27-02-2011 13:11:02 7.3 C 57 % -0.64 C
1746 27-02-2011 13:23:02 7.5 C 56 % -0.7 C
1747 27-02-2011 13:35:02 7.5 C 55 % -0.94 C
1748 27-02-2011 13:47:02 7.7 C 55 % -0.75 C
1749 27-02-2011 13:59:02 7.5 C 55 % -0.94 C
1750 27-02-2011 14:11:02 7.8 C 55 % -0.66 C
Sensor: Nr:Datum:Temp:Feuchte:Taupunkt:
Aussen-T/F 1751 27-02-2011 14:23:02 7.3 C 55 % -1.13 C
1752 27-02-2011 14:35:01 7.2 C 55 % -1.22 C
1753 27-02-2011 14:47:02 7.3 C 55 % -1.13 C
1754 27-02-2011 14:59:02 7.4 C 54 % -1.28 C
1755 27-02-2011 15:11:01 7.4 C 55 % -1.03 C
1756 27-02-2011 15:23:02 7.4 C 55 % -1.03 C
1757 27-02-2011 15:35:01 7.3 C 54 % -1.38 C
1758 27-02-2011 15:47:02 7.2 C 55 % -1.22 C
1759 27-02-2011 15:59:02 7.2 C 56 % -0.98 C
1760 27-02-2011 16:11:02 6.9 C 59 % -0.54 C
1761 27-02-2011 16:23:02 6.8 C 60 % -0.41 C
1762 27-02-2011 16:35:02 6.7 C 59 % -0.73 C
1763 27-02-2011 16:47:02 6.8 C 57 % -1.11 C
1764 27-02-2011 16:59:02 6.7 C 57 % -1.2 C
1765 27-02-2011 17:11:01 6.7 C 56 % -1.44 C
1766 27-02-2011 17:23:02 6.5 C 57 % -1.39 C
1767 27-02-2011 17:35:02 6.4 C 58 % -1.25 C
1768 27-02-2011 17:47:02 6.5 C 58 % -1.15 C
1769 27-02-2011 17:59:02 6.5 C 56 % -1.63 C
1770 27-02-2011 18:11:02 6.3 C 57 % -1.58 C
1771 27-02-2011 18:23:02 5.8 C 60 % -1.35 C
1772 27-02-2011 18:35:01 5.7 C 62 % -1 C
1773 27-02-2011 18:47:03 5.7 C 62 % -1 C
1774 27-02-2011 18:59:03 5.4 C 64 % -0.85 C
1775 27-02-2011 19:11:02 5.7 C 63 % -0.78 C
Sensor: Nr:Datum:Temp:Feuchte:Taupunkt:
Aussen-T/F 1776 27-02-2011 19:23:02 5.6 C 63 % -0.87 C
1777 27-02-2011 19:35:02 5 C 68 % -0.4 C
1778 27-02-2011 19:47:02 4.9 C 71 % 0.09 C
1779 27-02-2011 19:59:03 4.8 C 71 % 0 C
1780 27-02-2011 20:11:01 4.5 C 72 % -0.1 C
1781 27-02-2011 20:23:02 4.2 C 75 % 0.17 C
1782 27-02-2011 20:35:02 4.2 C 77 % 0.54 C
1783 27-02-2011 20:47:01 4.6 C 72 % 0 C
1784 27-02-2011 20:59:01 5 C 65 % -1.02 C
1785 27-02-2011 21:11:02 4.7 C 68 % -0.69 C
1786 27-02-2011 21:23:01 4.6 C 68 % -0.78 C
1787 27-02-2011 21:35:01 5.1 C 62 % -1.57 C
1788 27-02-2011 21:47:01 4.8 C 63 % -1.63 C
1789 27-02-2011 21:59:01 4.3 C 66 % -1.48 C
1790 27-02-2011 22:11:49 3.9 C 71 % -0.87 C
1791 27-02-2011 22:24:03 4.2 C 67 % -1.37 C
1792 27-02-2011 22:36:03 4.4 C 67 % -1.18 C
1793 27-02-2011 22:48:03 4.5 C 65 % -1.49 C
1794 27-02-2011 23:00:03 4.4 C 64 % -1.8 C
1795 27-02-2011 23:12:03 3.9 C 67 % -1.65 C
1796 27-02-2011 23:24:03 3.6 C 69 % -1.54 C
1797 27-02-2011 23:36:03 3.6 C 69 % -1.54 C
1798 27-02-2011 23:48:03 3.5 C 70 % -1.44 C
1799 28-02-2011 00:00:03 3.6 C 70 % -1.35 C
1800 28-02-2011 00:12:03 3.6 C 69 % -1.54 C
Sensor: Nr:Datum:Temp:Feuchte:Taupunkt:
Aussen-T/F 1801 28-02-2011 00:24:03 3 C 71 % -1.73 C
1802 28-02-2011 00:36:03 2.8 C 74 % -1.36 C
1803 28-02-2011 00:48:03 2.7 C 75 % -1.28 C
1804 28-02-2011 01:00:03 2.7 C 75 % -1.28 C
1805 28-02-2011 01:12:03 1.9 C 78 % -1.52 C
1806 28-02-2011 01:24:03 2 C 79 % -1.25 C
1807 28-02-2011 01:36:03 2.4 C 79 % -0.86 C
1808 28-02-2011 01:48:03 1.6 C 79 % -1.64 C
1809 28-02-2011 02:00:03 1.5 C 81 % -1.4 C
1810 28-02-2011 02:12:04 1.2 C 82 % -1.52 C
1811 28-02-2011 02:24:04 0.9 C 84 % -1.49 C
1812 28-02-2011 02:36:04 0.8 C 85 % -1.43 C
1813 28-02-2011 02:48:04 1.4 C 85 % -0.84 C
1814 28-02-2011 03:00:04 1.4 C 86 % -0.68 C
1815 28-02-2011 03:12:04 1.6 C 86 % -0.48 C
1816 28-02-2011 03:24:04 1.8 C 85 % -0.45 C
1817 28-02-2011 03:36:04 2.2 C 82 % -0.55 C
1818 28-02-2011 03:48:04 2.1 C 81 % -0.81 C
1819 28-02-2011 04:00:04 1.9 C 80 % -1.18 C
1820 28-02-2011 04:12:04 1.8 C 83 % -0.77 C
1821 28-02-2011 04:24:04 2.4 C 82 % -0.35 C
1822 28-02-2011 04:36:04 2.6 C 78 % -0.84 C
1823 28-02-2011 04:48:04 2.6 C 77 % -1.02 C
1824 28-02-2011 05:00:04 2.6 C 77 % -1.02 C
1825 28-02-2011 05:12:04 2.6 C 77 % -1.02 C
Sensor: Nr:Datum:Temp:Feuchte:Taupunkt:
Aussen-T/F 1826 28-02-2011 05:24:04 2.8 C 76 % -1 C
1827 28-02-2011 05:36:04 2.7 C 77 % -0.92 C
1828 28-02-2011 05:48:04 2.7 C 77 % -0.92 C
1829 28-02-2011 06:00:04 2.9 C 77 % -0.72 C
1830 28-02-2011 06:12:05 2.8 C 76 % -1 C
1831 28-02-2011 06:24:05 2.7 C 76 % -1.1 C
1832 28-02-2011 06:36:05 2.7 C 78 % -0.74 C
1833 28-02-2011 06:48:05 2.6 C 79 % -0.67 C
1834 28-02-2011 07:00:05 2.5 C 80 % -0.59 C
1835 28-02-2011 07:12:04 2.6 C 79 % -0.67 C
1836 28-02-2011 07:24:03 2.5 C 79 % -0.76 C
1837 28-02-2011 07:36:03 2.5 C 79 % -0.76 C
1838 28-02-2011 07:48:01 2.9 C 78 % -0.55 C
1839 28-02-2011 08:00:01 2.9 C 77 % -0.72 C
1840 28-02-2011 08:12:02 3.1 C 76 % -0.71 C
1841 28-02-2011 08:24:01 3.3 C 76 % -0.52 C
1842 28-02-2011 08:36:01 3.4 C 76 % -0.42 C
1843 28-02-2011 08:48:01 3.5 C 75 % -0.5 C
1844 28-02-2011 09:00:01 3.7 C 74 % -0.49 C
1845 28-02-2011 09:12:02 3.9 C 72 % -0.68 C
1846 28-02-2011 09:24:02 4.2 C 70 % -0.77 C
1847 28-02-2011 09:36:01 5 C 68 % -0.4 C
1848 28-02-2011 09:48:02 4.3 C 66 % -1.48 C
1849 28-02-2011 10:00:02 3.4 C 70 % -1.54 C
1850 28-02-2011 10:12:01 2.8 C 74 % -1.36 C
Sensor: Nr:Datum:Temp:Feuchte:Taupunkt:
Aussen-T/F 1851 28-02-2011 10:24:02 3.4 C 77 % -0.24 C
1852 28-02-2011 10:36:01 4.8 C 75 % 0.75 C
1853 28-02-2011 10:48:02 6.3 C 65 % 0.22 C
1854 28-02-2011 11:00:02 7.3 C 58 % -0.4 C
1855 28-02-2011 11:12:02 7.3 C 54 % -1.38 C
1856 28-02-2011 11:24:02 7 C 52 % -2.17 C
1857 28-02-2011 11:36:02 7.8 C 51 % -1.69 C
1858 28-02-2011 11:48:02 7.9 C 49 % -2.14 C
1859 28-02-2011 12:00:02 8.1 C 48 % -2.23 C
1860 28-02-2011 12:12:01 8.3 C 48 % -2.05 C
1861 28-02-2011 12:24:01 8.6 C 46 % -2.35 C
1862 28-02-2011 12:36:02 8.8 C 45 % -2.46 C
1863 28-02-2011 12:48:02 8.5 C 44 % -3.04 C
1864 28-02-2011 13:00:02 8.2 C 46 % -2.71 C
1865 28-02-2011 13:12:02 8.5 C 45 % -2.73 C
1866 28-02-2011 13:24:01 8.8 C 44 % -2.76 C
1867 28-02-2011 13:36:02 10.4 C 38 % -3.29 C
1868 28-02-2011 13:48:01 9.2 C 42 % -3.02 C
1869 28-02-2011 14:00:01 9.1 C 43 % -2.8 C
1870 28-02-2011 14:12:02 10.9 C 41 % -1.82 C
1871 28-02-2011 14:24:01 10 C 40 % -2.96 C
1872 28-02-2011 14:36:02 11.2 C 38 % -2.57 C
1873 28-02-2011 14:48:01 10.5 C 39 % -2.85 C
1874 28-02-2011 15:00:01 9.6 C 42 % -2.66 C
1875 28-02-2011 15:12:02 9.7 C 42 % -2.57 C
Sensor: Nr:Datum:Temp:Feuchte:Taupunkt:
Aussen-T/F 1876 28-02-2011 15:24:02 10 C 40 % -2.96 C
1877 28-02-2011 15:36:02 11 C 39 % -2.4 C
1878 28-02-2011 15:48:02 11.4 C 36 % -3.12 C
1879 28-02-2011 16:00:02 11.5 C 36 % -3.03 C
1880 28-02-2011 16:12:02 12.3 C 36 % -2.32 C
1881 28-02-2011 16:24:02 15.2 C 28 % -3.16 C
1882 28-02-2011 16:36:01 11.6 C 34 % -3.71 C
1883 28-02-2011 16:48:02 9.2 C 41 % -3.35 C
1884 28-02-2011 17:00:02 8.4 C 45 % -2.83 C
1885 28-02-2011 17:12:01 8.1 C 46 % -2.8 C
1886 28-02-2011 17:24:01 7.9 C 48 % -2.42 C
1887 28-02-2011 17:36:01 7.7 C 48 % -2.6 C
1888 28-02-2011 17:48:02 7.1 C 49 % -2.87 C
1889 28-02-2011 18:00:02 6.1 C 56 % -2 C
1890 28-02-2011 18:12:02 5.8 C 58 % -1.81 C
1891 28-02-2011 18:24:02 5.1 C 61 % -1.79 C
1892 28-02-2011 18:36:02 4.4 C 65 % -1.59 C
1893 28-02-2011 18:48:01 4.2 C 67 % -1.37 C
1894 28-02-2011 19:00:01 3.5 C 70 % -1.44 C
1895 28-02-2011 19:12:02 3 C 73 % -1.35 C
1896 28-02-2011 19:24:01 2.8 C 76 % -1 C
1897 28-02-2011 19:36:01 2.6 C 77 % -1.02 C
1898 28-02-2011 19:48:01 2.2 C 78 % -1.23 C
1899 28-02-2011 20:00:01 2 C 79 % -1.25 C
1900 28-02-2011 20:12:02 1.9 C 81 % -1.01 C
Sensor: Nr:Datum:Temp:Feuchte:Taupunkt:
Aussen-T/F 1901 28-02-2011 20:24:01 1.9 C 82 % -0.84 C
1902 28-02-2011 20:36:01 1.7 C 83 % -0.87 C
1903 28-02-2011 20:48:01 1.5 C 84 % -0.9 C
1904 28-02-2011 21:00:01 1.3 C 84 % -1.1 C
1905 28-02-2011 21:12:02 1.3 C 85 % -0.94 C
1906 28-02-2011 21:24:02 1.3 C 85 % -0.94 C
1907 28-02-2011 21:37:02 1.4 C 86 % -0.68 C
1908 28-02-2011 21:49:02 1.3 C 86 % -0.78 C
1909 28-02-2011 22:01:02 1.4 C 86 % -0.68 C
1910 28-02-2011 22:13:02 1.1 C 86 % -0.97 C
1911 28-02-2011 22:25:02 1.1 C 86 % -0.97 C
1912 28-02-2011 22:37:02 0.9 C 87 % -1.01 C
1913 28-02-2011 22:49:02 0.7 C 87 % -1.21 C
1914 28-02-2011 23:01:02 0.9 C 88 % -0.86 C
1915 28-02-2011 23:13:02 1 C 87 % -0.91 C
1916 28-02-2011 23:25:02 1.1 C 87 % -0.82 C
1917 28-02-2011 23:37:02 0.7 C 88 % -1.05 C
1918 28-02-2011 23:49:02 0.9 C 88 % -0.86 C
1919 01-03-2011 00:01:02 0.7 C 88 % -1.05 C
1920 01-03-2011 00:13:02 0.6 C 88 % -1.15 C
1921 01-03-2011 00:25:02 0.6 C 88 % -1.15 C
1922 01-03-2011 00:37:02 0.4 C 88 % -1.35 C
1923 01-03-2011 00:49:03 0.4 C 88 % -1.35 C
1924 01-03-2011 01:01:03 0.1 C 87 % -1.8 C
1925 01-03-2011 01:13:03 -0.3 C 87 % -2.2 C
Sensor: Nr:Datum:Temp:Feuchte:Taupunkt:
Aussen-T/F 1926 01-03-2011 01:25:03 -0.3 C 87 % -2.2 C
1927 01-03-2011 01:37:03 0.1 C 88 % -1.65 C
1928 01-03-2011 01:49:03 -0.1 C 88 % -1.84 C
1929 01-03-2011 02:01:03 0 C 88 % -1.74 C
1930 01-03-2011 02:13:03 0 C 88 % -1.74 C
1931 01-03-2011 02:25:03 -0.3 C 88 % -2.04 C
1932 01-03-2011 02:37:03 0.1 C 89 % -1.49 C
1933 01-03-2011 02:49:03 -0.3 C 89 % -1.89 C
1934 01-03-2011 03:01:03 -0.6 C 89 % -2.18 C
1935 01-03-2011 03:13:03 -0.8 C 89 % -2.38 C
1936 01-03-2011 03:25:03 -1 C 89 % -2.58 C
1937 01-03-2011 03:37:03 -0.9 C 89 % -2.48 C
1938 01-03-2011 03:49:03 -0.5 C 89 % -2.09 C
1939 01-03-2011 04:01:03 -0.9 C 89 % -2.48 C
1940 01-03-2011 04:13:03 -1.1 C 89 % -2.68 C
1941 01-03-2011 04:25:03 -0.8 C 89 % -2.38 C
1942 01-03-2011 04:37:03 -1.2 C 89 % -2.78 C
1943 01-03-2011 04:49:04 -1.2 C 89 % -2.78 C
1944 01-03-2011 05:01:04 -0.3 C 90 % -1.74 C
1945 01-03-2011 05:13:04 0.4 C 91 % -0.89 C
1946 01-03-2011 05:25:04 0.6 C 91 % -0.7 C
1947 01-03-2011 05:37:04 0.5 C 91 % -0.79 C
1948 01-03-2011 05:49:04 0.5 C 91 % -0.79 C
1949 01-03-2011 06:01:04 0.5 C 91 % -0.79 C
1950 01-03-2011 06:13:04 0.5 C 91 % -0.79 C
Sensor: Nr:Datum:Temp:Feuchte:Taupunkt:
Aussen-T/F 1951 01-03-2011 06:25:04 0.5 C 91 % -0.79 C
1952 01-03-2011 06:37:04 0.5 C 91 % -0.79 C
1953 01-03-2011 06:49:02 0.6 C 91 % -0.7 C
1954 01-03-2011 07:01:01 0.6 C 91 % -0.7 C
1955 01-03-2011 07:13:01 0.6 C 92 % -0.55 C
1956 01-03-2011 07:25:02 0.6 C 92 % -0.55 C
1957 01-03-2011 07:37:01 0.6 C 92 % -0.55 C
1958 01-03-2011 07:49:02 0.7 C 92 % -0.45 C
1959 01-03-2011 08:01:02 0.8 C 92 % -0.35 C
1960 01-03-2011 08:13:02 1.1 C 91 % -0.2 C
1961 01-03-2011 08:25:02 1.1 C 91 % -0.2 C
1962 01-03-2011 08:37:02 1.1 C 91 % -0.2 C
1963 01-03-2011 08:49:01 1.3 C 91 % 0 C
1964 01-03-2011 09:01:02 1.6 C 91 % 0.29 C
1965 01-03-2011 09:13:02 1.6 C 91 % 0.29 C
1966 01-03-2011 09:25:01 1.8 C 90 % 0.34 C
1967 01-03-2011 09:37:01 2 C 89 % 0.38 C
1968 01-03-2011 09:49:01 2.2 C 88 % 0.42 C
1969 01-03-2011 10:01:02 2.3 C 87 % 0.36 C
1970 01-03-2011 10:13:02 2.2 C 84 % -0.22 C
1971 01-03-2011 10:25:02 2.2 C 83 % -0.38 C
1972 01-03-2011 10:37:01 2.5 C 82 % -0.25 C
1973 01-03-2011 10:49:02 3 C 80 % -0.1 C
1974 01-03-2011 11:01:01 3.5 C 79 % 0.21 C
1975 01-03-2011 11:13:01 4.4 C 76 % 0.55 C
Sensor: Nr:Datum:Temp:Feuchte:Taupunkt:
Aussen-T/F 1976 01-03-2011 11:25:02 4.4 C 73 % 0 C
1977 01-03-2011 11:37:01 5.1 C 70 % 0.09 C
1978 01-03-2011 11:49:02 5.3 C 69 % 0.09 C
1979 01-03-2011 12:01:02 6.2 C 68 % 0.75 C
1980 01-03-2011 12:13:02 6.7 C 65 % 0.6 C
1981 01-03-2011 12:25:02 7.8 C 62 % 0.99 C
1982 01-03-2011 12:37:02 8.4 C 56 % 0.15 C
1983 01-03-2011 12:49:02 9.4 C 53 % 0.32 C
1984 01-03-2011 13:01:02 9.4 C 51 % -0.21 C
1985 01-03-2011 13:13:02 11.1 C 47 % 0.23 C
1986 01-03-2011 13:25:01 10.6 C 47 % -0.23 C
1987 01-03-2011 13:37:02 9.7 C 50 % -0.21 C
1988 01-03-2011 13:49:03 9.1 C 53 % 0.04 C
1989 01-03-2011 14:01:02 9.8 C 53 % 0.69 C
1990 01-03-2011 14:13:02 10.4 C 50 % 0.44 C
1991 01-03-2011 14:25:02 10.5 C 48 % -0.03 C
1992 01-03-2011 14:37:02 11.2 C 46 % 0.02 C
1993 01-03-2011 14:49:02 11.3 C 46 % 0.12 C
1994 01-03-2011 15:01:01 12.2 C 44 % 0.32 C
1995 01-03-2011 15:13:01 12.1 C 44 % 0.23 C
1996 01-03-2011 15:25:02 12 C 44 % 0.14 C
1997 01-03-2011 15:37:02 12.5 C 45 % 0.91 C
1998 01-03-2011 15:49:02 14.7 C 31 % -2.23 C
1999 01-03-2011 16:01:03 14.5 C 29 % -3.3 C
2000 01-03-2011 16:13:03 14.6 C 28 % -3.68 C
Sensor: Nr:Datum:Temp:Feuchte:Taupunkt:
Aussen-T/F 2001 01-03-2011 16:25:02 14.9 C 25 % -4.93 C
2002 01-03-2011 16:37:02 15.4 C 24 % -5.04 C
2003 01-03-2011 16:49:01 15.7 C 25 % -4.25 C
2004 01-03-2011 17:01:01 14 C 26 % -5.17 C
2005 01-03-2011 17:13:01 13.2 C 27 % -5.36 C
2006 01-03-2011 17:25:01 12.6 C 30 % -4.49 C
2007 01-03-2011 17:37:01 10.4 C 39 % -2.94 C
2008 01-03-2011 17:49:01 8.9 C 45 % -2.37 C
2009 01-03-2011 18:01:01 7.6 C 51 % -1.87 C
2010 01-03-2011 18:13:01 7 C 48 % -3.24 C
2011 01-03-2011 18:25:02 6.5 C 53 % -2.37 C
2012 01-03-2011 18:37:01 6.9 C 52 % -2.26 C
2013 01-03-2011 18:49:03 6.8 C 53 % -2.09 C
2014 01-03-2011 19:01:02 6.5 C 55 % -1.87 C
2015 01-03-2011 19:13:02 6.2 C 56 % -1.91 C
2016 01-03-2011 19:25:02 5.8 C 59 % -1.58 C
2017 01-03-2011 19:37:02 5.1 C 62 % -1.57 C
2018 01-03-2011 19:49:02 4.6 C 63 % -1.82 C
2019 01-03-2011 20:01:01 4.4 C 64 % -1.8 C
2020 01-03-2011 20:13:01 4.7 C 64 % -1.51 C
2021 01-03-2011 20:25:02 4.3 C 62 % -2.32 C
2022 01-03-2011 20:37:02 4.4 C 62 % -2.23 C
2023 01-03-2011 20:49:02 3.9 C 64 % -2.27 C
2024 01-03-2011 21:01:03 3.6 C 64 % -2.56 C
2025 01-03-2011 21:13:03 3.3 C 67 % -2.23 C
Sensor: Nr:Datum:Temp:Feuchte:Taupunkt:
Aussen-T/F 2026 01-03-2011 21:25:02 2.5 C 68 % -2.79 C
2027 01-03-2011 21:38:02 2.3 C 71 % -2.4 C
2028 01-03-2011 21:50:02 2.4 C 71 % -2.31 C
2029 01-03-2011 22:02:02 2 C 71 % -2.69 C
2030 01-03-2011 22:14:02 3.2 C 65 % -2.73 C
2031 01-03-2011 22:26:02 3.2 C 62 % -3.36 C
2032 01-03-2011 22:38:02 3.5 C 59 % -3.74 C
2033 01-03-2011 22:50:02 3.7 C 57 % -4.01 C
2034 01-03-2011 23:02:02 3.5 C 58 % -3.97 C
2035 01-03-2011 23:14:03 3.3 C 57 % -4.39 C
2036 01-03-2011 23:26:03 3 C 58 % -4.44 C
2037 01-03-2011 23:38:03 2.5 C 60 % -4.46 C
2038 01-03-2011 23:50:03 1.8 C 64 % -4.27 C
2039 02-03-2011 00:02:03 1.6 C 66 % -4.05 C
2040 02-03-2011 00:14:03 1.3 C 65 % -4.54 C
2041 02-03-2011 00:26:03 1.8 C 67 % -3.66 C
2042 02-03-2011 00:38:03 1.3 C 67 % -4.14 C
2043 02-03-2011 00:50:03 0.7 C 69 % -4.32 C
2044 02-03-2011 01:02:03 1.5 C 69 % -3.55 C
2045 02-03-2011 01:14:03 1.1 C 68 % -4.13 C
2046 02-03-2011 01:26:03 0.6 C 69 % -4.42 C
2047 02-03-2011 01:38:03 0.1 C 72 % -4.33 C
2048 02-03-2011 01:50:03 0.1 C 74 % -3.97 C
2049 02-03-2011 02:02:03 0 C 75 % -3.89 C
2050 02-03-2011 02:14:03 0 C 75 % -3.89 C
Sensor: Nr:Datum:Temp:Feuchte:Taupunkt:
Aussen-T/F 2051 02-03-2011 02:26:03 -0.4 C 76 % -4.1 C
2052 02-03-2011 02:38:03 -0.6 C 76 % -4.3 C
2053 02-03-2011 02:50:03 -0.8 C 77 % -4.32 C
2054 02-03-2011 03:02:03 -0.9 C 77 % -4.42 C
2055 02-03-2011 03:14:04 -1.1 C 78 % -4.44 C
2056 02-03-2011 03:26:04 -1 C 78 % -4.34 C
2057 02-03-2011 03:38:04 -1.2 C 77 % -4.71 C
2058 02-03-2011 03:50:04 -0.8 C 77 % -4.32 C
2059 02-03-2011 04:02:04 -1.2 C 76 % -4.88 C
2060 02-03-2011 04:14:04 -0.9 C 75 % -4.76 C
2061 02-03-2011 04:26:04 -0.9 C 74 % -4.94 C
2062 02-03-2011 04:38:04 -1 C 73 % -5.22 C
2063 02-03-2011 04:50:04 -1.1 C 72 % -5.5 C
2064 02-03-2011 05:02:04 -1.4 C 73 % -5.6 C
2065 02-03-2011 05:14:04 -1.3 C 73 % -5.51 C
2066 02-03-2011 05:26:04 -1.3 C 73 % -5.51 C
2067 02-03-2011 05:38:04 -1.6 C 74 % -5.62 C
2068 02-03-2011 05:50:04 -1.9 C 75 % -5.73 C
2069 02-03-2011 06:02:04 -2 C 76 % -5.66 C
2070 02-03-2011 06:14:04 -2.1 C 77 % -5.58 C
2071 02-03-2011 06:26:04 -2 C 77 % -5.48 C
2072 02-03-2011 06:38:04 -2.2 C 77 % -5.68 C
2073 02-03-2011 06:50:04 -2.1 C 76 % -5.75 C
2074 02-03-2011 07:02:04 -2.1 C 75 % -5.93 C
2075 02-03-2011 07:14:04 -2.2 C 74 % -6.2 C
Sensor: Nr:Datum:Temp:Feuchte:Taupunkt:
Aussen-T/F 2076 02-03-2011 07:26:05 -2.3 C 75 % -6.12 C
2077 02-03-2011 07:38:02 -2.2 C 75 % -6.02 C
2078 02-03-2011 07:50:02 -2.3 C 75 % -6.12 C
2079 02-03-2011 08:02:01 -2 C 76 % -5.66 C
2080 02-03-2011 08:14:01 -2.2 C 76 % -5.85 C
2081 02-03-2011 08:26:02 -2 C 76 % -5.66 C
2082 02-03-2011 08:38:02 -2 C 76 % -5.66 C
2083 02-03-2011 08:50:02 -1.8 C 76 % -5.46 C
2084 02-03-2011 09:02:02 -1.6 C 75 % -5.44 C
2085 02-03-2011 09:14:02 -0.9 C 73 % -5.12 C
2086 02-03-2011 09:26:01 -1 C 71 % -5.58 C
2087 02-03-2011 09:38:02 -0.5 C 71 % -5.1 C
2088 02-03-2011 09:50:02 -0.2 C 67 % -5.58 C
2089 02-03-2011 10:02:02 -0.2 C 68 % -5.38 C
2090 02-03-2011 10:14:02 0.7 C 65 % -5.11 C
2091 02-03-2011 10:26:02 1.5 C 61 % -5.19 C
2092 02-03-2011 10:38:02 2.3 C 56 % -5.56 C
2093 02-03-2011 10:50:02 2.9 C 55 % -5.23 C
2094 02-03-2011 11:02:02 4 C 50 % -5.46 C
2095 02-03-2011 11:14:02 5.2 C 43 % -6.33 C
2096 02-03-2011 11:26:02 5.2 C 41 % -6.95 C
2097 02-03-2011 11:38:01 6.9 C 30 % -9.45 C
2098 02-03-2011 11:50:02 7.1 C 23 % -12.6 C
2099 02-03-2011 12:02:01 7.6 C 21 % -13.29 C
2100 02-03-2011 12:14:01 8.2 C 20 % -13.39 C
Sensor: Nr:Datum:Temp:Feuchte:Taupunkt:
Aussen-T/F 2101 02-03-2011 12:26:02 10 C 20 % -11.89 C
2102 02-03-2011 12:38:02 11 C 20 % -11.06 C
2103 02-03-2011 12:50:02 12.1 C 20 % -10.15 C
2104 02-03-2011 13:02:02 12.9 C 20 % -9.49 C
2105 02-03-2011 13:14:02 12.3 C 20 % -9.98 C
2106 02-03-2011 13:26:02 11.2 C 20 % -10.9 C
2107 02-03-2011 13:38:02 11.1 C 20 % -10.98 C
2108 02-03-2011 13:50:02 10.7 C 20 % -11.31 C
2109 02-03-2011 14:02:03 10.2 C 20 % -11.73 C
2110 02-03-2011 14:14:03 11 C 20 % -11.06 C
2111 02-03-2011 14:26:02 11.2 C 20 % -10.9 C
2112 02-03-2011 14:38:02 11 C 20 % -11.06 C
2113 02-03-2011 14:50:01 10.8 C 20 % -11.23 C
2114 02-03-2011 15:02:01 11 C 20 % -11.06 C
2115 02-03-2011 15:14:01 10.6 C 20 % -11.39 C
2116 02-03-2011 15:26:01 11.8 C 20 % -10.4 C
2117 02-03-2011 15:38:01 11.7 C 20 % -10.48 C
2118 02-03-2011 15:50:01 13.3 C 20 % -9.15 C
2119 02-03-2011 16:02:01 13 C 20 % -9.4 C
2120 02-03-2011 16:14:01 12.9 C 20 % -9.49 C
2121 02-03-2011 16:26:02 13.1 C 20 % -9.32 C
2122 02-03-2011 16:38:01 13.3 C 20 % -9.15 C
2123 02-03-2011 16:50:02 13.6 C 20 % -8.91 C
2124 02-03-2011 17:02:02 12.3 C 20 % -9.98 C
2125 02-03-2011 17:14:02 12.2 C 20 % -10.07 C
Sensor: Nr:Datum:Temp:Feuchte:Taupunkt:
Aussen-T/F 2126 02-03-2011 17:26:02 11.2 C 20 % -10.9 C
2127 02-03-2011 17:38:03 8.7 C 20 % -12.97 C
2128 02-03-2011 17:50:02 7.4 C 20 % -14.05 C
2129 02-03-2011 18:02:01 6.7 C 21 % -14.05 C
2130 02-03-2011 18:14:01 6 C 27 % -11.55 C
2131 02-03-2011 18:26:02 4.6 C 33 % -10.26 C
2132 02-03-2011 18:38:02 3.6 C 40 % -8.71 C
2133 02-03-2011 18:50:02 3 C 43 % -8.33 C
2134 02-03-2011 19:02:02 3 C 43 % -8.33 C
2135 02-03-2011 19:14:02 2.4 C 47 % -7.74 C
2136 02-03-2011 19:26:02 2.2 C 47 % -7.92 C
2137 02-03-2011 19:38:02 2.5 C 48 % -7.38 C
2138 02-03-2011 19:50:02 2.4 C 45 % -8.3 C
2139 02-03-2011 20:02:02 3.2 C 41 % -8.76 C
2140 02-03-2011 20:14:02 2.6 C 43 % -8.69 C
2141 02-03-2011 20:26:02 3.6 C 36 % -10.05 C
2142 02-03-2011 20:38:02 2.4 C 43 % -8.88 C
2143 02-03-2011 20:50:02 2.7 C 44 % -8.31 C
2144 02-03-2011 21:02:02 3.1 C 40 % -9.16 C
2145 02-03-2011 21:14:02 2.1 C 43 % -9.15 C
2146 02-03-2011 21:26:03 2.9 C 39 % -9.66 C
2147 02-03-2011 21:38:02 3.3 C 37 % -9.97 C
2148 02-03-2011 21:51:03 2.8 C 40 % -9.43 C
2149 02-03-2011 22:03:03 3.4 C 38 % -9.54 C
2150 02-03-2011 22:15:04 2.7 C 40 % -9.52 C
Sensor: Nr:Datum:Temp:Feuchte:Taupunkt:
Aussen-T/F 2151 02-03-2011 22:27:04 2.4 C 40 % -9.79 C
2152 02-03-2011 22:39:04 2.2 C 41 % -9.66 C
2153 02-03-2011 22:51:04 1.5 C 45 % -9.12 C
2154 02-03-2011 23:03:04 1.6 C 46 % -8.75 C
2155 02-03-2011 23:15:04 1.5 C 46 % -8.84 C
2156 02-03-2011 23:27:04 0.7 C 51 % -8.26 C
2157 02-03-2011 23:39:04 0.1 C 55 % -7.85 C
2158 02-03-2011 23:51:04 0 C 56 % -7.71 C
2159 03-03-2011 00:03:04 0.1 C 54 % -8.08 C
2160 03-03-2011 00:15:04 -0.8 C 58 % -8.02 C
2161 03-03-2011 00:27:04 -0.9 C 60 % -7.68 C
2162 03-03-2011 00:39:04 -1.2 C 60 % -7.96 C
2163 03-03-2011 00:51:04 -1.4 C 61 % -7.94 C
2164 03-03-2011 01:03:04 -1.5 C 61 % -8.03 C
2165 03-03-2011 01:15:04 -1.7 C 62 % -8.01 C
2166 03-03-2011 01:27:04 -1.8 C 63 % -7.9 C
2167 03-03-2011 01:39:04 -1.7 C 63 % -7.81 C
2168 03-03-2011 01:51:04 -1.2 C 63 % -7.33 C
2169 03-03-2011 02:03:04 -1.9 C 62 % -8.2 C
2170 03-03-2011 02:15:05 -2 C 62 % -8.3 C
2171 03-03-2011 02:27:05 -1.8 C 60 % -8.53 C
2172 03-03-2011 02:39:05 -2 C 60 % -8.72 C
2173 03-03-2011 02:51:05 -2 C 62 % -8.3 C
2174 03-03-2011 03:03:05 -2 C 61 % -8.5 C
2175 03-03-2011 03:15:05 -2 C 62 % -8.3 C
Sensor: Nr:Datum:Temp:Feuchte:Taupunkt:
Aussen-T/F 2176 03-03-2011 03:27:05 -2.3 C 62 % -8.58 C
2177 03-03-2011 03:39:05 -2.2 C 62 % -8.49 C
2178 03-03-2011 03:51:05 -2.1 C 62 % -8.39 C
2179 03-03-2011 04:03:05 -1.8 C 60 % -8.53 C
2180 03-03-2011 04:15:05 -0.3 C 51 % -9.2 C
2181 03-03-2011 04:27:05 -1.3 C 52 % -9.88 C
2182 03-03-2011 04:39:05 -2.6 C 57 % -9.93 C
2183 03-03-2011 04:51:05 -2.8 C 62 % -9.05 C
2184 03-03-2011 05:03:05 -2.6 C 64 % -8.46 C
2185 03-03-2011 05:15:05 -3.1 C 64 % -8.93 C
2186 03-03-2011 05:27:05 -2.7 C 64 % -8.55 C
2187 03-03-2011 05:39:05 -2.7 C 62 % -8.96 C
2188 03-03-2011 05:51:05 -3 C 62 % -9.24 C
2189 03-03-2011 06:03:05 -3.1 C 63 % -9.14 C
2190 03-03-2011 06:15:06 -3.1 C 64 % -8.93 C
2191 03-03-2011 06:27:06 -3.6 C 64 % -9.41 C
2192 03-03-2011 06:39:06 -3.7 C 65 % -9.31 C
2193 03-03-2011 06:51:06 -3.6 C 67 % -8.83 C
2194 03-03-2011 07:03:03 -3.5 C 67 % -8.73 C
2195 03-03-2011 07:15:03 -3.2 C 66 % -8.64 C
2196 03-03-2011 07:27:04 -3.2 C 65 % -8.83 C
2197 03-03-2011 07:39:03 -3.1 C 65 % -8.74 C
2198 03-03-2011 07:51:02 -3 C 65 % -8.64 C
2199 03-03-2011 08:03:02 -3.2 C 65 % -8.83 C
2200 03-03-2011 08:15:02 -2.8 C 65 % -8.45 C
Sensor: Nr:Datum:Temp:Feuchte:Taupunkt:
Aussen-T/F 2201 03-03-2011 08:27:02 -2.5 C 63 % -8.57 C
2202 03-03-2011 08:39:02 -2.4 C 62 % -8.68 C
2203 03-03-2011 08:51:02 -2.3 C 62 % -8.58 C
2204 03-03-2011 09:03:02 -2 C 62 % -8.3 C
2205 03-03-2011 09:15:02 -1.9 C 61 % -8.41 C
2206 03-03-2011 09:27:02 -1.7 C 60 % -8.43 C
2207 03-03-2011 09:39:01 -1.6 C 61 % -8.13 C
2208 03-03-2011 09:51:02 -1.2 C 61 % -7.75 C
2209 03-03-2011 10:03:01 -1 C 61 % -7.56 C
2210 03-03-2011 10:15:01 0.2 C 59 % -6.85 C
2211 03-03-2011 10:27:01 0.7 C 56 % -7.05 C
2212 03-03-2011 10:39:02 1.8 C 48 % -8.02 C
2213 03-03-2011 10:51:02 2.5 C 41 % -9.39 C
2214 03-03-2011 11:03:02 4 C 36 % -9.69 C
2215 03-03-2011 11:15:02 3.8 C 35 % -10.23 C
2216 03-03-2011 11:27:02 3.9 C 34 % -10.5 C
2217 03-03-2011 11:39:02 4.9 C 30 % -11.19 C
2218 03-03-2011 11:51:02 4.6 C 30 % -11.45 C
2219 03-03-2011 12:03:02 5.1 C 29 % -11.44 C
2220 03-03-2011 12:15:02 5.8 C 28 % -11.27 C
2221 03-03-2011 12:27:02 6.5 C 23 % -13.1 C
2222 03-03-2011 12:39:02 8.7 C 20 % -12.97 C
2223 03-03-2011 12:51:01 8.6 C 20 % -13.06 C
2224 03-03-2011 13:03:01 9 C 20 % -12.72 C
2225 03-03-2011 13:15:02 9.3 C 20 % -12.47 C
Sensor: Nr:Datum:Temp:Feuchte:Taupunkt:
Aussen-T/F 2226 03-03-2011 13:27:02 7.8 C 20 % -13.72 C
2227 03-03-2011 13:39:01 8 C 20 % -13.56 C
2228 03-03-2011 13:51:03 8.1 C 20 % -13.47 C
2229 03-03-2011 14:03:02 7.9 C 20 % -13.64 C
2230 03-03-2011 14:15:02 8.8 C 20 % -12.89 C
2231 03-03-2011 14:27:03 8.6 C 20 % -13.06 C
2232 03-03-2011 14:39:02 9.4 C 20 % -12.39 C
2233 03-03-2011 14:51:02 8.8 C 20 % -12.89 C
2234 03-03-2011 15:03:01 9.3 C 20 % -12.47 C
2235 03-03-2011 15:15:02 9.3 C 20 % -12.47 C
2236 03-03-2011 15:27:02 9.4 C 20 % -12.39 C
2237 03-03-2011 15:39:02 9.3 C 20 % -12.47 C
2238 03-03-2011 15:51:02 10.3 C 20 % -11.64 C
2239 03-03-2011 16:03:03 9.5 C 20 % -12.31 C
2240 03-03-2011 16:15:02 11.1 C 20 % -10.98 C
2241 03-03-2011 16:27:02 12 C 20 % -10.23 C
2242 03-03-2011 16:39:02 10.7 C 20 % -11.31 C
2243 03-03-2011 16:51:01 10.5 C 20 % -11.48 C
2244 03-03-2011 17:03:02 9.7 C 20 % -12.14 C
2245 03-03-2011 17:15:01 9.4 C 20 % -12.39 C
2246 03-03-2011 17:27:01 8.5 C 20 % -13.14 C
2247 03-03-2011 17:39:01 7 C 20 % -14.39 C
2248 03-03-2011 17:51:01 5.9 C 30 % -10.32 C
2249 03-03-2011 18:03:01 4.6 C 34 % -9.88 C
2250 03-03-2011 18:15:02 3.8 C 38 % -9.19 C
Sensor: Nr:Datum:Temp:Feuchte:Taupunkt:
Aussen-T/F 2251 03-03-2011 18:27:02 3.3 C 40 % -8.98 C
2252 03-03-2011 18:39:01 2.4 C 45 % -8.3 C
2253 03-03-2011 18:51:03 1.8 C 48 % -8.02 C
2254 03-03-2011 19:03:02 1.4 C 51 % -7.61 C
2255 03-03-2011 19:15:02 1.2 C 52 % -7.54 C
2256 03-03-2011 19:27:02 1.1 C 54 % -7.15 C
2257 03-03-2011 19:39:02 0.9 C 56 % -6.87 C
2258 03-03-2011 19:51:02 0.8 C 57 % -6.73 C
2259 03-03-2011 20:03:01 1.1 C 55 % -6.91 C
2260 03-03-2011 20:15:02 0.5 C 58 % -6.79 C
2261 03-03-2011 20:27:02 0.5 C 59 % -6.56 C
2262 03-03-2011 20:39:02 0.4 C 60 % -6.44 C
2263 03-03-2011 20:51:02 0 C 61 % -6.6 C
2264 03-03-2011 21:03:03 -0.1 C 63 % -6.29 C
2265 03-03-2011 21:15:02 -0.1 C 62 % -6.5 C
2266 03-03-2011 21:27:02 -0.3 C 64 % -6.27 C
2267 03-03-2011 21:39:02 -0.4 C 65 % -6.16 C
2268 03-03-2011 21:51:01 -0.5 C 66 % -6.06 C
2269 03-03-2011 22:03:02 -0.4 C 66 % -5.96 C
2270 03-03-2011 22:15:02 -0.4 C 65 % -6.16 C
2271 03-03-2011 22:27:02 -0.7 C 66 % -6.25 C
2272 03-03-2011 22:39:01 -0.9 C 67 % -6.25 C
2273 03-03-2011 22:52:03 -1 C 69 % -5.96 C
2274 03-03-2011 23:04:03 -1.2 C 69 % -6.15 C
2275 03-03-2011 23:16:03 -1.1 C 69 % -6.05 C
Sensor: Nr:Datum:Temp:Feuchte:Taupunkt:
Aussen-T/F 2276 03-03-2011 23:28:03 -1.3 C 69 % -6.24 C
2277 03-03-2011 23:40:03 -1.5 C 68 % -6.63 C
2278 03-03-2011 23:52:03 -1.4 C 69 % -6.34 C
2279 04-03-2011 00:04:03 -1.5 C 68 % -6.63 C
2280 04-03-2011 00:16:03 -1.5 C 68 % -6.63 C
2281 04-03-2011 00:28:03 -1.6 C 68 % -6.72 C
2282 04-03-2011 00:40:04 -1.8 C 69 % -6.72 C
2283 04-03-2011 00:52:04 -1.7 C 69 % -6.63 C
2284 04-03-2011 01:04:04 -1.9 C 70 % -6.63 C
2285 04-03-2011 01:16:04 -1.7 C 70 % -6.44 C
2286 04-03-2011 01:28:04 -1.9 C 70 % -6.63 C
2287 04-03-2011 01:40:04 -1.9 C 70 % -6.63 C
2288 04-03-2011 01:52:04 -2 C 70 % -6.73 C
2289 04-03-2011 02:04:04 -2.2 C 70 % -6.92 C
2290 04-03-2011 02:16:04 -2.1 C 70 % -6.83 C
2291 04-03-2011 02:28:04 -2.3 C 70 % -7.02 C
2292 04-03-2011 02:40:04 -2.4 C 70 % -7.11 C
2293 04-03-2011 02:52:04 -2.2 C 71 % -6.74 C
2294 04-03-2011 03:04:04 -2.5 C 70 % -7.21 C
2295 04-03-2011 03:16:04 -2.7 C 71 % -7.22 C
2296 04-03-2011 03:28:04 -3 C 72 % -7.33 C
2297 04-03-2011 03:40:04 -3.2 C 73 % -7.34 C
2298 04-03-2011 03:52:04 -2.5 C 74 % -6.49 C
2299 04-03-2011 04:04:04 -2.8 C 74 % -6.78 C
2300 04-03-2011 04:16:04 -3.1 C 73 % -7.24 C
Sensor: Nr:Datum:Temp:Feuchte:Taupunkt:
Aussen-T/F 2301 04-03-2011 04:28:04 -3.9 C 73 % -8.02 C
2302 04-03-2011 04:40:04 -3.9 C 75 % -7.67 C
2303 04-03-2011 04:52:05 -4 C 76 % -7.59 C
2304 04-03-2011 05:04:05 -4.3 C 76 % -7.89 C
2305 04-03-2011 05:16:05 -4.3 C 76 % -7.89 C
2306 04-03-2011 05:28:05 -4.6 C 77 % -8.01 C
2307 04-03-2011 05:40:05 -4.3 C 78 % -7.55 C
2308 04-03-2011 05:52:05 -4.3 C 79 % -7.39 C
2309 04-03-2011 06:04:05 -4.7 C 79 % -7.78 C
2310 04-03-2011 06:16:05 -4.4 C 79 % -7.48 C
2311 04-03-2011 06:28:05 -4.4 C 79 % -7.48 C
2312 04-03-2011 06:40:05 -4.7 C 79 % -7.78 C
2313 04-03-2011 06:52:05 -5 C 78 % -8.23 C
2314 04-03-2011 07:04:05 -4.9 C 78 % -8.13 C
2315 04-03-2011 07:16:03 -4.9 C 79 % -7.97 C
2316 04-03-2011 07:28:03 -4.7 C 79 % -7.78 C
2317 04-03-2011 07:40:02 -4.6 C 79 % -7.68 C
2318 04-03-2011 07:52:02 -4.4 C 79 % -7.48 C
2319 04-03-2011 08:04:01 -4.5 C 79 % -7.58 C
2320 04-03-2011 08:16:02 -4 C 79 % -7.09 C
2321 04-03-2011 08:28:02 -4 C 80 % -6.93 C
2322 04-03-2011 08:40:02 -3.8 C 80 % -6.74 C
2323 04-03-2011 08:52:02 -3.6 C 79 % -6.7 C
2324 04-03-2011 09:04:02 -3.5 C 79 % -6.61 C
2325 04-03-2011 09:16:02 -3.1 C 79 % -6.22 C
Sensor: Nr:Datum:Temp:Feuchte:Taupunkt:
Aussen-T/F 2326 04-03-2011 09:28:02 -2.7 C 79 % -5.83 C
2327 04-03-2011 09:40:02 -2.4 C 78 % -5.7 C
2328 04-03-2011 09:52:02 -2.2 C 78 % -5.51 C
2329 04-03-2011 10:04:02 -1.6 C 77 % -5.1 C
2330 04-03-2011 10:16:02 -0.7 C 75 % -4.57 C
2331 04-03-2011 10:28:02 -0.1 C 72 % -4.53 C
2332 04-03-2011 10:40:03 0.5 C 69 % -4.51 C
2333 04-03-2011 10:52:02 1.4 C 66 % -4.24 C
2334 04-03-2011 11:04:02 2.9 C 59 % -4.31 C
2335 04-03-2011 11:16:02 3 C 54 % -5.38 C
2336 04-03-2011 11:28:02 3.3 C 51 % -5.85 C
2337 04-03-2011 11:40:02 4.6 C 46 % -6 C
2338 04-03-2011 11:52:02 4.2 C 45 % -6.65 C
2339 04-03-2011 12:04:01 4.6 C 46 % -6 C
2340 04-03-2011 12:16:02 5.4 C 42 % -6.46 C
2341 04-03-2011 12:28:02 7.3 C 39 % -5.72 C
2342 04-03-2011 12:40:02 9.5 C 31 % -6.76 C
2343 04-03-2011 12:52:01 10.5 C 30 % -6.32 C
2344 04-03-2011 13:04:01 11.6 C 26 % -7.22 C
2345 04-03-2011 13:16:01 12 C 25 % -7.39 C
2346 04-03-2011 13:28:01 10.1 C 30 % -6.66 C
2347 04-03-2011 13:40:02 9 C 31 % -7.2 C
2348 04-03-2011 13:52:02 8.9 C 32 % -6.87 C
2349 04-03-2011 14:04:02 8.6 C 33 % -6.74 C
2350 04-03-2011 14:16:01 9.8 C 32 % -6.09 C
Sensor: Nr:Datum:Temp:Feuchte:Taupunkt:
Aussen-T/F 2351 04-03-2011 14:28:01 9.8 C 32 % -6.09 C
2352 04-03-2011 14:40:02 10.1 C 32 % -5.82 C
2353 04-03-2011 14:52:02 10 C 31 % -6.32 C
2354 04-03-2011 15:04:02 10.9 C 30 % -5.97 C
2355 04-03-2011 15:16:02 10.7 C 31 % -5.71 C
2356 04-03-2011 15:28:02 10.8 C 30 % -6.06 C
2357 04-03-2011 15:40:02 13.2 C 26 % -5.86 C
2358 04-03-2011 15:52:02 14.2 C 25 % -5.52 C
2359 04-03-2011 16:04:01 15.1 C 20 % -7.66 C
2360 04-03-2011 16:16:01 16.9 C 20 % -6.17 C
2361 04-03-2011 16:28:01 16.6 C 20 % -6.42 C
2362 04-03-2011 16:40:02 15.2 C 22 % -6.35 C
2363 04-03-2011 16:52:02 14.9 C 25 % -4.93 C
2364 04-03-2011 17:04:02 13.5 C 25 % -6.11 C
2365 04-03-2011 17:16:02 13.2 C 27 % -5.36 C
2366 04-03-2011 17:28:02 11.1 C 34 % -4.15 C
2367 04-03-2011 17:40:02 8.9 C 40 % -3.95 C
2368 04-03-2011 17:52:02 7.9 C 44 % -3.58 C
2369 04-03-2011 18:04:02 6.4 C 48 % -3.79 C
2370 04-03-2011 18:16:02 5.5 C 52 % -3.56 C
2371 04-03-2011 18:28:02 5.1 C 54 % -3.42 C
2372 04-03-2011 18:40:02 4.7 C 56 % -3.31 C
2373 04-03-2011 18:52:01 5.2 C 53 % -3.58 C
2374 04-03-2011 19:04:02 5 C 52 % -4.02 C
2375 04-03-2011 19:16:01 5 C 50 % -4.54 C
Sensor: Nr:Datum:Temp:Feuchte:Taupunkt:
Aussen-T/F 2376 04-03-2011 19:28:01 4.3 C 52 % -4.67 C
2377 04-03-2011 19:40:01 4.4 C 58 % -3.12 C
2378 04-03-2011 19:52:01 3.6 C 60 % -3.42 C
2379 04-03-2011 20:04:01 3.2 C 63 % -3.15 C
2380 04-03-2011 20:16:02 2.8 C 65 % -3.11 C
2381 04-03-2011 20:28:02 2.6 C 66 % -3.1 C
2382 04-03-2011 20:40:01 2.7 C 67 % -2.8 C
2383 04-03-2011 20:52:03 2.3 C 67 % -3.18 C
2384 04-03-2011 21:04:02 2.1 C 69 % -2.98 C
2385 04-03-2011 21:16:02 1.6 C 71 % -3.08 C
2386 04-03-2011 21:28:02 1.9 C 71 % -2.79 C
2387 04-03-2011 21:41:03 1.8 C 70 % -3.07 C
2388 04-03-2011 21:53:03 1.7 C 72 % -2.79 C
2389 04-03-2011 22:05:03 1.7 C 72 % -2.79 C
2390 04-03-2011 22:17:03 1.4 C 72 % -3.08 C
2391 04-03-2011 22:29:03 0.9 C 75 % -3.02 C
2392 04-03-2011 22:41:03 0.7 C 76 % -3.03 C
2393 04-03-2011 22:53:03 0.4 C 78 % -2.98 C
2394 04-03-2011 23:05:03 -0.3 C 78 % -3.66 C
2395 04-03-2011 23:17:03 0 C 80 % -3.03 C
2396 04-03-2011 23:29:03 0.6 C 80 % -2.44 C
2397 04-03-2011 23:41:03 0 C 79 % -3.2 C
2398 04-03-2011 23:53:03 -0.6 C 81 % -3.45 C
2399 05-03-2011 00:05:03 -0.5 C 82 % -3.19 C
2400 05-03-2011 00:17:03 -0.4 C 83 % -2.93 C
Sensor: Nr:Datum:Temp:Feuchte:Taupunkt:
Aussen-T/F 2401 05-03-2011 00:29:04 -1.5 C 83 % -4 C
2402 05-03-2011 00:41:04 -1.3 C 83 % -3.81 C
2403 05-03-2011 00:53:04 -1.5 C 84 % -3.85 C
2404 05-03-2011 01:05:04 -0.7 C 85 % -2.9 C
2405 05-03-2011 01:17:04 -1.7 C 85 % -3.88 C
2406 05-03-2011 01:29:04 -2.3 C 85 % -4.47 C
2407 05-03-2011 01:41:04 -2.3 C 85 % -4.47 C
2408 05-03-2011 01:53:04 -2.4 C 85 % -4.57 C
2409 05-03-2011 02:05:04 -2.8 C 85 % -4.96 C
2410 05-03-2011 02:17:04 -2.9 C 85 % -5.06 C
2411 05-03-2011 02:29:04 -3.1 C 85 % -5.26 C
2412 05-03-2011 02:41:04 -3.2 C 85 % -5.36 C
2413 05-03-2011 02:53:04 -3.2 C 85 % -5.36 C
2414 05-03-2011 03:05:04 -3.5 C 85 % -5.65 C
2415 05-03-2011 03:17:04 -3.5 C 85 % -5.65 C
2416 05-03-2011 03:29:04 -3.7 C 85 % -5.85 C
2417 05-03-2011 03:41:04 -3.7 C 86 % -5.69 C
2418 05-03-2011 03:53:04 -3.5 C 86 % -5.5 C
2419 05-03-2011 04:05:04 -3.6 C 86 % -5.6 C
2420 05-03-2011 04:17:04 -3.9 C 86 % -5.89 C
2421 05-03-2011 04:29:04 -3.8 C 86 % -5.79 C
2422 05-03-2011 04:41:05 -3.7 C 87 % -5.54 C
2423 05-03-2011 04:53:05 -3.7 C 87 % -5.54 C
2424 05-03-2011 05:05:05 -3.7 C 87 % -5.54 C
2425 05-03-2011 05:17:05 -3.8 C 87 % -5.64 C
Sensor: Nr:Datum:Temp:Feuchte:Taupunkt:
Aussen-T/F 2426 05-03-2011 05:29:05 -4.1 C 87 % -5.94 C
2427 05-03-2011 05:41:05 -3.6 C 87 % -5.44 C
2428 05-03-2011 05:53:05 -4 C 87 % -5.84 C
2429 05-03-2011 06:05:05 -3.7 C 87 % -5.54 C
2430 05-03-2011 06:17:05 -2.8 C 87 % -4.66 C
2431 05-03-2011 06:29:05 -2.6 C 87 % -4.46 C
2432 05-03-2011 06:41:05 -2.5 C 87 % -4.36 C
2433 05-03-2011 06:53:05 -2.3 C 88 % -4.01 C
2434 05-03-2011 07:05:03 -2.4 C 88 % -4.11 C
2435 05-03-2011 07:17:02 -2.2 C 88 % -3.91 C
2436 05-03-2011 07:29:02 -2.7 C 87 % -4.56 C
2437 05-03-2011 07:41:02 -2.8 C 87 % -4.66 C
2438 05-03-2011 07:53:01 -1.9 C 88 % -3.62 C
2439 05-03-2011 08:05:02 -1.9 C 88 % -3.62 C
2440 05-03-2011 08:17:02 -1.8 C 88 % -3.52 C
2441 05-03-2011 08:29:02 -1.4 C 87 % -3.28 C
2442 05-03-2011 08:41:02 -1.4 C 87 % -3.28 C
2443 05-03-2011 08:53:02 -1.3 C 86 % -3.33 C
2444 05-03-2011 09:05:02 -1.1 C 86 % -3.14 C
2445 05-03-2011 09:17:02 -0.9 C 85 % -3.1 C
2446 05-03-2011 09:29:02 -0.7 C 84 % -3.06 C
2447 05-03-2011 09:41:02 -0.2 C 83 % -2.73 C
2448 05-03-2011 09:53:02 0.2 C 82 % -2.5 C
2449 05-03-2011 10:05:02 0.6 C 81 % -2.28 C
2450 05-03-2011 10:17:02 1 C 78 % -2.39 C
Sensor: Nr:Datum:Temp:Feuchte:Taupunkt:
Aussen-T/F 2451 05-03-2011 10:29:02 1.6 C 76 % -2.16 C
2452 05-03-2011 10:41:02 2.2 C 73 % -2.13 C
2453 05-03-2011 10:53:01 2.4 C 71 % -2.31 C
2454 05-03-2011 11:05:02 2.4 C 69 % -2.69 C
2455 05-03-2011 11:17:01 2.9 C 68 % -2.41 C
2456 05-03-2011 11:29:01 2.8 C 63 % -3.53 C
2457 05-03-2011 11:41:01 3 C 62 % -3.55 C
2458 05-03-2011 11:53:01 3 C 61 % -3.77 C
2459 05-03-2011 12:05:02 3.3 C 62 % -3.27 C
2460 05-03-2011 12:17:02 3.3 C 61 % -3.49 C
2461 05-03-2011 12:29:02 4.6 C 58 % -2.94 C
2462 05-03-2011 12:41:01 4.9 C 54 % -3.61 C
2463 05-03-2011 12:53:02 6.3 C 48 % -3.88 C
2464 05-03-2011 13:05:01 6.8 C 47 % -3.71 C
2465 05-03-2011 13:17:02 6.3 C 47 % -4.16 C
2466 05-03-2011 13:29:02 5.6 C 48 % -4.53 C
2467 05-03-2011 13:41:01 5 C 50 % -4.54 C
2468 05-03-2011 13:53:02 4.7 C 50 % -4.82 C
2469 05-03-2011 14:05:02 3.3 C 53 % -5.35 C
2470 05-03-2011 14:17:02 4 C 53 % -4.7 C
2471 05-03-2011 14:29:02 4.1 C 52 % -4.85 C
2472 05-03-2011 14:41:02 4.1 C 53 % -4.6 C
2473 05-03-2011 14:53:02 4.5 C 52 % -4.48 C
2474 05-03-2011 15:05:03 4.2 C 52 % -4.76 C
2475 05-03-2011 15:17:02 3.7 C 53 % -4.97 C
Sensor: Nr:Datum:Temp:Feuchte:Taupunkt:
Aussen-T/F 2476 05-03-2011 15:29:02 3.4 C 55 % -4.77 C
2477 05-03-2011 15:41:02 3.8 C 54 % -4.63 C
2478 05-03-2011 15:53:01 4.8 C 51 % -4.46 C
2479 05-03-2011 16:05:02 4.2 C 52 % -4.76 C
2480 05-03-2011 16:17:01 4.1 C 52 % -4.85 C
2481 05-03-2011 16:29:01 3.3 C 55 % -4.86 C
2482 05-03-2011 16:41:02 2.6 C 59 % -4.59 C
2483 05-03-2011 16:53:01 2.7 C 60 % -4.27 C
2484 05-03-2011 17:05:02 3.2 C 59 % -4.02 C
2485 05-03-2011 17:17:01 3.3 C 57 % -4.39 C
2486 05-03-2011 17:29:01 2.6 C 61 % -4.15 C
2487 05-03-2011 17:41:02 2.2 C 64 % -3.89 C
2488 05-03-2011 17:53:01 1.8 C 67 % -3.66 C
2489 05-03-2011 18:05:02 1.5 C 70 % -3.36 C
2490 05-03-2011 18:17:02 1.5 C 71 % -3.17 C
2491 05-03-2011 18:29:02 1.4 C 72 % -3.08 C
2492 05-03-2011 18:41:01 1.3 C 73 % -2.99 C
2493 05-03-2011 18:53:01 1.1 C 74 % -3 C
2494 05-03-2011 19:05:02 0.8 C 77 % -2.76 C
2495 05-03-2011 19:17:02 0.6 C 78 % -2.78 C
2496 05-03-2011 19:29:02 1.1 C 79 % -2.12 C
2497 05-03-2011 19:41:01 1.5 C 78 % -1.91 C
2498 05-03-2011 19:53:02 1.7 C 76 % -2.07 C
2499 05-03-2011 20:05:01 1.9 C 76 % -1.87 C
2500 05-03-2011 20:17:02 1.9 C 76 % -1.87 C
Sensor: Nr:Datum:Temp:Feuchte:Taupunkt:
Aussen-T/F 2501 05-03-2011 20:29:03 1.5 C 77 % -2.08 C
2502 05-03-2011 20:41:01 1.4 C 78 % -2.01 C
2503 05-03-2011 20:53:02 0.7 C 79 % -2.51 C
2504 05-03-2011 21:05:02 0.1 C 80 % -2.93 C
2505 05-03-2011 21:17:02 -0.6 C 80 % -3.62 C
2506 05-03-2011 21:29:02 -0.2 C 82 % -2.89 C
2507 05-03-2011 21:41:03 -0.6 C 82 % -3.29 C
2508 05-03-2011 21:54:03 -1.2 C 82 % -3.87 C
2509 05-03-2011 22:06:03 -0.9 C 83 % -3.42 C
2510 05-03-2011 22:18:03 -1.2 C 84 % -3.55 C
2511 05-03-2011 22:30:03 -0.9 C 84 % -3.26 C
2512 05-03-2011 22:42:03 -1.4 C 84 % -3.75 C
2513 05-03-2011 22:54:03 -1.7 C 84 % -4.04 C
2514 05-03-2011 23:06:04 -1.6 C 84 % -3.94 C
2515 05-03-2011 23:18:04 -2 C 84 % -4.34 C
2516 05-03-2011 23:30:04 -1.4 C 85 % -3.59 C
2517 05-03-2011 23:42:04 -1.8 C 85 % -3.98 C
2518 05-03-2011 23:54:04 -1.3 C 86 % -3.33 C
2519 06-03-2011 00:06:04 -1.6 C 86 % -3.63 C
2520 06-03-2011 00:18:04 -1.8 C 86 % -3.83 C
2521 06-03-2011 00:30:04 -1.4 C 87 % -3.28 C
2522 06-03-2011 00:42:04 -1.4 C 87 % -3.28 C
2523 06-03-2011 00:54:04 -1.9 C 86 % -3.92 C
2524 06-03-2011 01:06:04 -2.4 C 86 % -4.42 C
2525 06-03-2011 01:18:04 -2.2 C 87 % -4.07 C
Sensor: Nr:Datum:Temp:Feuchte:Taupunkt:
Aussen-T/F 2526 06-03-2011 01:30:04 -2.4 C 87 % -4.26 C
2527 06-03-2011 01:42:04 -1.5 C 88 % -3.22 C
2528 06-03-2011 01:54:04 -1.2 C 88 % -2.93 C
2529 06-03-2011 02:06:04 -0.9 C 89 % -2.48 C
2530 06-03-2011 02:18:04 -0.4 C 89 % -1.99 C
2531 06-03-2011 02:30:04 -0.5 C 89 % -2.09 C
2532 06-03-2011 02:42:04 -0.3 C 88 % -2.04 C
2533 06-03-2011 02:54:04 -0.3 C 88 % -2.04 C
2534 06-03-2011 03:06:04 -0.1 C 88 % -1.84 C
2535 06-03-2011 03:18:05 0 C 88 % -1.74 C
2536 06-03-2011 03:30:05 0 C 87 % -1.9 C
2537 06-03-2011 03:42:05 0 C 87 % -1.9 C
2538 06-03-2011 03:54:05 0 C 87 % -1.9 C
2539 06-03-2011 04:06:05 0.1 C 86 % -1.96 C
2540 06-03-2011 04:18:05 0.1 C 85 % -2.11 C
2541 06-03-2011 04:30:05 0.1 C 83 % -2.44 C
2542 06-03-2011 04:42:05 -0.3 C 80 % -3.32 C
2543 06-03-2011 04:54:05 -0.4 C 78 % -3.76 C
2544 06-03-2011 05:06:05 -0.1 C 75 % -3.99 C
2545 06-03-2011 05:18:05 -1.6 C 74 % -5.62 C
2546 06-03-2011 05:30:05 -1.7 C 76 % -5.36 C
2547 06-03-2011 05:42:05 -2.1 C 77 % -5.58 C
2548 06-03-2011 05:54:05 -2.1 C 78 % -5.41 C
2549 06-03-2011 06:06:05 -2.8 C 79 % -5.93 C
2550 06-03-2011 06:18:05 -3 C 80 % -5.96 C
Sensor: Nr:Datum:Temp:Feuchte:Taupunkt:
Aussen-T/F 2551 06-03-2011 06:30:05 -2.8 C 81 % -5.6 C
2552 06-03-2011 06:42:05 -3 C 82 % -5.63 C
2553 06-03-2011 06:54:05 -2.5 C 83 % -4.98 C
2554 06-03-2011 07:06:05 -1.9 C 83 % -4.4 C
2555 06-03-2011 07:18:05 -1.6 C 81 % -4.43 C
2556 06-03-2011 07:30:06 -1.6 C 79 % -4.76 C
2557 06-03-2011 07:42:06 -2.3 C 78 % -5.61 C
2558 06-03-2011 07:54:06 -2.3 C 78 % -5.61 C
2559 06-03-2011 08:06:04 -1.5 C 79 % -4.66 C
2560 06-03-2011 08:18:03 -0.9 C 77 % -4.42 C
2561 06-03-2011 08:30:03 -0.2 C 74 % -4.26 C
2562 06-03-2011 08:42:04 0.2 C 71 % -4.42 C
2563 06-03-2011 08:54:02 0.7 C 67 % -4.71 C
2564 06-03-2011 09:06:02 1.1 C 63 % -5.14 C
2565 06-03-2011 09:18:02 1.1 C 61 % -5.56 C
2566 06-03-2011 09:30:02 0.8 C 61 % -5.85 C
2567 06-03-2011 09:42:02 1.4 C 59 % -5.72 C
2568 06-03-2011 09:54:01 1.8 C 53 % -6.74 C
2569 06-03-2011 10:06:02 2.1 C 51 % -6.96 C
2570 06-03-2011 10:18:01 2.6 C 49 % -7.02 C
2571 06-03-2011 10:30:01 2 C 49 % -7.57 C
2572 06-03-2011 10:42:01 1.7 C 53 % -6.83 C
2573 06-03-2011 10:54:01 2.3 C 49 % -7.29 C
2574 06-03-2011 11:06:02 2.7 C 47 % -7.46 C
2575 06-03-2011 11:18:01 3.1 C 45 % -7.66 C
Sensor: Nr:Datum:Temp:Feuchte:Taupunkt:
Aussen-T/F 2576 06-03-2011 11:30:01 4.3 C 42 % -7.46 C
2577 06-03-2011 11:42:01 4.6 C 41 % -7.49 C
2578 06-03-2011 11:54:01 4.1 C 40 % -8.26 C
2579 06-03-2011 12:06:01 4.6 C 40 % -7.81 C
2580 06-03-2011 12:18:02 3.8 C 41 % -8.22 C
2581 06-03-2011 12:30:02 5 C 40 % -7.45 C
2582 06-03-2011 12:42:01 7.2 C 33 % -7.97 C
2583 06-03-2011 12:54:02 5.7 C 34 % -8.91 C
2584 06-03-2011 13:06:01 7.8 C 30 % -8.66 C
2585 06-03-2011 13:18:01 5.6 C 32 % -9.77 C
2586 06-03-2011 13:30:01 5.5 C 35 % -8.72 C
2587 06-03-2011 13:42:01 4.9 C 37 % -8.54 C
2588 06-03-2011 13:54:02 5.8 C 34 % -8.82 C
2589 06-03-2011 14:06:02 5.8 C 33 % -9.2 C
2590 06-03-2011 14:18:02 6.9 C 31 % -9.03 C
2591 06-03-2011 14:30:02 6.5 C 30 % -9.8 C
2592 06-03-2011 14:42:01 7 C 28 % -10.23 C
2593 06-03-2011 14:54:02 7.1 C 30 % -9.27 C
2594 06-03-2011 15:06:01 8 C 28 % -9.37 C
2595 06-03-2011 15:18:01 8 C 28 % -9.37 C
2596 06-03-2011 15:30:01 9.2 C 25 % -9.77 C
2597 06-03-2011 15:42:02 8.9 C 21 % -12.2 C
2598 06-03-2011 15:54:02 11.4 C 20 % -10.73 C
2599 06-03-2011 16:06:02 12.6 C 20 % -9.73 C
2600 06-03-2011 16:18:02 12.6 C 20 % -9.73 C
Sensor: Nr:Datum:Temp:Feuchte:Taupunkt:
Aussen-T/F 2601 06-03-2011 16:30:02 13.2 C 20 % -9.24 C
2602 06-03-2011 16:42:02 12.3 C 20 % -9.98 C
2603 06-03-2011 16:54:02 12.6 C 20 % -9.73 C
2604 06-03-2011 17:06:02 11.1 C 20 % -10.98 C
2605 06-03-2011 17:18:02 10.5 C 20 % -11.48 C
2606 06-03-2011 17:30:02 8.6 C 25 % -10.28 C
2607 06-03-2011 17:42:02 7.9 C 33 % -7.35 C
2608 06-03-2011 17:54:01 6.2 C 37 % -7.38 C
2609 06-03-2011 18:06:01 4.3 C 42 % -7.46 C
2610 06-03-2011 18:18:02 2.5 C 50 % -6.85 C
2611 06-03-2011 18:30:02 1.5 C 55 % -6.54 C
2612 06-03-2011 18:42:01 1.2 C 56 % -6.59 C
2613 06-03-2011 18:54:02 0.6 C 59 % -6.47 C
2614 06-03-2011 19:06:02 0.4 C 60 % -6.44 C
2615 06-03-2011 19:18:03 0.2 C 62 % -6.2 C
2616 06-03-2011 19:30:03 0 C 63 % -6.18 C
2617 06-03-2011 19:42:02 -0.2 C 63 % -6.38 C
2618 06-03-2011 19:54:02 -0.2 C 63 % -6.38 C
2619 06-03-2011 20:06:02 -0.2 C 63 % -6.38 C
2620 06-03-2011 20:18:02 -0.5 C 65 % -6.26 C
2621 06-03-2011 20:30:03 -0.5 C 65 % -6.26 C
2622 06-03-2011 20:42:02 -0.5 C 65 % -6.26 C
2623 06-03-2011 20:54:02 -0.9 C 65 % -6.64 C
2624 06-03-2011 21:06:01 -0.9 C 66 % -6.44 C
2625 06-03-2011 21:18:02 -1 C 65 % -6.74 C
Sensor: Nr:Datum:Temp:Feuchte:Taupunkt:
Aussen-T/F 2626 06-03-2011 21:30:02 -1.1 C 66 % -6.63 C
2627 06-03-2011 21:42:02 -1.3 C 66 % -6.82 C
2628 06-03-2011 21:55:03 -1.2 C 66 % -6.73 C
2629 06-03-2011 22:07:03 -1.3 C 65 % -7.02 C
2630 06-03-2011 22:19:03 -1.6 C 66 % -7.11 C
2631 06-03-2011 22:31:03 -1.6 C 67 % -6.91 C
2632 06-03-2011 22:43:03 -1.8 C 67 % -7.11 C
2633 06-03-2011 22:55:03 -1.7 C 67 % -7.01 C
2634 06-03-2011 23:07:03 -2.1 C 67 % -7.39 C
2635 06-03-2011 23:19:03 -2 C 66 % -7.49 C
2636 06-03-2011 23:31:03 -2.1 C 66 % -7.59 C
2637 06-03-2011 23:43:03 -2.2 C 65 % -7.88 C
2638 06-03-2011 23:55:03 -2.1 C 65 % -7.78 C
2639 07-03-2011 00:07:03 -2.2 C 66 % -7.68 C
2640 07-03-2011 00:19:03 -2.3 C 66 % -7.78 C
2641 07-03-2011 00:31:03 -2.3 C 66 % -7.78 C
2642 07-03-2011 00:43:03 -2.5 C 66 % -7.97 C
2643 07-03-2011 00:55:03 -2.8 C 66 % -8.26 C
2644 07-03-2011 01:07:03 -2.9 C 68 % -7.97 C
2645 07-03-2011 01:19:03 -2.7 C 69 % -7.59 C
2646 07-03-2011 01:31:03 -3.1 C 68 % -8.16 C
2647 07-03-2011 01:43:03 -3.3 C 69 % -8.16 C
2648 07-03-2011 01:55:03 -3.1 C 69 % -7.97 C
2649 07-03-2011 02:07:04 -3.4 C 69 % -8.26 C
2650 07-03-2011 02:19:04 -3.6 C 69 % -8.45 C
Sensor: Nr:Datum:Temp:Feuchte:Taupunkt:
Aussen-T/F 2651 07-03-2011 02:31:04 -3.6 C 70 % -8.27 C
2652 07-03-2011 02:43:04 -3.7 C 70 % -8.36 C
2653 07-03-2011 02:55:04 -3.8 C 70 % -8.46 C
2654 07-03-2011 03:07:04 -4.1 C 71 % -8.57 C
2655 07-03-2011 03:19:04 -4.1 C 71 % -8.57 C
2656 07-03-2011 03:31:04 -4.1 C 71 % -8.57 C
2657 07-03-2011 03:43:04 -4.3 C 71 % -8.76 C
2658 07-03-2011 03:55:04 -4.3 C 71 % -8.76 C
2659 07-03-2011 04:07:04 -4.4 C 71 % -8.85 C
2660 07-03-2011 04:19:04 -4.4 C 72 % -8.68 C
2661 07-03-2011 04:31:04 -4.6 C 72 % -8.87 C
2662 07-03-2011 04:43:04 -4.8 C 72 % -9.06 C
2663 07-03-2011 04:55:04 -5 C 72 % -9.25 C
2664 07-03-2011 05:07:04 -4.8 C 72 % -9.06 C
2665 07-03-2011 05:19:04 -4.5 C 72 % -8.77 C
2666 07-03-2011 05:31:04 -4.6 C 72 % -8.87 C
2667 07-03-2011 05:43:04 -4.7 C 71 % -9.14 C
2668 07-03-2011 05:55:04 -4.6 C 71 % -9.05 C
2669 07-03-2011 06:07:05 -4.6 C 70 % -9.23 C
2670 07-03-2011 06:19:05 -4.6 C 71 % -9.05 C
2671 07-03-2011 06:31:05 -4.7 C 70 % -9.32 C
2672 07-03-2011 06:43:05 -4.5 C 69 % -9.31 C
2673 07-03-2011 06:55:05 -4.6 C 68 % -9.6 C
2674 07-03-2011 07:07:05 -4.7 C 69 % -9.51 C
2675 07-03-2011 07:19:05 -4.6 C 68 % -9.6 C
Sensor: Nr:Datum:Temp:Feuchte:Taupunkt:
Aussen-T/F 2676 07-03-2011 07:31:05 -4.7 C 68 % -9.69 C
2677 07-03-2011 07:43:05 -4.7 C 68 % -9.69 C
2678 07-03-2011 07:55:05 -4.4 C 68 % -9.4 C
2679 07-03-2011 08:07:05 -3.9 C 65 % -9.5 C
2680 07-03-2011 08:19:05 -4 C 63 % -9.99 C
2681 07-03-2011 08:31:05 -4 C 64 % -9.79 C
2682 07-03-2011 08:43:05 -3.5 C 62 % -9.72 C
2683 07-03-2011 08:55:05 -3.4 C 61 % -9.83 C
2684 07-03-2011 09:07:04 -3.3 C 61 % -9.73 C
2685 07-03-2011 09:19:03 -3.5 C 60 % -10.13 C
2686 07-03-2011 09:31:03 -2.9 C 61 % -9.36 C
2687 07-03-2011 09:43:03 -2.6 C 60 % -9.28 C
2688 07-03-2011 09:55:01 -2.3 C 59 % -9.21 C
2689 07-03-2011 10:07:02 -1.1 C 57 % -8.52 C
2690 07-03-2011 10:19:01 0.1 C 49 % -9.32 C
2691 07-03-2011 10:31:02 1.3 C 39 % -11.1 C
2692 07-03-2011 10:43:02 2.1 C 30 % -13.63 C
2693 07-03-2011 10:55:01 2.8 C 26 % -14.76 C
2694 07-03-2011 11:07:02 3.6 C 20 % -17.22 C
2695 07-03-2011 11:19:01 4 C 20 % -16.89 C
2696 07-03-2011 11:31:01 4.3 C 20 % -16.64 C
2697 07-03-2011 11:43:01 4.9 C 20 % -16.14 C
2698 07-03-2011 11:55:01 4.6 C 20 % -16.39 C
2699 07-03-2011 12:07:02 5.1 C 20 % -15.97 C
2700 07-03-2011 12:19:02 6 C 20 % -15.22 C
Sensor: Nr:Datum:Temp:Feuchte:Taupunkt:
Aussen-T/F 2701 07-03-2011 12:31:01 8.3 C 20 % -13.31 C
2702 07-03-2011 12:43:01 9.6 C 20 % -12.22 C
2703 07-03-2011 12:55:02 9.7 C 20 % -12.14 C
2704 07-03-2011 13:07:01 9.8 C 20 % -12.06 C
2705 07-03-2011 13:19:01 9.3 C 20 % -12.47 C
2706 07-03-2011 13:31:01 8 C 20 % -13.56 C
2707 07-03-2011 13:43:01 7.1 C 20 % -14.3 C
2708 07-03-2011 13:55:02 7.3 C 20 % -14.14 C
2709 07-03-2011 14:07:02 7.5 C 20 % -13.97 C
2710 07-03-2011 14:19:02 8.7 C 20 % -12.97 C
2711 07-03-2011 14:31:02 8.4 C 20 % -13.22 C
2712 07-03-2011 14:43:02 8.7 C 20 % -12.97 C
2713 07-03-2011 14:55:02 8.5 C 20 % -13.14 C
2714 07-03-2011 15:07:01 9.5 C 20 % -12.31 C
2715 07-03-2011 15:19:02 10.5 C 20 % -11.48 C
2716 07-03-2011 15:31:01 10.2 C 20 % -11.73 C
2717 07-03-2011 15:43:01 11.1 C 20 % -10.98 C
2718 07-03-2011 15:55:02 13.7 C 20 % -8.82 C
2719 07-03-2011 16:07:02 13.3 C 20 % -9.15 C
2720 07-03-2011 16:19:02 14.6 C 20 % -8.08 C
2721 07-03-2011 16:31:02 14.3 C 20 % -8.33 C
2722 07-03-2011 16:43:02 12 C 20 % -10.23 C
2723 07-03-2011 16:55:02 14 C 20 % -8.57 C
2724 07-03-2011 17:07:01 12.9 C 20 % -9.49 C
2725 07-03-2011 17:19:01 11.8 C 20 % -10.4 C
Sensor: Nr:Datum:Temp:Feuchte:Taupunkt:
Aussen-T/F 2726 07-03-2011 17:31:02 10.4 C 20 % -11.56 C
2727 07-03-2011 17:43:02 9.6 C 20 % -12.22 C
2728 07-03-2011 17:55:02 7.4 C 20 % -14.05 C
2729 07-03-2011 18:07:02 5.6 C 20 % -15.55 C
2730 07-03-2011 18:19:02 2.7 C 32 % -12.31 C
2731 07-03-2011 18:31:02 1.9 C 37 % -11.22 C
2732 07-03-2011 18:43:02 1.3 C 41 % -10.47 C
2733 07-03-2011 18:55:02 0.7 C 41 % -11.02 C
2734 07-03-2011 19:07:02 0.9 C 43 % -10.24 C
2735 07-03-2011 19:19:02 0.6 C 43 % -10.51 C
2736 07-03-2011 19:31:02 0.3 C 45 % -10.21 C
2737 07-03-2011 19:43:02 0.2 C 43 % -10.87 C
2738 07-03-2011 19:55:02 0 C 45 % -10.49 C
2739 07-03-2011 20:07:02 -0.5 C 46 % -10.69 C
2740 07-03-2011 20:19:01 -0.5 C 46 % -10.69 C
2741 07-03-2011 20:31:02 -0.4 C 45 % -10.87 C
2742 07-03-2011 20:43:02 -0.5 C 45 % -10.96 C
2743 07-03-2011 20:55:01 -0.3 C 47 % -10.23 C
2744 07-03-2011 21:07:02 -0.2 C 45 % -10.69 C
2745 07-03-2011 21:20:03 -0.4 C 46 % -10.59 C
2746 07-03-2011 21:32:03 -0.4 C 45 % -10.87 C
2747 07-03-2011 21:44:03 -0.5 C 46 % -10.69 C
2748 07-03-2011 21:56:03 -0.4 C 45 % -10.87 C
2749 07-03-2011 22:08:03 -1.2 C 47 % -11.06 C
2750 07-03-2011 22:20:03 -1.2 C 48 % -10.79 C
Sensor: Nr:Datum:Temp:Feuchte:Taupunkt:
Aussen-T/F 2751 07-03-2011 22:32:03 -1.4 C 48 % -10.98 C
2752 07-03-2011 22:44:03 -1.3 C 48 % -10.89 C
2753 07-03-2011 22:56:03 -1.3 C 48 % -10.89 C
2754 07-03-2011 23:08:03 -1.6 C 50 % -10.65 C
2755 07-03-2011 23:20:03 -1.2 C 47 % -11.06 C
2756 07-03-2011 23:32:03 -1.8 C 50 % -10.84 C
2757 07-03-2011 23:44:03 -2.2 C 50 % -11.21 C
2758 07-03-2011 23:56:03 -1.9 C 52 % -10.44 C
2759 08-03-2011 00:08:03 -2.7 C 52 % -11.18 C
2760 08-03-2011 00:20:03 -3.1 C 55 % -10.85 C
2761 08-03-2011 00:32:04 -3.4 C 57 % -10.68 C
2762 08-03-2011 00:44:04 -3.7 C 55 % -11.41 C
2763 08-03-2011 00:56:04 -4.2 C 55 % -11.88 C
2764 08-03-2011 01:08:04 -4.6 C 56 % -12.03 C
2765 08-03-2011 01:20:04 -4.4 C 58 % -11.41 C
2766 08-03-2011 01:32:04 -4.1 C 61 % -10.49 C
2767 08-03-2011 01:44:04 -4.2 C 60 % -10.79 C
2768 08-03-2011 01:56:04 -4.7 C 60 % -11.27 C
2769 08-03-2011 02:08:04 -4.8 C 58 % -11.78 C
2770 08-03-2011 02:20:04 -4.8 C 59 % -11.57 C
2771 08-03-2011 02:32:04 -5.1 C 59 % -11.85 C
2772 08-03-2011 02:44:04 -5.2 C 60 % -11.74 C
2773 08-03-2011 02:56:04 -5.3 C 60 % -11.83 C
2774 08-03-2011 03:08:04 -5.1 C 61 % -11.44 C
2775 08-03-2011 03:20:04 -5.8 C 62 % -11.9 C
Sensor: Nr:Datum:Temp:Feuchte:Taupunkt:
Aussen-T/F 2776 08-03-2011 03:32:04 -6.1 C 63 % -11.99 C
2777 08-03-2011 03:44:04 -6.3 C 63 % -12.18 C
2778 08-03-2011 03:56:04 -6.2 C 65 % -11.69 C
2779 08-03-2011 04:08:04 -6.3 C 66 % -11.6 C
2780 08-03-2011 04:20:04 -6.3 C 67 % -11.41 C
2781 08-03-2011 04:32:05 -6.3 C 67 % -11.41 C
2782 08-03-2011 04:44:05 -6.2 C 67 % -11.31 C
2783 08-03-2011 04:56:05 -6.1 C 66 % -11.41 C
2784 08-03-2011 05:08:05 -6 C 63 % -11.89 C
2785 08-03-2011 05:20:05 -5.2 C 63 % -11.13 C
2786 08-03-2011 05:32:05 -6 C 63 % -11.89 C
2787 08-03-2011 05:44:05 -6.3 C 64 % -11.98 C
2788 08-03-2011 05:56:05 -5.3 C 64 % -11.03 C
2789 08-03-2011 06:08:05 -6 C 62 % -12.09 C
2790 08-03-2011 06:20:05 -6 C 63 % -11.89 C
2791 08-03-2011 06:32:05 -6.3 C 64 % -11.98 C
2792 08-03-2011 06:44:05 -6.7 C 65 % -12.17 C
2793 08-03-2011 06:56:05 -6.8 C 66 % -12.08 C
2794 08-03-2011 07:08:05 -6.9 C 66 % -12.17 C
2795 08-03-2011 07:20:05 -6 C 67 % -11.12 C
2796 08-03-2011 07:32:02 -6.1 C 66 % -11.41 C
2797 08-03-2011 07:44:02 -5.5 C 67 % -10.64 C
2798 08-03-2011 07:56:02 -5.4 C 65 % -10.93 C
2799 08-03-2011 08:08:02 -5.5 C 65 % -11.02 C
2800 08-03-2011 08:20:02 -5.3 C 65 % -10.83 C
Sensor: Nr:Datum:Temp:Feuchte:Taupunkt:
Aussen-T/F 2801 08-03-2011 08:32:02 -5.2 C 65 % -10.74 C
2802 08-03-2011 08:44:02 -4.8 C 65 % -10.36 C
2803 08-03-2011 08:56:02 -4.6 C 65 % -10.17 C
2804 08-03-2011 09:08:01 -4.4 C 62 % -10.57 C
2805 08-03-2011 09:20:01 -4.1 C 61 % -10.49 C
2806 08-03-2011 09:32:02 -3.7 C 63 % -9.71 C
2807 08-03-2011 09:44:02 -3.1 C 63 % -9.14 C
2808 08-03-2011 09:56:02 -2.5 C 61 % -8.98 C
2809 08-03-2011 10:08:02 -1.7 C 57 % -9.09 C
2810 08-03-2011 10:20:02 -0.2 C 55 % -8.14 C
2811 08-03-2011 10:32:01 0.3 C 49 % -9.14 C
2812 08-03-2011 10:44:01 0.9 C 47 % -9.11 C
2813 08-03-2011 10:56:01 2.4 C 40 % -9.79 C
2814 08-03-2011 11:08:01 3.2 C 42 % -8.45 C
2815 08-03-2011 11:20:01 3.2 C 39 % -9.39 C
2816 08-03-2011 11:32:01 4.1 C 34 % -10.32 C
2817 08-03-2011 11:44:01 6.4 C 31 % -9.47 C
2818 08-03-2011 11:56:02 5.6 C 32 % -9.77 C
2819 08-03-2011 12:08:02 6.1 C 27 % -11.46 C
2820 08-03-2011 12:20:01 7.1 C 28 % -10.15 C
2821 08-03-2011 12:32:01 9.2 C 20 % -12.56 C
2822 08-03-2011 12:44:01 10.8 C 20 % -11.23 C
2823 08-03-2011 12:56:01 12.2 C 20 % -10.07 C
2824 08-03-2011 13:08:02 11.1 C 20 % -10.98 C
2825 08-03-2011 13:20:01 11.4 C 20 % -10.73 C
Sensor: Nr:Datum:Temp:Feuchte:Taupunkt:
Aussen-T/F 2826 08-03-2011 13:32:01 11.1 C 20 % -10.98 C
2827 08-03-2011 13:44:01 10 C 20 % -11.89 C
2828 08-03-2011 13:56:01 10.5 C 21 % -10.87 C
2829 08-03-2011 14:08:01 11.8 C 23 % -8.63 C
2830 08-03-2011 14:20:02 11.7 C 20 % -10.48 C
2831 08-03-2011 14:32:01 12.3 C 20 % -9.98 C
2832 08-03-2011 14:44:01 12.9 C 20 % -9.49 C
2833 08-03-2011 14:56:02 12.7 C 25 % -6.79 C
2834 08-03-2011 15:08:02 12.9 C 23 % -7.7 C
2835 08-03-2011 15:20:02 13.9 C 21 % -8.03 C
2836 08-03-2011 15:32:02 13.6 C 20 % -8.91 C
2837 08-03-2011 15:44:02 14.2 C 20 % -8.41 C
2838 08-03-2011 15:56:02 15.2 C 20 % -7.58 C
2839 08-03-2011 16:08:01 15.7 C 20 % -7.17 C
2840 08-03-2011 16:20:02 14.6 C 20 % -8.08 C
2841 08-03-2011 16:32:02 14.9 C 20 % -7.83 C
2842 08-03-2011 16:44:02 15.2 C 20 % -7.58 C
2843 08-03-2011 16:56:02 14.8 C 20 % -7.91 C
2844 08-03-2011 17:08:02 13.9 C 24 % -6.31 C
2845 08-03-2011 17:20:02 13.1 C 25 % -6.45 C
2846 08-03-2011 17:32:02 12.2 C 28 % -5.75 C
2847 08-03-2011 17:44:02 10.3 C 34 % -4.85 C
2848 08-03-2011 17:56:01 10.3 C 34 % -4.85 C
2849 08-03-2011 18:08:02 10.3 C 34 % -4.85 C
2850 08-03-2011 18:20:01 6.9 C 46 % -3.9 C
Sensor: Nr:Datum:Temp:Feuchte:Taupunkt:
Aussen-T/F 2851 08-03-2011 18:32:02 6.2 C 49 % -3.7 C
2852 08-03-2011 18:44:02 6.2 C 49 % -3.7 C
2853 08-03-2011 18:56:02 6.2 C 49 % -3.7 C
2854 08-03-2011 19:08:02 6.2 C 49 % -3.7 C
2855 08-03-2011 19:20:01 6.2 C 49 % -3.7 C
2856 08-03-2011 19:32:02 6.2 C 49 % -3.7 C
2857 08-03-2011 19:44:02 4.6 C 62 % -2.04 C
2858 08-03-2011 19:56:01 4.2 C 64 % -1.99 C
2859 08-03-2011 20:08:02 3.8 C 67 % -1.75 C
2860 08-03-2011 20:20:02 3.5 C 69 % -1.64 C
2861 08-03-2011 20:32:02 3.5 C 71 % -1.25 C
2862 08-03-2011 20:44:02 2.9 C 73 % -1.45 C
2863 08-03-2011 20:56:02 2.8 C 74 % -1.36 C
2864 08-03-2011 21:08:01 2.2 C 73 % -2.13 C
2865 08-03-2011 21:21:04 1.8 C 75 % -2.15 C
2866 08-03-2011 21:33:04 1.9 C 77 % -1.69 C
2867 08-03-2011 21:45:04 1.8 C 79 % -1.44 C
2868 08-03-2011 21:57:04 1.8 C 80 % -1.27 C
2869 08-03-2011 22:09:04 1.3 C 80 % -1.76 C
2870 08-03-2011 22:21:04 1.6 C 81 % -1.3 C
2871 08-03-2011 22:33:04 1.6 C 82 % -1.13 C
2872 08-03-2011 22:45:05 1.3 C 82 % -1.43 C
2873 08-03-2011 22:57:05 1 C 82 % -1.72 C
2874 08-03-2011 23:09:05 1.1 C 83 % -1.46 C
2875 08-03-2011 23:21:05 1 C 83 % -1.55 C
Sensor: Nr:Datum:Temp:Feuchte:Taupunkt:
Aussen-T/F 2876 08-03-2011 23:33:05 1.1 C 84 % -1.29 C
2877 08-03-2011 23:45:05 0.5 C 84 % -1.88 C
2878 08-03-2011 23:57:05 0.2 C 84 % -2.18 C
2879 09-03-2011 00:09:05 0 C 85 % -2.21 C
2880 09-03-2011 00:21:05 -0.4 C 85 % -2.61 C
2881 09-03-2011 00:33:05 -0.6 C 85 % -2.8 C
2882 09-03-2011 00:45:05 -0.7 C 85 % -2.9 C
2883 09-03-2011 00:57:05 -0.6 C 86 % -2.65 C
2884 09-03-2011 01:09:05 -0.5 C 87 % -2.39 C
2885 09-03-2011 01:21:05 -0.4 C 87 % -2.29 C
2886 09-03-2011 01:33:05 -0.7 C 87 % -2.59 C
2887 09-03-2011 01:45:05 -0.9 C 87 % -2.79 C
2888 09-03-2011 01:57:05 -0.9 C 87 % -2.79 C
2889 09-03-2011 02:09:05 0 C 88 % -1.74 C
2890 09-03-2011 02:21:05 1.6 C 89 % -0.01 C
2891 09-03-2011 02:33:05 0.4 C 89 % -1.2 C
2892 09-03-2011 02:45:06 0.2 C 89 % -1.39 C
2893 09-03-2011 02:57:06 1.5 C 89 % -0.11 C
2894 09-03-2011 03:09:06 2.3 C 89 % 0.68 C
2895 09-03-2011 03:21:06 2.3 C 88 % 0.52 C
2896 09-03-2011 03:33:06 2.9 C 86 % 0.8 C
2897 09-03-2011 03:45:06 2.7 C 83 % 0.11 C
2898 09-03-2011 03:57:06 3.7 C 79 % 0.4 C
2899 09-03-2011 04:09:06 3.5 C 74 % -0.69 C
2900 09-03-2011 04:21:06 3.1 C 73 % -1.26 C
Sensor: Nr:Datum:Temp:Feuchte:Taupunkt:
Aussen-T/F 2901 09-03-2011 04:33:06 3.1 C 74 % -1.07 C
2902 09-03-2011 04:45:06 3.6 C 74 % -0.59 C
2903 09-03-2011 04:57:06 3 C 74 % -1.17 C
2904 09-03-2011 05:09:06 2.6 C 76 % -1.19 C
2905 09-03-2011 05:21:06 3.1 C 75 % -0.89 C
2906 09-03-2011 05:33:06 2.5 C 75 % -1.47 C
2907 09-03-2011 05:45:06 2.4 C 77 % -1.21 C
2908 09-03-2011 05:57:06 1.6 C 79 % -1.64 C
2909 09-03-2011 06:09:06 2.2 C 81 % -0.71 C
2910 09-03-2011 06:21:06 2.1 C 79 % -1.15 C
2911 09-03-2011 06:33:06 2.6 C 78 % -0.84 C
2912 09-03-2011 06:45:06 2.7 C 76 % -1.1 C
2913 09-03-2011 06:57:07 2.2 C 77 % -1.4 C
2914 09-03-2011 07:09:07 2.5 C 77 % -1.11 C
2915 09-03-2011 07:21:03 2.8 C 77 % -0.82 C
2916 09-03-2011 07:33:03 3 C 74 % -1.17 C
2917 09-03-2011 07:45:01 3.3 C 73 % -1.06 C
2918 09-03-2011 07:57:01 3.4 C 72 % -1.16 C
2919 09-03-2011 08:09:01 2.7 C 74 % -1.46 C
2920 09-03-2011 08:21:01 2.8 C 74 % -1.36 C
2921 09-03-2011 08:33:02 3.6 C 73 % -0.78 C
2922 09-03-2011 08:45:01 4.5 C 69 % -0.68 C
2923 09-03-2011 08:57:01 5.2 C 64 % -1.04 C
2924 09-03-2011 09:09:02 6.4 C 60 % -0.78 C
2925 09-03-2011 09:21:01 7.8 C 53 % -1.17 C
Sensor: Nr:Datum:Temp:Feuchte:Taupunkt:
Aussen-T/F 2926 09-03-2011 09:33:02 8.2 C 49 % -1.86 C
2927 09-03-2011 09:45:01 8.5 C 48 % -1.86 C
2928 09-03-2011 09:57:01 8.9 C 47 % -1.78 C
2929 09-03-2011 10:09:02 9 C 46 % -1.98 C
2930 09-03-2011 10:21:02 9.2 C 46 % -1.8 C
2931 09-03-2011 10:33:01 9 C 46 % -1.98 C
2932 09-03-2011 10:45:02 9.3 C 47 % -1.42 C
2933 09-03-2011 10:57:02 9.5 C 47 % -1.23 C
2934 09-03-2011 11:09:01 9.6 C 49 % -0.57 C
2935 09-03-2011 11:21:02 9.9 C 49 % -0.3 C
2936 09-03-2011 11:33:01 10.4 C 48 % -0.12 C
2937 09-03-2011 11:45:02 10.2 C 47 % -0.59 C
2938 09-03-2011 11:57:02 10 C 48 % -0.49 C
2939 09-03-2011 12:09:02 9.8 C 49 % -0.39 C
2940 09-03-2011 12:21:02 9.8 C 49 % -0.39 C
2941 09-03-2011 12:33:02 9.8 C 50 % -0.11 C
2942 09-03-2011 12:45:01 10.1 C 49 % -0.11 C
2943 09-03-2011 12:57:01 10.4 C 49 % 0.16 C
2944 09-03-2011 13:09:02 11.2 C 46 % 0.02 C
2945 09-03-2011 13:21:01 11 C 46 % -0.16 C
2946 09-03-2011 13:33:02 11.7 C 45 % 0.18 C
2947 09-03-2011 13:45:02 11.4 C 41 % -1.37 C
2948 09-03-2011 13:57:02 11.6 C 40 % -1.52 C
2949 09-03-2011 14:09:02 12.1 C 39 % -1.42 C
2950 09-03-2011 14:21:02 11.8 C 40 % -1.34 C
Sensor: Nr:Datum:Temp:Feuchte:Taupunkt:
Aussen-T/F 2951 09-03-2011 14:33:02 11.6 C 39 % -1.86 C
2952 09-03-2011 14:45:02 11.8 C 38 % -2.04 C
2953 09-03-2011 14:57:02 11.7 C 36 % -2.85 C
2954 09-03-2011 15:09:02 11.6 C 36 % -2.94 C
2955 09-03-2011 15:21:02 11.2 C 36 % -3.3 C
2956 09-03-2011 15:33:02 11.3 C 36 % -3.21 C
2957 09-03-2011 15:45:02 11.3 C 37 % -2.84 C
2958 09-03-2011 15:57:02 11.2 C 37 % -2.93 C
2959 09-03-2011 16:09:02 11.1 C 38 % -2.66 C
2960 09-03-2011 16:21:02 10.9 C 39 % -2.49 C
2961 09-03-2011 16:33:02 10.7 C 39 % -2.67 C
2962 09-03-2011 16:45:02 10.7 C 38 % -3.02 C
2963 09-03-2011 16:57:02 10.6 C 38 % -3.11 C
2964 09-03-2011 17:09:02 10.4 C 42 % -1.94 C
2965 09-03-2011 17:21:02 10.3 C 44 % -1.4 C
2966 09-03-2011 17:33:02 10.2 C 46 % -0.89 C
2967 09-03-2011 17:45:02 10 C 47 % -0.78 C
2968 09-03-2011 17:57:02 9.7 C 50 % -0.21 C
2969 09-03-2011 18:09:01 9.7 C 50 % -0.21 C
2970 09-03-2011 18:21:02 9.6 C 50 % -0.3 C
2971 09-03-2011 18:33:01 9.3 C 52 % -0.04 C
2972 09-03-2011 18:45:01 8.8 C 54 % 0.02 C
2973 09-03-2011 18:57:02 9 C 54 % 0.2 C
2974 09-03-2011 19:09:01 8.9 C 55 % 0.36 C
2975 09-03-2011 19:21:01 9.3 C 53 % 0.23 C
Sensor: Nr:Datum:Temp:Feuchte:Taupunkt:
Aussen-T/F 2976 09-03-2011 19:33:02 9 C 53 % -0.05 C
2977 09-03-2011 19:45:02 8.4 C 57 % 0.39 C
2978 09-03-2011 19:57:02 8.2 C 58 % 0.44 C
2979 09-03-2011 20:09:02 8.2 C 59 % 0.68 C
2980 09-03-2011 20:21:01 8.2 C 58 % 0.44 C
2981 09-03-2011 20:33:02 8 C 59 % 0.49 C
2982 09-03-2011 20:45:02 8.1 C 58 % 0.35 C
2983 09-03-2011 20:57:02 7.9 C 60 % 0.63 C
2984 09-03-2011 21:09:02 8 C 58 % 0.25 C
2985 09-03-2011 21:21:02 7.9 C 59 % 0.4 C
2986 09-03-2011 21:33:02 7.6 C 61 % 0.57 C
2987 09-03-2011 21:46:04 7.2 C 62 % 0.42 C
2988 09-03-2011 21:58:04 7.6 C 62 % 0.8 C
2989 09-03-2011 22:10:04 7.6 C 62 % 0.8 C
2990 09-03-2011 22:22:04 7.1 C 63 % 0.55 C
2991 09-03-2011 22:34:04 6.5 C 67 % 0.83 C
2992 09-03-2011 22:46:04 6 C 69 % 0.76 C
2993 09-03-2011 22:58:04 6 C 71 % 1.15 C
2994 09-03-2011 23:10:04 5.1 C 73 % 0.67 C
2995 09-03-2011 23:22:04 4.9 C 76 % 1.03 C
2996 09-03-2011 23:34:04 5 C 75 % 0.95 C
2997 09-03-2011 23:46:04 6 C 72 % 1.35 C
2998 09-03-2011 23:58:04 6 C 68 % 0.55 C
2999 10-03-2011 00:10:04 5.5 C 69 % 0.28 C
3000 10-03-2011 00:22:04 5.9 C 69 % 0.66 C
Sensor: Nr:Datum:Temp:Feuchte:Taupunkt:
Aussen-T/F 3001 10-03-2011 00:34:04 6.1 C 67 % 0.44 C
3002 10-03-2011 00:46:04 5.4 C 68 % -0.02 C
3003 10-03-2011 00:58:04 4.9 C 71 % 0.09 C
3004 10-03-2011 01:10:05 5.2 C 71 % 0.38 C
3005 10-03-2011 01:22:05 5.4 C 70 % 0.38 C
3006 10-03-2011 01:34:05 5.2 C 70 % 0.19 C
3007 10-03-2011 01:46:05 5.4 C 69 % 0.18 C
3008 10-03-2011 01:58:05 5.2 C 70 % 0.19 C
3009 10-03-2011 02:10:05 5.3 C 70 % 0.28 C
3010 10-03-2011 02:22:05 4.9 C 71 % 0.09 C
3011 10-03-2011 02:34:05 4 C 73 % -0.39 C
3012 10-03-2011 02:46:05 3.8 C 77 % 0.15 C
3013 10-03-2011 02:58:05 4.1 C 77 % 0.44 C
3014 10-03-2011 03:10:05 4.7 C 73 % 0.28 C
3015 10-03-2011 03:22:05 5.4 C 66 % -0.43 C
3016 10-03-2011 03:34:05 5.7 C 64 % -0.56 C
3017 10-03-2011 03:46:05 5.5 C 65 % -0.54 C
3018 10-03-2011 03:58:05 4.5 C 68 % -0.88 C
3019 10-03-2011 04:10:05 4.5 C 69 % -0.68 C
3020 10-03-2011 04:22:05 4 C 71 % -0.77 C
3021 10-03-2011 04:34:05 5.2 C 70 % 0.19 C
3022 10-03-2011 04:46:05 4.9 C 71 % 0.09 C
3023 10-03-2011 04:58:05 4.5 C 69 % -0.68 C
3024 10-03-2011 05:10:05 5 C 68 % -0.4 C
3025 10-03-2011 05:22:06 5.1 C 67 % -0.51 C
Sensor: Nr:Datum:Temp:Feuchte:Taupunkt:
Aussen-T/F 3026 10-03-2011 05:34:06 4.6 C 69 % -0.58 C
3027 10-03-2011 05:46:06 5 C 68 % -0.4 C
3028 10-03-2011 05:58:06 5 C 68 % -0.4 C
3029 10-03-2011 06:10:06 4.7 C 72 % 0.09 C
3030 10-03-2011 06:22:06 4.6 C 72 % 0 C
3031 10-03-2011 06:34:06 4.6 C 71 % -0.19 C
3032 10-03-2011 06:46:06 4.5 C 71 % -0.29 C
3033 10-03-2011 06:58:06 4.6 C 71 % -0.19 C
3034 10-03-2011 07:10:06 4.6 C 71 % -0.19 C
3035 10-03-2011 07:22:03 4.4 C 72 % -0.19 C
3036 10-03-2011 07:34:04 4.6 C 72 % 0 C
3037 10-03-2011 07:46:02 4.5 C 71 % -0.29 C
3038 10-03-2011 07:58:02 5.2 C 67 % -0.41 C
3039 10-03-2011 08:10:02 5.4 C 66 % -0.43 C
3040 10-03-2011 08:22:02 5.7 C 65 % -0.35 C
3041 10-03-2011 08:34:02 5.9 C 64 % -0.38 C
3042 10-03-2011 08:46:01 6.1 C 63 % -0.4 C
3043 10-03-2011 08:58:01 6.3 C 61 % -0.65 C
3044 10-03-2011 09:10:02 6.7 C 60 % -0.5 C
3045 10-03-2011 09:22:01 6.8 C 58 % -0.87 C
3046 10-03-2011 09:34:02 7 C 57 % -0.92 C
3047 10-03-2011 09:46:02 7 C 56 % -1.16 C
3048 10-03-2011 09:58:02 7.2 C 56 % -0.98 C
3049 10-03-2011 10:10:02 7.6 C 54 % -1.1 C
3050 10-03-2011 10:22:01 7.8 C 52 % -1.43 C
Sensor: Nr:Datum:Temp:Feuchte:Taupunkt:
Aussen-T/F 3051 10-03-2011 10:34:02 8.1 C 52 % -1.15 C
3052 10-03-2011 10:46:02 8.2 C 51 % -1.32 C
3053 10-03-2011 10:58:02 8.6 C 50 % -1.22 C
3054 10-03-2011 11:10:02 8.4 C 50 % -1.4 C
3055 10-03-2011 11:22:01 8.5 C 50 % -1.31 C
3056 10-03-2011 11:34:02 9 C 49 % -1.13 C
3057 10-03-2011 11:46:01 9.2 C 47 % -1.51 C
3058 10-03-2011 11:58:01 9.5 C 47 % -1.23 C
3059 10-03-2011 12:10:02 9.3 C 46 % -1.71 C
3060 10-03-2011 12:22:02 10 C 45 % -1.37 C
3061 10-03-2011 12:34:01 9.3 C 45 % -2.01 C
3062 10-03-2011 12:46:02 9.8 C 46 % -1.25 C
3063 10-03-2011 12:58:02 10 C 45 % -1.37 C
3064 10-03-2011 13:10:01 9.8 C 42 % -2.48 C
3065 10-03-2011 13:22:02 9.8 C 42 % -2.48 C
3066 10-03-2011 13:34:01 9.9 C 42 % -2.39 C
3067 10-03-2011 13:46:02 9.7 C 41 % -2.9 C
3068 10-03-2011 13:58:03 10.3 C 41 % -2.36 C
3069 10-03-2011 14:10:02 9.9 C 43 % -2.08 C
3070 10-03-2011 14:22:02 9 C 45 % -2.28 C
3071 10-03-2011 14:34:02 9.1 C 45 % -2.19 C
3072 10-03-2011 14:46:02 9.1 C 45 % -2.19 C
3073 10-03-2011 14:58:02 9 C 46 % -1.98 C
3074 10-03-2011 15:10:01 8.6 C 47 % -2.06 C
3075 10-03-2011 15:22:02 8.5 C 48 % -1.86 C
Sensor: Nr:Datum:Temp:Feuchte:Taupunkt:
Aussen-T/F 3076 10-03-2011 15:34:02 8.5 C 48 % -1.86 C
3077 10-03-2011 15:46:02 8.5 C 47 % -2.15 C
3078 10-03-2011 15:58:02 8.5 C 47 % -2.15 C
3079 10-03-2011 16:10:03 8.6 C 48 % -1.77 C
3080 10-03-2011 16:22:02 8.4 C 48 % -1.96 C
3081 10-03-2011 16:34:02 8.2 C 50 % -1.59 C
3082 10-03-2011 16:46:01 8.1 C 51 % -1.41 C
3083 10-03-2011 16:58:01 8.2 C 51 % -1.32 C
3084 10-03-2011 17:10:02 8.2 C 51 % -1.32 C
3085 10-03-2011 17:22:01 8.2 C 51 % -1.32 C
3086 10-03-2011 17:34:02 8.2 C 51 % -1.32 C
3087 10-03-2011 17:46:01 8.1 C 52 % -1.15 C
3088 10-03-2011 17:58:01 8.2 C 52 % -1.05 C
3089 10-03-2011 18:10:02 8.3 C 52 % -0.96 C
3090 10-03-2011 18:22:01 8.3 C 52 % -0.96 C
3091 10-03-2011 18:34:01 8.3 C 52 % -0.96 C
3092 10-03-2011 18:46:01 8.5 C 52 % -0.78 C
3093 10-03-2011 18:58:01 8.6 C 52 % -0.68 C
3094 10-03-2011 19:10:02 8.6 C 52 % -0.68 C
3095 10-03-2011 19:22:02 8.9 C 51 % -0.67 C
3096 10-03-2011 19:34:01 8.8 C 51 % -0.76 C
3097 10-03-2011 19:46:02 8.9 C 51 % -0.67 C
3098 10-03-2011 19:58:02 9 C 50 % -0.85 C
3099 10-03-2011 20:10:01 8.9 C 51 % -0.67 C
3100 10-03-2011 20:22:02 8.7 C 52 % -0.59 C
Sensor: Nr:Datum:Temp:Feuchte:Taupunkt:
Aussen-T/F 3101 10-03-2011 20:34:01 8.9 C 52 % -0.41 C
3102 10-03-2011 20:46:02 8.9 C 52 % -0.41 C
3103 10-03-2011 20:58:02 8.9 C 53 % -0.15 C
3104 10-03-2011 21:10:02 8.7 C 54 % -0.07 C
3105 10-03-2011 21:22:02 8.8 C 54 % 0.02 C
3106 10-03-2011 21:34:03 8.3 C 57 % 0.3 C
3107 10-03-2011 21:46:02 8.4 C 58 % 0.63 C
3108 10-03-2011 21:58:02 8.5 C 57 % 0.48 C
3109 10-03-2011 22:10:01 8.8 C 55 % 0.27 C
3110 10-03-2011 22:23:03 8.7 C 56 % 0.43 C
3111 10-03-2011 22:35:03 8.8 C 55 % 0.27 C
3112 10-03-2011 22:47:03 8.9 C 56 % 0.61 C
3113 10-03-2011 22:59:03 8.7 C 56 % 0.43 C
3114 10-03-2011 23:11:03 8.9 C 55 % 0.36 C
3115 10-03-2011 23:23:03 8.9 C 55 % 0.36 C
3116 10-03-2011 23:35:03 9 C 54 % 0.2 C
3117 10-03-2011 23:47:03 8.9 C 55 % 0.36 C
3118 10-03-2011 23:59:03 9 C 55 % 0.46 C
3119 11-03-2011 00:11:03 8.8 C 56 % 0.52 C
3120 11-03-2011 00:23:03 8.8 C 56 % 0.52 C
3121 11-03-2011 00:35:03 8.9 C 56 % 0.61 C
3122 11-03-2011 00:47:04 8.8 C 57 % 0.76 C
3123 11-03-2011 00:59:04 8.8 C 57 % 0.76 C
3124 11-03-2011 01:11:04 8.7 C 57 % 0.67 C
3125 11-03-2011 01:23:04 8.7 C 57 % 0.67 C
Sensor: Nr:Datum:Temp:Feuchte:Taupunkt:
Aussen-T/F 3126 11-03-2011 01:35:04 8.7 C 58 % 0.91 C
3127 11-03-2011 01:47:04 8.6 C 58 % 0.82 C
3128 11-03-2011 01:59:04 8.7 C 58 % 0.91 C
3129 11-03-2011 02:11:04 8.6 C 58 % 0.82 C
3130 11-03-2011 02:23:04 8.6 C 59 % 1.05 C
3131 11-03-2011 02:35:04 8.6 C 59 % 1.05 C
3132 11-03-2011 02:47:04 8.6 C 59 % 1.05 C
3133 11-03-2011 02:59:04 8.6 C 59 % 1.05 C
3134 11-03-2011 03:11:04 8.5 C 59 % 0.96 C
3135 11-03-2011 03:23:04 8.7 C 59 % 1.15 C
3136 11-03-2011 03:35:04 8.5 C 60 % 1.19 C
3137 11-03-2011 03:47:04 8.3 C 61 % 1.23 C
3138 11-03-2011 03:59:04 8.4 C 63 % 1.78 C
3139 11-03-2011 04:11:04 8.4 C 62 % 1.55 C
3140 11-03-2011 04:23:04 8.2 C 62 % 1.37 C
3141 11-03-2011 04:35:04 8.2 C 64 % 1.81 C
3142 11-03-2011 04:47:05 8.2 C 64 % 1.81 C
3143 11-03-2011 04:59:05 8.1 C 64 % 1.71 C
3144 11-03-2011 05:11:05 8.2 C 63 % 1.59 C
3145 11-03-2011 05:23:05 8.6 C 61 % 1.52 C
3146 11-03-2011 05:35:05 8.5 C 61 % 1.42 C
3147 11-03-2011 05:47:05 8.5 C 61 % 1.42 C
3148 11-03-2011 05:59:05 8.2 C 61 % 1.14 C
3149 11-03-2011 06:11:05 7.8 C 65 % 1.64 C
3150 11-03-2011 06:23:05 7.8 C 65 % 1.64 C
Sensor: Nr:Datum:Temp:Feuchte:Taupunkt:
Aussen-T/F 3151 11-03-2011 06:35:05 8.5 C 62 % 1.65 C
3152 11-03-2011 06:47:05 8.4 C 61 % 1.33 C
3153 11-03-2011 06:59:05 8.4 C 60 % 1.1 C
3154 11-03-2011 07:11:05 8.4 C 60 % 1.1 C
3155 11-03-2011 07:23:02 8.7 C 59 % 1.15 C
3156 11-03-2011 07:35:03 8.7 C 59 % 1.15 C
3157 11-03-2011 07:47:02 8.7 C 59 % 1.15 C
3158 11-03-2011 07:59:02 8.7 C 59 % 1.15 C
3159 11-03-2011 08:11:02 8.7 C 59 % 1.15 C
3160 11-03-2011 08:23:02 8.8 C 59 % 1.24 C
3161 11-03-2011 08:35:02 8.9 C 59 % 1.34 C
3162 11-03-2011 08:47:01 8.9 C 58 % 1.1 C
3163 11-03-2011 08:59:01 8.9 C 58 % 1.1 C
3164 11-03-2011 09:11:02 9.2 C 56 % 0.89 C
3165 11-03-2011 09:23:02 9.2 C 55 % 0.64 C
3166 11-03-2011 09:35:02 9.2 C 55 % 0.64 C
3167 11-03-2011 09:47:02 9.3 C 55 % 0.74 C
3168 11-03-2011 09:59:02 9.8 C 54 % 0.95 C
3169 11-03-2011 10:11:01 10.2 C 51 % 0.53 C
3170 11-03-2011 10:23:02 10.4 C 51 % 0.71 C
3171 11-03-2011 10:35:01 10.2 C 50 % 0.26 C
3172 11-03-2011 10:47:02 10.6 C 48 % 0.06 C
3173 11-03-2011 10:59:03 10.9 C 48 % 0.34 C
3174 11-03-2011 11:11:02 10.8 C 47 % -0.04 C
3175 11-03-2011 11:23:02 11.2 C 46 % 0.02 C
Sensor: Nr:Datum:Temp:Feuchte:Taupunkt:
Aussen-T/F 3176 11-03-2011 11:35:02 10.7 C 46 % -0.43 C
3177 11-03-2011 11:47:02 11 C 44 % -0.77 C
3178 11-03-2011 11:59:02 10.9 C 44 % -0.86 C
3179 11-03-2011 12:11:02 10.7 C 43 % -1.35 C
3180 11-03-2011 12:23:01 11.5 C 42 % -0.95 C
3181 11-03-2011 12:35:02 11.1 C 41 % -1.64 C
3182 11-03-2011 12:47:02 11.2 C 39 % -2.22 C
3183 11-03-2011 12:59:02 11.7 C 39 % -1.78 C
3184 11-03-2011 13:11:02 11.7 C 37 % -2.49 C
3185 11-03-2011 13:23:01 12 C 35 % -2.97 C
3186 11-03-2011 13:35:02 11.5 C 38 % -2.3 C
3187 11-03-2011 13:47:02 11.2 C 40 % -1.88 C
3188 11-03-2011 13:59:02 11.1 C 38 % -2.66 C
3189 11-03-2011 14:11:03 11.1 C 39 % -2.31 C
3190 11-03-2011 14:23:02 11.1 C 39 % -2.31 C
3191 11-03-2011 14:35:02 11.2 C 39 % -2.22 C
3192 11-03-2011 14:47:02 11.2 C 39 % -2.22 C
3193 11-03-2011 14:59:02 11.1 C 38 % -2.66 C
3194 11-03-2011 15:11:02 11.2 C 38 % -2.57 C
3195 11-03-2011 15:23:02 11.2 C 38 % -2.57 C
3196 11-03-2011 15:35:01 11.2 C 38 % -2.57 C
3197 11-03-2011 15:47:02 11.1 C 38 % -2.66 C
3198 11-03-2011 15:59:02 11 C 39 % -2.4 C
3199 11-03-2011 16:11:01 11 C 39 % -2.4 C
3200 11-03-2011 16:23:01 11.1 C 39 % -2.31 C
Sensor: Nr:Datum:Temp:Feuchte:Taupunkt:
Aussen-T/F 3201 11-03-2011 16:35:02 11.1 C 37 % -3.02 C
3202 11-03-2011 16:47:02 11.2 C 37 % -2.93 C
3203 11-03-2011 16:59:02 11.2 C 35 % -3.67 C
3204 11-03-2011 17:11:23 11 C 36 % -3.47 C
3205 11-03-2011 17:23:23 10.9 C 37 % -3.2 C
3206 11-03-2011 17:35:23 11 C 37 % -3.11 C
3207 11-03-2011 17:47:23 10.6 C 37 % -3.46 C
3208 11-03-2011 17:59:23 10.5 C 37 % -3.55 C
3209 11-03-2011 18:11:01 10.2 C 37 % -3.82 C
3210 11-03-2011 18:23:01 9.9 C 40 % -3.05 C
3211 11-03-2011 18:35:01 9.6 C 41 % -2.99 C
3212 11-03-2011 18:47:02 9.4 C 42 % -2.84 C
3213 11-03-2011 18:59:02 9.1 C 46 % -1.89 C
3214 11-03-2011 19:11:03 8.6 C 49 % -1.49 C
3215 11-03-2011 19:23:02 8.4 C 51 % -1.13 C
3216 11-03-2011 19:35:03 8.2 C 52 % -1.05 C
3217 11-03-2011 19:47:01 8 C 53 % -0.98 C
3218 11-03-2011 19:59:01 7.8 C 54 % -0.91 C
3219 11-03-2011 20:11:02 7.6 C 54 % -1.1 C
3220 11-03-2011 20:23:01 7.1 C 54 % -1.56 C
3221 11-03-2011 20:35:02 7 C 56 % -1.16 C
3222 11-03-2011 20:47:02 6.4 C 60 % -0.78 C
3223 11-03-2011 20:59:02 6 C 60 % -1.16 C
3224 11-03-2011 21:11:02 5.5 C 63 % -0.97 C
3225 11-03-2011 21:23:03 5 C 65 % -1.02 C
Sensor: Nr:Datum:Temp:Feuchte:Taupunkt:
Aussen-T/F 3226 11-03-2011 21:35:02 4.7 C 67 % -0.89 C
3227 11-03-2011 21:47:03 4.9 C 69 % -0.3 C
3228 11-03-2011 21:59:03 4.3 C 69 % -0.87 C
3229 11-03-2011 22:11:02 3.8 C 72 % -0.77 C
3230 11-03-2011 22:24:04 3.5 C 74 % -0.69 C
3231 11-03-2011 22:36:04 3.4 C 75 % -0.6 C
3232 11-03-2011 22:48:04 3.3 C 76 % -0.52 C
3233 11-03-2011 23:00:04 2.9 C 78 % -0.55 C
3234 11-03-2011 23:12:04 2.4 C 78 % -1.03 C
3235 11-03-2011 23:24:04 2.2 C 79 % -1.05 C
3236 11-03-2011 23:36:04 1.9 C 80 % -1.18 C
3237 11-03-2011 23:48:04 1.8 C 81 % -1.1 C
3238 12-03-2011 00:00:04 1.6 C 82 % -1.13 C
3239 12-03-2011 00:12:04 1.2 C 82 % -1.52 C
3240 12-03-2011 00:24:04 0.8 C 83 % -1.75 C
3241 12-03-2011 00:36:04 0.5 C 83 % -2.04 C
3242 12-03-2011 00:48:04 0.5 C 84 % -1.88 C
3243 12-03-2011 01:00:04 0.4 C 84 % -1.98 C
3244 12-03-2011 01:12:04 0.3 C 84 % -2.08 C
3245 12-03-2011 01:24:04 0.3 C 85 % -1.92 C
3246 12-03-2011 01:36:05 0.1 C 85 % -2.11 C
3247 12-03-2011 01:48:05 0 C 85 % -2.21 C
3248 12-03-2011 02:00:05 -0.2 C 86 % -2.25 C
3249 12-03-2011 02:12:05 -0.2 C 86 % -2.25 C
3250 12-03-2011 02:24:05 -0.3 C 86 % -2.35 C
Sensor: Nr:Datum:Temp:Feuchte:Taupunkt:
Aussen-T/F 3251 12-03-2011 02:36:05 -0.3 C 87 % -2.2 C
3252 12-03-2011 02:48:05 -0.6 C 87 % -2.49 C
3253 12-03-2011 03:00:05 -0.6 C 87 % -2.49 C
3254 12-03-2011 03:12:05 -0.7 C 87 % -2.59 C
3255 12-03-2011 03:24:05 -0.9 C 87 % -2.79 C
3256 12-03-2011 03:36:05 -1 C 87 % -2.88 C
3257 12-03-2011 03:48:05 -0.5 C 88 % -2.24 C
3258 12-03-2011 04:00:05 -1 C 87 % -2.88 C
3259 12-03-2011 04:12:05 -1.2 C 88 % -2.93 C
3260 12-03-2011 04:24:05 -1.3 C 88 % -3.03 C
3261 12-03-2011 04:36:05 -1.4 C 88 % -3.13 C
3262 12-03-2011 04:48:05 -1.3 C 88 % -3.03 C
3263 12-03-2011 05:00:05 -1.4 C 88 % -3.13 C
3264 12-03-2011 05:12:05 -1.5 C 88 % -3.22 C
3265 12-03-2011 05:24:05 -1.5 C 88 % -3.22 C
3266 12-03-2011 05:36:06 -1.8 C 88 % -3.52 C
3267 12-03-2011 05:48:06 -1.9 C 88 % -3.62 C
3268 12-03-2011 06:00:06 -2 C 88 % -3.72 C
3269 12-03-2011 06:12:06 -2 C 88 % -3.72 C
3270 12-03-2011 06:24:06 -2.1 C 88 % -3.82 C
3271 12-03-2011 06:36:06 -1.8 C 88 % -3.52 C
3272 12-03-2011 06:48:06 -1.9 C 89 % -3.47 C
3273 12-03-2011 07:00:06 -2.2 C 89 % -3.76 C
3274 12-03-2011 07:12:06 -2.3 C 89 % -3.86 C
3275 12-03-2011 07:24:06 -2 C 89 % -3.57 C
Sensor: Nr:Datum:Temp:Feuchte:Taupunkt:
Aussen-T/F 3276 12-03-2011 07:36:04 -1.9 C 89 % -3.47 C
3277 12-03-2011 07:48:02 -1.6 C 89 % -3.17 C
3278 12-03-2011 08:00:02 -1.2 C 89 % -2.78 C
3279 12-03-2011 08:12:02 -0.6 C 90 % -2.03 C
3280 12-03-2011 08:24:02 -0.2 C 90 % -1.64 C
3281 12-03-2011 08:36:02 0.1 C 90 % -1.34 C
3282 12-03-2011 08:48:02 0.3 C 90 % -1.14 C
3283 12-03-2011 09:00:02 0.5 C 90 % -0.95 C
3284 12-03-2011 09:12:02 1.2 C 89 % -0.41 C
3285 12-03-2011 09:24:02 1.7 C 89 % 0.09 C
3286 12-03-2011 09:36:02 2.3 C 88 % 0.52 C
3287 12-03-2011 09:48:02 3.1 C 86 % 0.99 C
3288 12-03-2011 10:00:02 3.7 C 84 % 1.25 C
3289 12-03-2011 10:12:02 4.3 C 82 % 1.51 C
3290 12-03-2011 10:24:02 6 C 75 % 1.91 C
3291 12-03-2011 10:36:02 7 C 68 % 1.51 C
3292 12-03-2011 10:48:02 7.6 C 63 % 1.02 C
3293 12-03-2011 11:00:02 8.5 C 60 % 1.19 C
3294 12-03-2011 11:12:01 10 C 53 % 0.87 C
3295 12-03-2011 11:24:02 10.9 C 48 % 0.34 C
3296 12-03-2011 11:36:02 11.8 C 45 % 0.27 C
3297 12-03-2011 11:48:02 12.5 C 42 % -0.05 C
3298 12-03-2011 12:00:02 13 C 38 % -0.97 C
3299 12-03-2011 12:12:02 13.7 C 38 % -0.34 C
3300 12-03-2011 12:24:02 14.8 C 35 % -0.49 C
Sensor: Nr:Datum:Temp:Feuchte:Taupunkt:
Aussen-T/F 3301 12-03-2011 12:36:02 15.6 C 35 % 0.21 C
3302 12-03-2011 12:48:01 15.9 C 32 % -0.75 C
3303 12-03-2011 13:00:01 15.3 C 34 % -0.45 C
3304 12-03-2011 13:12:01 15.3 C 34 % -0.45 C
3305 12-03-2011 13:24:01 16.8 C 32 % 0.03 C
3306 12-03-2011 13:36:01 16.8 C 32 % 0.03 C
3307 12-03-2011 13:48:01 16.6 C 30 % -1.02 C
3308 12-03-2011 14:00:01 16 C 30 % -1.54 C
3309 12-03-2011 14:12:01 16.9 C 30 % -0.76 C
3310 12-03-2011 14:24:02 16.7 C 31 % -0.49 C
3311 12-03-2011 14:36:01 16.8 C 30 % -0.85 C
3312 12-03-2011 14:48:03 16.5 C 32 % -0.23 C
3313 12-03-2011 15:00:03 16.4 C 32 % -0.32 C
3314 12-03-2011 15:12:02 15.6 C 32 % -1.01 C
3315 12-03-2011 15:24:03 16.2 C 32 % -0.49 C
3316 12-03-2011 15:36:02 16.2 C 32 % -0.49 C
3317 12-03-2011 15:48:02 17.1 C 30 % -0.59 C
3318 12-03-2011 16:00:02 17 C 31 % -0.23 C
3319 12-03-2011 16:12:02 17.4 C 30 % -0.33 C
3320 12-03-2011 16:24:02 18.5 C 27 % -0.83 C
3321 12-03-2011 16:36:03 18.6 C 27 % -0.74 C
3322 12-03-2011 16:48:02 18.6 C 27 % -0.74 C
3323 12-03-2011 17:00:02 17.9 C 28 % -0.84 C
3324 12-03-2011 17:12:01 16.3 C 33 % 0.02 C
3325 12-03-2011 17:24:02 14.7 C 39 % 0.91 C
Sensor: Nr:Datum:Temp:Feuchte:Taupunkt:
Aussen-T/F 3326 12-03-2011 17:36:02 13.6 C 43 % 1.27 C
3327 12-03-2011 17:48:02 12.4 C 47 % 1.42 C
3328 12-03-2011 18:00:02 11.4 C 50 % 1.36 C
3329 12-03-2011 18:12:03 11.2 C 51 % 1.45 C
3330 12-03-2011 18:24:02 10.9 C 53 % 1.71 C
3331 12-03-2011 18:36:03 10.8 C 53 % 1.62 C
3332 12-03-2011 18:48:01 10.6 C 53 % 1.43 C
3333 12-03-2011 19:00:01 10.7 C 51 % 0.99 C
3334 12-03-2011 19:12:02 10.7 C 48 % 0.15 C
3335 12-03-2011 19:24:02 10.8 C 46 % -0.34 C
3336 12-03-2011 19:36:02 11 C 43 % -1.08 C
3337 12-03-2011 19:48:02 11.2 C 45 % -0.28 C
3338 12-03-2011 20:00:02 10.7 C 45 % -0.73 C
3339 12-03-2011 20:12:03 11.1 C 42 % -1.31 C
3340 12-03-2011 20:24:02 11.4 C 41 % -1.37 C
3341 12-03-2011 20:36:02 11.7 C 41 % -1.1 C
3342 12-03-2011 20:48:01 11.8 C 41 % -1.01 C
3343 12-03-2011 21:00:01 12.3 C 38 % -1.59 C
3344 12-03-2011 21:12:02 12.1 C 40 % -1.07 C
3345 12-03-2011 21:24:01 12.5 C 39 % -1.06 C
3346 12-03-2011 21:36:01 12.4 C 40 % -0.8 C
3347 12-03-2011 21:48:01 11.8 C 42 % -0.68 C
3348 12-03-2011 22:00:01 12.2 C 42 % -0.32 C
3349 12-03-2011 22:13:02 11.8 C 43 % -0.36 C
3350 12-03-2011 22:25:02 12.5 C 41 % -0.38 C
Sensor: Nr:Datum:Temp:Feuchte:Taupunkt:
Aussen-T/F 3351 12-03-2011 22:37:02 12.2 C 42 % -0.32 C
3352 12-03-2011 22:49:02 11.8 C 44 % -0.04 C
3353 12-03-2011 23:01:02 11.4 C 46 % 0.21 C
3354 12-03-2011 23:13:02 11.4 C 46 % 0.21 C
3355 12-03-2011 23:25:02 11.2 C 46 % 0.02 C
3356 12-03-2011 23:37:02 11 C 48 % 0.43 C
3357 12-03-2011 23:49:02 10.7 C 51 % 0.99 C
3358 13-03-2011 00:01:02 10.5 C 53 % 1.34 C
3359 13-03-2011 00:13:02 10 C 58 % 2.13 C
3360 13-03-2011 00:25:02 10.1 C 59 % 2.46 C
3361 13-03-2011 00:37:02 9.8 C 61 % 2.65 C
3362 13-03-2011 00:49:02 10.1 C 59 % 2.46 C
3363 13-03-2011 01:01:02 9.7 C 61 % 2.55 C
3364 13-03-2011 01:13:02 9.8 C 61 % 2.65 C
3365 13-03-2011 01:25:02 10.1 C 59 % 2.46 C
3366 13-03-2011 01:37:02 10.8 C 57 % 2.63 C
3367 13-03-2011 01:49:02 10.7 C 57 % 2.54 C
3368 13-03-2011 02:01:02 10.9 C 58 % 2.97 C
3369 13-03-2011 02:13:02 10.7 C 58 % 2.79 C
3370 13-03-2011 02:25:03 10.5 C 60 % 3.08 C
3371 13-03-2011 02:37:03 10.5 C 60 % 3.08 C
3372 13-03-2011 02:49:03 10.4 C 61 % 3.21 C
3373 13-03-2011 03:01:03 10.5 C 60 % 3.08 C
3374 13-03-2011 03:13:03 10 C 61 % 2.84 C
3375 13-03-2011 03:25:03 9.7 C 64 % 3.23 C
Sensor: Nr:Datum:Temp:Feuchte:Taupunkt:
Aussen-T/F 3376 13-03-2011 03:37:03 9.8 C 63 % 3.1 C
3377 13-03-2011 03:49:03 9.9 C 64 % 3.42 C
3378 13-03-2011 04:01:03 9.8 C 63 % 3.1 C
3379 13-03-2011 04:13:03 9.6 C 64 % 3.14 C
3380 13-03-2011 04:25:03 9 C 68 % 3.42 C
3381 13-03-2011 04:37:03 8.5 C 76 % 4.52 C
3382 13-03-2011 04:49:03 8.4 C 80 % 5.16 C
3383 13-03-2011 05:01:03 8.1 C 81 % 5.04 C
3384 13-03-2011 05:13:03 8 C 83 % 5.29 C
3385 13-03-2011 05:25:03 7.9 C 85 % 5.54 C
3386 13-03-2011 05:37:03 7.8 C 85 % 5.44 C
3387 13-03-2011 05:49:03 7.7 C 86 % 5.51 C
3388 13-03-2011 06:01:03 7.6 C 86 % 5.41 C
3389 13-03-2011 06:13:03 7.9 C 86 % 5.71 C
3390 13-03-2011 06:25:03 7.8 C 86 % 5.61 C
3391 13-03-2011 06:37:04 7.6 C 86 % 5.41 C
3392 13-03-2011 06:49:04 7.6 C 85 % 5.24 C
3393 13-03-2011 07:01:02 7.6 C 85 % 5.24 C
3394 13-03-2011 07:13:02 7.8 C 85 % 5.44 C
3395 13-03-2011 07:25:02 7.8 C 85 % 5.44 C
3396 13-03-2011 07:37:02 7.9 C 84 % 5.37 C
3397 13-03-2011 07:49:01 8 C 83 % 5.29 C
3398 13-03-2011 08:01:02 8.1 C 83 % 5.39 C
3399 13-03-2011 08:13:02 8.4 C 82 % 5.51 C
3400 13-03-2011 08:25:02 8.6 C 81 % 5.53 C
Sensor: Nr:Datum:Temp:Feuchte:Taupunkt:
Aussen-T/F 3401 13-03-2011 08:37:02 9.1 C 77 % 5.29 C
3402 13-03-2011 08:49:02 9.4 C 75 % 5.2 C
3403 13-03-2011 09:01:02 9.9 C 72 % 5.1 C
3404 13-03-2011 09:13:02 10.3 C 68 % 4.66 C
3405 13-03-2011 09:25:01 10.8 C 66 % 4.71 C
3406 13-03-2011 09:37:02 11.3 C 64 % 4.75 C
3407 13-03-2011 09:49:01 12 C 60 % 4.49 C
3408 13-03-2011 10:01:02 12.4 C 58 % 4.38 C
3409 13-03-2011 10:13:02 12.7 C 57 % 4.41 C
3410 13-03-2011 10:25:02 12.5 C 53 % 3.19 C
3411 13-03-2011 10:37:02 12.8 C 53 % 3.47 C
3412 13-03-2011 10:49:02 12.8 C 54 % 3.74 C
3413 13-03-2011 11:01:01 13.3 C 51 % 3.39 C
3414 13-03-2011 11:13:01 14.1 C 47 % 2.97 C
3415 13-03-2011 11:25:02 14.3 C 47 % 3.15 C
3416 13-03-2011 11:37:01 15.1 C 45 % 3.27 C
3417 13-03-2011 11:49:02 14.9 C 44 % 2.77 C
3418 13-03-2011 12:01:01 14.7 C 45 % 2.91 C
3419 13-03-2011 12:13:01 14.7 C 44 % 2.59 C
3420 13-03-2011 12:25:01 14.3 C 45 % 2.54 C
3421 13-03-2011 12:37:02 14.4 C 44 % 2.32 C
3422 13-03-2011 12:49:02 15.6 C 41 % 2.41 C
3423 13-03-2011 13:01:02 15.2 C 41 % 2.05 C
3424 13-03-2011 13:13:02 15 C 40 % 1.53 C
3425 13-03-2011 13:25:02 15 C 41 % 1.87 C
Sensor: Nr:Datum:Temp:Feuchte:Taupunkt:
Aussen-T/F 3426 13-03-2011 13:37:02 14.2 C 44 % 2.14 C
3427 13-03-2011 13:49:02 14.1 C 46 % 2.67 C
3428 13-03-2011 14:01:02 14.5 C 45 % 2.72 C
3429 13-03-2011 14:13:02 14.9 C 43 % 2.45 C
3430 13-03-2011 14:25:02 15.2 C 40 % 1.71 C
3431 13-03-2011 14:37:02 15.6 C 41 % 2.41 C
3432 13-03-2011 14:49:02 15.4 C 40 % 1.89 C
3433 13-03-2011 15:01:02 15.5 C 41 % 2.32 C
3434 13-03-2011 15:13:02 16.2 C 38 % 1.88 C
3435 13-03-2011 15:25:03 15.6 C 39 % 1.71 C
3436 13-03-2011 15:37:02 14.8 C 42 % 2.03 C
3437 13-03-2011 15:49:02 14.7 C 43 % 2.27 C
3438 13-03-2011 16:01:02 15 C 42 % 2.21 C
3439 13-03-2011 16:13:02 14.8 C 43 % 2.36 C
3440 13-03-2011 16:25:02 14.8 C 43 % 2.36 C
3441 13-03-2011 16:37:02 14.1 C 45 % 2.36 C
3442 13-03-2011 16:49:02 13.8 C 47 % 2.7 C
3443 13-03-2011 17:01:02 13.5 C 51 % 3.57 C
3444 13-03-2011 17:13:02 13.2 C 52 % 3.57 C
3445 13-03-2011 17:25:02 12.8 C 53 % 3.47 C
3446 13-03-2011 17:37:01 12.6 C 55 % 3.81 C
3447 13-03-2011 17:49:02 12.4 C 57 % 4.13 C
3448 13-03-2011 18:01:01 12 C 58 % 4 C
3449 13-03-2011 18:13:01 11.8 C 60 % 4.3 C
3450 13-03-2011 18:25:02 11.4 C 62 % 4.39 C
Sensor: Nr:Datum:Temp:Feuchte:Taupunkt:
Aussen-T/F 3451 13-03-2011 18:37:02 11.2 C 63 % 4.43 C
3452 13-03-2011 18:49:02 11.2 C 63 % 4.43 C
3453 13-03-2011 19:01:03 11.2 C 63 % 4.43 C
3454 13-03-2011 19:13:03 11.2 C 63 % 4.43 C
3455 13-03-2011 19:25:02 11 C 64 % 4.46 C
3456 13-03-2011 19:37:02 10.3 C 71 % 5.28 C
3457 13-03-2011 19:49:01 10.1 C 76 % 6.07 C
3458 13-03-2011 20:01:02 9.9 C 81 % 6.8 C
3459 13-03-2011 20:13:02 9.7 C 83 % 6.96 C
3460 13-03-2011 20:25:01 9.6 C 84 % 7.03 C
3461 13-03-2011 20:37:01 9.5 C 85 % 7.11 C
3462 13-03-2011 20:49:01 9.4 C 86 % 7.18 C
3463 13-03-2011 21:01:02 9.4 C 86 % 7.18 C
3464 13-03-2011 21:13:02 9.3 C 86 % 7.08 C
3465 13-03-2011 21:25:01 9.3 C 87 % 7.25 C
3466 13-03-2011 21:37:01 9.1 C 87 % 7.05 C
3467 13-03-2011 21:49:01 9 C 87 % 6.96 C
3468 13-03-2011 22:02:04 8.9 C 88 % 7.02 C
3469 13-03-2011 22:14:04 8.9 C 88 % 7.02 C
3470 13-03-2011 22:26:04 8.9 C 88 % 7.02 C
3471 13-03-2011 22:38:04 8.9 C 89 % 7.19 C
3472 13-03-2011 22:50:04 8.7 C 89 % 6.99 C
3473 13-03-2011 23:02:04 8.7 C 89 % 6.99 C
3474 13-03-2011 23:14:04 8.7 C 89 % 6.99 C
3475 13-03-2011 23:26:05 8.7 C 89 % 6.99 C
Sensor: Nr:Datum:Temp:Feuchte:Taupunkt:
Aussen-T/F 3476 13-03-2011 23:38:05 8.6 C 89 % 6.89 C
3477 13-03-2011 23:50:05 8.6 C 89 % 6.89 C
3478 14-03-2011 00:02:05 8.6 C 89 % 6.89 C
3479 14-03-2011 00:14:05 8.6 C 89 % 6.89 C
3480 14-03-2011 00:26:05 8.6 C 89 % 6.89 C
3481 14-03-2011 00:38:05 8.6 C 89 % 6.89 C
3482 14-03-2011 00:50:05 8.6 C 90 % 7.06 C
3483 14-03-2011 01:02:05 8.6 C 90 % 7.06 C
3484 14-03-2011 01:14:05 8.6 C 90 % 7.06 C
3485 14-03-2011 01:26:05 8.6 C 90 % 7.06 C
3486 14-03-2011 01:38:05 8.6 C 90 % 7.06 C
3487 14-03-2011 01:50:05 8.4 C 90 % 6.86 C
3488 14-03-2011 02:02:05 8.5 C 90 % 6.96 C
3489 14-03-2011 02:14:05 8.6 C 90 % 7.06 C
3490 14-03-2011 02:26:05 8.5 C 90 % 6.96 C
3491 14-03-2011 02:38:05 8.4 C 90 % 6.86 C
3492 14-03-2011 02:50:05 8.4 C 90 % 6.86 C
3493 14-03-2011 03:02:05 8.4 C 90 % 6.86 C
3494 14-03-2011 03:14:05 8.2 C 90 % 6.66 C
3495 14-03-2011 03:26:05 8.2 C 90 % 6.66 C
3496 14-03-2011 03:38:06 8.1 C 90 % 6.56 C
3497 14-03-2011 03:50:06 8.2 C 90 % 6.66 C
3498 14-03-2011 04:02:06 8.2 C 90 % 6.66 C
3499 14-03-2011 04:14:06 8.3 C 90 % 6.76 C
3500 14-03-2011 04:26:06 8.4 C 90 % 6.86 C
Sensor: Nr:Datum:Temp:Feuchte:Taupunkt:
Aussen-T/F 3501 14-03-2011 04:38:06 8.4 C 90 % 6.86 C
3502 14-03-2011 04:50:06 8.4 C 90 % 6.86 C
3503 14-03-2011 05:02:06 8.4 C 90 % 6.86 C
3504 14-03-2011 05:14:06 8.4 C 91 % 7.02 C
3505 14-03-2011 05:26:06 8.5 C 91 % 7.12 C
3506 14-03-2011 05:38:06 8.3 C 91 % 6.92 C
3507 14-03-2011 05:50:06 8.1 C 91 % 6.72 C
3508 14-03-2011 06:02:06 8 C 91 % 6.62 C
3509 14-03-2011 06:14:06 8 C 90 % 6.46 C
3510 14-03-2011 06:26:06 7.6 C 91 % 6.23 C
3511 14-03-2011 06:38:06 7.6 C 91 % 6.23 C
3512 14-03-2011 06:50:06 7.8 C 92 % 6.58 C
3513 14-03-2011 07:02:06 7.9 C 92 % 6.68 C
3514 14-03-2011 07:14:06 7.9 C 92 % 6.68 C
3515 14-03-2011 07:26:03 7.9 C 92 % 6.68 C
3516 14-03-2011 07:38:03 8.2 C 91 % 6.82 C
3517 14-03-2011 07:50:02 8.3 C 91 % 6.92 C
3518 14-03-2011 08:02:02 8.4 C 91 % 7.02 C
3519 14-03-2011 08:14:02 8.5 C 91 % 7.12 C
3520 14-03-2011 08:26:01 8.5 C 91 % 7.12 C
3521 14-03-2011 08:38:02 8.7 C 91 % 7.32 C
3522 14-03-2011 08:50:02 8.9 C 91 % 7.51 C
3523 14-03-2011 09:02:02 9.1 C 91 % 7.71 C
3524 14-03-2011 09:14:02 9 C 90 % 7.45 C
3525 14-03-2011 09:26:01 9.2 C 91 % 7.81 C
Sensor: Nr:Datum:Temp:Feuchte:Taupunkt:
Aussen-T/F 3526 14-03-2011 09:38:02 9.4 C 91 % 8.01 C
3527 14-03-2011 09:50:01 10 C 89 % 8.27 C
3528 14-03-2011 10:02:02 10.7 C 89 % 8.96 C
3529 14-03-2011 10:14:02 10.8 C 85 % 8.38 C
3530 14-03-2011 10:26:01 11 C 77 % 7.13 C
3531 14-03-2011 10:38:02 12.1 C 71 % 7.01 C
3532 14-03-2011 10:50:01 12 C 68 % 6.29 C
3533 14-03-2011 11:02:02 12.8 C 67 % 6.83 C
3534 14-03-2011 11:14:02 12.1 C 67 % 6.17 C
3535 14-03-2011 11:26:01 12.9 C 67 % 6.93 C
3536 14-03-2011 11:38:02 12.8 C 63 % 5.94 C
3537 14-03-2011 11:50:02 13 C 62 % 5.9 C
3538 14-03-2011 12:02:02 12.6 C 63 % 5.75 C
3539 14-03-2011 12:14:02 13.4 C 61 % 6.04 C
3540 14-03-2011 12:26:02 13 C 60 % 5.43 C
3541 14-03-2011 12:38:02 13 C 63 % 6.13 C
3542 14-03-2011 12:50:01 13.6 C 61 % 6.23 C
3543 14-03-2011 13:02:01 14.4 C 58 % 6.25 C
3544 14-03-2011 13:14:02 14.5 C 54 % 5.31 C
3545 14-03-2011 13:26:01 14.4 C 54 % 5.22 C
3546 14-03-2011 13:38:01 14 C 55 % 5.11 C
3547 14-03-2011 13:50:01 14 C 54 % 4.85 C
3548 14-03-2011 14:02:02 14.5 C 53 % 5.05 C
3549 14-03-2011 14:14:02 14.1 C 52 % 4.4 C
3550 14-03-2011 14:26:01 13.7 C 56 % 5.09 C
Sensor: Nr:Datum:Temp:Feuchte:Taupunkt:
Aussen-T/F 3551 14-03-2011 14:38:01 13.7 C 57 % 5.35 C
3552 14-03-2011 14:50:01 14 C 55 % 5.11 C
3553 14-03-2011 15:02:01 13.9 C 55 % 5.02 C
3554 14-03-2011 15:14:01 13.4 C 56 % 4.81 C
3555 14-03-2011 15:26:02 13.8 C 55 % 4.93 C
3556 14-03-2011 15:38:01 13.5 C 55 % 4.65 C
3557 14-03-2011 15:50:02 13.8 C 54 % 4.66 C
3558 14-03-2011 16:02:01 15.2 C 49 % 4.57 C
3559 14-03-2011 16:14:01 16.4 C 43 % 3.8 C
3560 14-03-2011 16:26:02 15.4 C 44 % 3.22 C
3561 14-03-2011 16:38:01 14.6 C 48 % 3.73 C
3562 14-03-2011 16:50:02 14.1 C 50 % 3.85 C
3563 14-03-2011 17:02:02 13.9 C 51 % 3.94 C
3564 14-03-2011 17:14:02 13.7 C 49 % 3.19 C
3565 14-03-2011 17:26:02 13.1 C 56 % 4.53 C
3566 14-03-2011 17:38:03 12.6 C 61 % 5.29 C
3567 14-03-2011 17:50:02 12.1 C 63 % 5.28 C
3568 14-03-2011 18:02:02 11.7 C 66 % 5.57 C
3569 14-03-2011 18:14:02 11.4 C 67 % 5.5 C
3570 14-03-2011 18:26:02 11.2 C 68 % 5.52 C
3571 14-03-2011 18:38:02 11 C 70 % 5.75 C
3572 14-03-2011 18:50:02 10.7 C 72 % 5.87 C
3573 14-03-2011 19:02:02 10.4 C 73 % 5.78 C
3574 14-03-2011 19:14:02 10.4 C 74 % 5.97 C
3575 14-03-2011 19:26:02 10.2 C 74 % 5.78 C
Sensor: Nr:Datum:Temp:Feuchte:Taupunkt:
Aussen-T/F 3576 14-03-2011 19:38:02 10 C 75 % 5.78 C
3577 14-03-2011 19:50:01 9.2 C 77 % 5.38 C
3578 14-03-2011 20:02:02 8.5 C 79 % 5.07 C
3579 14-03-2011 20:14:02 8.4 C 81 % 5.33 C
3580 14-03-2011 20:26:01 8.2 C 82 % 5.32 C
3581 14-03-2011 20:38:01 8.3 C 83 % 5.59 C
3582 14-03-2011 20:50:01 8.6 C 84 % 6.05 C
3583 14-03-2011 21:02:02 8.6 C 84 % 6.05 C
3584 14-03-2011 21:14:02 8.6 C 84 % 6.05 C
3585 14-03-2011 21:26:02 8 C 83 % 5.29 C
3586 14-03-2011 21:38:01 7.6 C 84 % 5.07 C
3587 14-03-2011 21:50:02 7.1 C 84 % 4.58 C
3588 14-03-2011 22:02:02 7 C 85 % 4.66 C
3589 14-03-2011 22:14:02 7.6 C 87 % 5.58 C
3590 14-03-2011 22:27:03 7.4 C 87 % 5.38 C
3591 14-03-2011 22:39:03 7.3 C 88 % 5.45 C
3592 14-03-2011 22:51:03 7 C 88 % 5.15 C
3593 14-03-2011 23:03:03 6.5 C 88 % 4.66 C
3594 14-03-2011 23:15:03 6 C 88 % 4.17 C
3595 14-03-2011 23:27:04 5.6 C 89 % 3.93 C
3596 14-03-2011 23:39:04 5.6 C 89 % 3.93 C
3597 14-03-2011 23:51:04 5.6 C 89 % 3.93 C
3598 15-03-2011 00:03:04 5.3 C 89 % 3.64 C
3599 15-03-2011 00:15:04 5.1 C 89 % 3.44 C
3600 15-03-2011 00:27:04 5.5 C 90 % 3.99 C
Sensor: Nr:Datum:Temp:Feuchte:Taupunkt:
Aussen-T/F 3601 15-03-2011 00:39:04 5 C 90 % 3.5 C
3602 15-03-2011 00:51:04 5.1 C 90 % 3.6 C
3603 15-03-2011 01:03:04 4.9 C 91 % 3.56 C
3604 15-03-2011 01:15:04 4.6 C 91 % 3.26 C
3605 15-03-2011 01:27:04 4.6 C 91 % 3.26 C
3606 15-03-2011 01:39:04 4.9 C 91 % 3.56 C
3607 15-03-2011 01:51:04 5.4 C 91 % 4.05 C
3608 15-03-2011 02:03:04 6.1 C 90 % 4.59 C
3609 15-03-2011 02:15:04 6 C 90 % 4.49 C
3610 15-03-2011 02:27:04 5.9 C 92 % 4.7 C
3611 15-03-2011 02:39:04 6 C 91 % 4.65 C
3612 15-03-2011 02:51:04 5.8 C 92 % 4.6 C
3613 15-03-2011 03:03:04 5.7 C 92 % 4.5 C
3614 15-03-2011 03:15:04 5.7 C 92 % 4.5 C
3615 15-03-2011 03:27:04 5.7 C 92 % 4.5 C
3616 15-03-2011 03:39:05 5.7 C 92 % 4.5 C
3617 15-03-2011 03:51:05 5.7 C 92 % 4.5 C
3618 15-03-2011 04:03:05 5.8 C 92 % 4.6 C
3619 15-03-2011 04:15:05 6 C 91 % 4.65 C
3620 15-03-2011 04:27:05 5.7 C 92 % 4.5 C
3621 15-03-2011 04:39:05 5.7 C 92 % 4.5 C
3622 15-03-2011 04:51:05 5.7 C 92 % 4.5 C
3623 15-03-2011 05:03:05 5.7 C 92 % 4.5 C
3624 15-03-2011 05:15:05 5.5 C 92 % 4.31 C
3625 15-03-2011 05:27:05 5.4 C 92 % 4.21 C
Sensor: Nr:Datum:Temp:Feuchte:Taupunkt:
Aussen-T/F 3626 15-03-2011 05:39:05 5.1 C 92 % 3.91 C
3627 15-03-2011 05:51:05 4.8 C 92 % 3.61 C
3628 15-03-2011 06:03:05 4.7 C 92 % 3.51 C
3629 15-03-2011 06:15:05 4.2 C 92 % 3.02 C
3630 15-03-2011 06:27:05 4.5 C 92 % 3.32 C
3631 15-03-2011 06:39:05 4.7 C 92 % 3.51 C
3632 15-03-2011 06:51:01 4.8 C 92 % 3.61 C
3633 15-03-2011 07:03:02 4.8 C 92 % 3.61 C
3634 15-03-2011 07:15:01 4.9 C 92 % 3.71 C
3635 15-03-2011 07:27:01 5 C 92 % 3.81 C
3636 15-03-2011 07:39:02 5.1 C 92 % 3.91 C
3637 15-03-2011 07:51:01 5.2 C 92 % 4.01 C
3638 15-03-2011 08:03:02 5.2 C 92 % 4.01 C
3639 15-03-2011 08:15:02 5.2 C 92 % 4.01 C
3640 15-03-2011 08:27:02 5.3 C 92 % 4.11 C
3641 15-03-2011 08:39:02 5.5 C 92 % 4.31 C
3642 15-03-2011 08:51:02 5.5 C 92 % 4.31 C
3643 15-03-2011 09:03:01 5.7 C 92 % 4.5 C
3644 15-03-2011 09:15:02 6.1 C 91 % 4.74 C
3645 15-03-2011 09:27:02 6.5 C 91 % 5.14 C
3646 15-03-2011 09:39:02 6.9 C 92 % 5.69 C
3647 15-03-2011 09:51:02 7.8 C 91 % 6.43 C
3648 15-03-2011 10:03:02 8.3 C 90 % 6.76 C
3649 15-03-2011 10:15:02 9 C 89 % 7.29 C
3650 15-03-2011 10:27:02 9.5 C 89 % 7.78 C
Sensor: Nr:Datum:Temp:Feuchte:Taupunkt:
Aussen-T/F 3651 15-03-2011 10:39:02 10.1 C 86 % 7.87 C
3652 15-03-2011 10:51:01 10.6 C 84 % 8.01 C
3653 15-03-2011 11:03:01 11.5 C 77 % 7.61 C
3654 15-03-2011 11:15:01 12 C 72 % 7.12 C
3655 15-03-2011 11:27:01 13.2 C 64 % 6.55 C
3656 15-03-2011 11:39:02 14 C 58 % 5.88 C
3657 15-03-2011 11:51:02 14.5 C 52 % 4.77 C
3658 15-03-2011 12:03:02 15.6 C 47 % 4.34 C
3659 15-03-2011 12:15:02 16.4 C 43 % 3.8 C
3660 15-03-2011 12:27:02 18.1 C 40 % 4.3 C
3661 15-03-2011 12:39:02 18.7 C 36 % 3.34 C
3662 15-03-2011 12:51:01 20.3 C 31 % 2.64 C
3663 15-03-2011 13:03:02 20 C 32 % 2.82 C
3664 15-03-2011 13:15:02 18.9 C 35 % 3.12 C
3665 15-03-2011 13:27:02 19.2 C 35 % 3.38 C
3666 15-03-2011 13:39:02 18.4 C 37 % 3.46 C
3667 15-03-2011 13:51:02 19.3 C 35 % 3.47 C
3668 15-03-2011 14:03:03 18.5 C 35 % 2.77 C
3669 15-03-2011 14:15:02 18.5 C 35 % 2.77 C
3670 15-03-2011 14:27:02 18.5 C 35 % 2.77 C
3671 15-03-2011 14:39:02 19 C 33 % 2.38 C
3672 15-03-2011 14:51:01 20 C 31 % 2.38 C
3673 15-03-2011 15:03:02 21 C 30 % 2.78 C
3674 15-03-2011 15:15:02 20.9 C 28 % 1.73 C
3675 15-03-2011 15:27:02 19.8 C 30 % 1.74 C
Sensor: Nr:Datum:Temp:Feuchte:Taupunkt:
Aussen-T/F 3676 15-03-2011 15:39:02 21.9 C 27 % 2.08 C
3677 15-03-2011 15:51:02 21.7 C 26 % 1.38 C
3678 15-03-2011 16:03:01 19.9 C 30 % 1.83 C
3679 15-03-2011 16:15:02 20.6 C 28 % 1.47 C
3680 15-03-2011 16:27:03 21.8 C 26 % 1.46 C
3681 15-03-2011 16:39:01 20.8 C 27 % 1.14 C
3682 15-03-2011 16:51:02 20.4 C 26 % 0.28 C
3683 15-03-2011 17:03:01 19.5 C 31 % 1.94 C
3684 15-03-2011 17:15:01 18.4 C 34 % 2.27 C
3685 15-03-2011 17:27:01 18 C 35 % 2.33 C
3686 15-03-2011 17:39:02 17.7 C 38 % 3.22 C
3687 15-03-2011 17:51:02 16.9 C 39 % 2.87 C
3688 15-03-2011 18:03:02 15.9 C 44 % 3.68 C
3689 15-03-2011 18:15:02 15 C 46 % 3.49 C
3690 15-03-2011 18:27:02 13.2 C 54 % 4.11 C
3691 15-03-2011 18:39:02 12.6 C 57 % 4.32 C
3692 15-03-2011 18:51:02 12.2 C 58 % 4.19 C
3693 15-03-2011 19:03:03 12 C 58 % 4 C
3694 15-03-2011 19:15:02 12 C 59 % 4.25 C
3695 15-03-2011 19:27:02 11.9 C 61 % 4.63 C
3696 15-03-2011 19:39:02 12.2 C 61 % 4.91 C
3697 15-03-2011 19:51:01 12.4 C 59 % 4.62 C
3698 15-03-2011 20:03:02 12.2 C 59 % 4.43 C
3699 15-03-2011 20:15:01 11.2 C 63 % 4.43 C
3700 15-03-2011 20:27:01 10.7 C 66 % 4.62 C
Sensor: Nr:Datum:Temp:Feuchte:Taupunkt:
Aussen-T/F 3701 15-03-2011 20:39:01 10.8 C 68 % 5.14 C
3702 15-03-2011 20:51:01 10.2 C 67 % 4.36 C
3703 15-03-2011 21:03:01 9.6 C 71 % 4.61 C
3704 15-03-2011 21:15:02 9.7 C 71 % 4.7 C
3705 15-03-2011 21:27:02 10.2 C 71 % 5.18 C
3706 15-03-2011 21:39:01 9.7 C 71 % 4.7 C
3707 15-03-2011 21:51:01 9.7 C 71 % 4.7 C
3708 15-03-2011 22:03:02 9.2 C 72 % 4.42 C
3709 15-03-2011 22:16:01 8.7 C 74 % 4.33 C
3710 15-03-2011 22:28:01 9 C 73 % 4.43 C
3711 15-03-2011 22:40:01 9.2 C 72 % 4.42 C
3712 15-03-2011 22:52:01 10.1 C 70 % 4.89 C
3713 15-03-2011 23:04:02 9.2 C 69 % 3.82 C
3714 15-03-2011 23:16:02 9.2 C 69 % 3.82 C
3715 15-03-2011 23:28:02 9.1 C 70 % 3.93 C
3716 15-03-2011 23:40:02 9.1 C 69 % 3.72 C
3717 15-03-2011 23:52:02 9.4 C 68 % 3.8 C
3718 16-03-2011 00:04:02 9.5 C 67 % 3.69 C
3719 16-03-2011 00:16:02 8.8 C 70 % 3.64 C
3720 16-03-2011 00:28:02 8.4 C 73 % 3.85 C
3721 16-03-2011 00:40:02 8.2 C 73 % 3.66 C
3722 16-03-2011 00:52:02 8.1 C 74 % 3.75 C
3723 16-03-2011 01:04:02 7.4 C 75 % 3.27 C
3724 16-03-2011 01:16:02 7 C 78 % 3.43 C
3725 16-03-2011 01:28:02 6.5 C 80 % 3.31 C
Sensor: Nr:Datum:Temp:Feuchte:Taupunkt:
Aussen-T/F 3726 16-03-2011 01:40:02 7 C 81 % 3.97 C
3727 16-03-2011 01:52:02 6.5 C 82 % 3.66 C
3728 16-03-2011 02:04:02 6.7 C 83 % 4.02 C
3729 16-03-2011 02:16:02 6.9 C 83 % 4.22 C
3730 16-03-2011 02:28:02 6.4 C 82 % 3.56 C
3731 16-03-2011 02:40:02 6.4 C 83 % 3.73 C
3732 16-03-2011 02:52:02 6.8 C 83 % 4.12 C
3733 16-03-2011 03:04:02 6.7 C 82 % 3.85 C
3734 16-03-2011 03:16:03 6.4 C 82 % 3.56 C
3735 16-03-2011 03:28:03 6.7 C 82 % 3.85 C
3736 16-03-2011 03:40:03 7.4 C 79 % 4 C
3737 16-03-2011 03:52:03 7.1 C 77 % 3.35 C
3738 16-03-2011 04:04:03 7.3 C 77 % 3.54 C
3739 16-03-2011 04:16:03 7 C 77 % 3.25 C
3740 16-03-2011 04:28:03 7.1 C 76 % 3.16 C
3741 16-03-2011 04:40:03 7.2 C 76 % 3.26 C
3742 16-03-2011 04:52:03 7.4 C 76 % 3.45 C
3743 16-03-2011 05:04:03 7.3 C 75 % 3.17 C
3744 16-03-2011 05:16:03 7.1 C 75 % 2.98 C
3745 16-03-2011 05:28:03 7 C 75 % 2.88 C
3746 16-03-2011 05:40:03 7 C 75 % 2.88 C
3747 16-03-2011 05:52:03 6.8 C 77 % 3.06 C
3748 16-03-2011 06:04:03 7 C 77 % 3.25 C
3749 16-03-2011 06:16:03 7.1 C 76 % 3.16 C
3750 16-03-2011 06:28:03 6.9 C 77 % 3.16 C
Sensor: Nr:Datum:Temp:Feuchte:Taupunkt:
Aussen-T/F 3751 16-03-2011 06:40:03 7.4 C 76 % 3.45 C
3752 16-03-2011 06:52:03 7.3 C 75 % 3.17 C
3753 16-03-2011 07:04:03 7.1 C 76 % 3.16 C
3754 16-03-2011 07:16:04 7.6 C 75 % 3.46 C
3755 16-03-2011 07:28:04 7.8 C 74 % 3.46 C
3756 16-03-2011 07:40:04 8.1 C 71 % 3.17 C
3757 16-03-2011 07:52:04 8.3 C 71 % 3.36 C
3758 16-03-2011 08:04:01 8.7 C 69 % 3.34 C
3759 16-03-2011 08:16:01 8.9 C 68 % 3.32 C
3760 16-03-2011 08:28:01 9.2 C 66 % 3.19 C
3761 16-03-2011 08:40:01 9.3 C 64 % 2.85 C
3762 16-03-2011 08:52:02 9.4 C 64 % 2.95 C
3763 16-03-2011 09:04:03 9.5 C 63 % 2.82 C
3764 16-03-2011 09:16:02 9.8 C 63 % 3.1 C
3765 16-03-2011 09:28:02 9.8 C 62 % 2.88 C
3766 16-03-2011 09:40:02 10.2 C 60 % 2.79 C
3767 16-03-2011 09:52:01 10.1 C 60 % 2.7 C
3768 16-03-2011 10:04:02 10 C 60 % 2.6 C
3769 16-03-2011 10:16:02 10.2 C 59 % 2.56 C
3770 16-03-2011 10:28:02 10.3 C 59 % 2.65 C
3771 16-03-2011 10:40:01 10.4 C 58 % 2.5 C
3772 16-03-2011 10:52:01 10.5 C 58 % 2.6 C
3773 16-03-2011 11:04:01 11.1 C 55 % 2.41 C
3774 16-03-2011 11:16:02 11.1 C 54 % 2.16 C
3775 16-03-2011 11:28:02 11.4 C 53 % 2.17 C
Sensor: Nr:Datum:Temp:Feuchte:Taupunkt:
Aussen-T/F 3776 16-03-2011 11:40:01 11.8 C 53 % 2.54 C
3777 16-03-2011 11:52:03 11.3 C 54 % 2.34 C
3778 16-03-2011 12:04:02 11 C 54 % 2.06 C
3779 16-03-2011 12:16:02 10.9 C 55 % 2.23 C
3780 16-03-2011 12:28:02 11 C 54 % 2.06 C
3781 16-03-2011 12:40:02 11.7 C 53 % 2.45 C
3782 16-03-2011 12:52:02 11.4 C 53 % 2.17 C
3783 16-03-2011 13:04:02 11.5 C 52 % 2 C
3784 16-03-2011 13:16:02 11.8 C 52 % 2.28 C
3785 16-03-2011 13:28:02 11.6 C 53 % 2.36 C
3786 16-03-2011 13:40:02 11.5 C 54 % 2.53 C
3787 16-03-2011 13:52:01 11.5 C 53 % 2.27 C
3788 16-03-2011 14:04:02 11.6 C 53 % 2.36 C
3789 16-03-2011 14:16:01 11.7 C 52 % 2.18 C
3790 16-03-2011 14:28:01 11.6 C 53 % 2.36 C
3791 16-03-2011 14:40:02 11.5 C 53 % 2.27 C
3792 16-03-2011 14:52:02 11.5 C 53 % 2.27 C
3793 16-03-2011 15:04:02 11.2 C 54 % 2.25 C
3794 16-03-2011 15:16:01 11 C 55 % 2.32 C
3795 16-03-2011 15:28:01 10.7 C 56 % 2.29 C
3796 16-03-2011 15:40:02 10.5 C 57 % 2.35 C
3797 16-03-2011 15:52:01 10.4 C 57 % 2.26 C
3798 16-03-2011 16:04:02 10.4 C 57 % 2.26 C
3799 16-03-2011 16:16:02 10.1 C 57 % 1.98 C
3800 16-03-2011 16:28:02 10.1 C 57 % 1.98 C
Sensor: Nr:Datum:Temp:Feuchte:Taupunkt:
Aussen-T/F 3801 16-03-2011 16:40:02 9.9 C 58 % 2.04 C
3802 16-03-2011 16:52:01 9.8 C 58 % 1.94 C
3803 16-03-2011 17:04:03 9.7 C 59 % 2.09 C
3804 16-03-2011 17:16:03 9.7 C 60 % 2.32 C
3805 16-03-2011 17:28:03 9.5 C 60 % 2.13 C
3806 16-03-2011 17:40:03 9.4 C 60 % 2.04 C
3807 16-03-2011 17:52:03 9.3 C 61 % 2.18 C
3808 16-03-2011 18:04:03 9.1 C 61 % 1.99 C
3809 16-03-2011 18:16:02 8.9 C 63 % 2.25 C
3810 16-03-2011 18:28:02 8.6 C 63 % 1.97 C
3811 16-03-2011 18:40:02 8.4 C 64 % 2 C
3812 16-03-2011 18:52:02 8.4 C 64 % 2 C
3813 16-03-2011 19:04:02 8.3 C 64 % 1.9 C
3814 16-03-2011 19:16:02 8.2 C 64 % 1.81 C
3815 16-03-2011 19:28:02 8.2 C 65 % 2.02 C
3816 16-03-2011 19:40:03 8 C 65 % 1.83 C
3817 16-03-2011 19:52:02 8.1 C 65 % 1.93 C
3818 16-03-2011 20:04:03 8.1 C 65 % 1.93 C
3819 16-03-2011 20:16:02 8 C 65 % 1.83 C
3820 16-03-2011 20:28:02 7.9 C 66 % 1.95 C
3821 16-03-2011 20:40:03 7.8 C 66 % 1.86 C
3822 16-03-2011 20:52:02 7.7 C 67 % 1.97 C
3823 16-03-2011 21:04:02 7.5 C 67 % 1.78 C
3824 16-03-2011 21:16:02 7.5 C 67 % 1.78 C
3825 16-03-2011 21:28:02 7.4 C 67 % 1.69 C
Sensor: Nr:Datum:Temp:Feuchte:Taupunkt:
Aussen-T/F 3826 16-03-2011 21:40:02 7.3 C 67 % 1.59 C
3827 16-03-2011 21:52:01 7.3 C 68 % 1.8 C
3828 16-03-2011 22:04:01 7.2 C 68 % 1.7 C
3829 16-03-2011 22:17:02 7.1 C 68 % 1.61 C
3830 16-03-2011 22:29:02 7.2 C 69 % 1.9 C
3831 16-03-2011 22:41:02 7.1 C 69 % 1.81 C
3832 16-03-2011 22:53:02 7 C 69 % 1.71 C
3833 16-03-2011 23:05:02 7 C 70 % 1.91 C
3834 16-03-2011 23:17:02 7 C 70 % 1.91 C
3835 16-03-2011 23:29:02 7 C 70 % 1.91 C
3836 16-03-2011 23:41:02 6.9 C 71 % 2.02 C
3837 16-03-2011 23:53:02 6.9 C 72 % 2.21 C
3838 17-03-2011 00:05:02 6.9 C 72 % 2.21 C
3839 17-03-2011 00:17:02 6.9 C 72 % 2.21 C
3840 17-03-2011 00:29:02 6.8 C 72 % 2.12 C
3841 17-03-2011 00:41:02 6.8 C 72 % 2.12 C
3842 17-03-2011 00:53:02 6.8 C 72 % 2.12 C
3843 17-03-2011 01:05:02 6.8 C 72 % 2.12 C
3844 17-03-2011 01:17:02 6.8 C 72 % 2.12 C
3845 17-03-2011 01:29:02 6.8 C 72 % 2.12 C
3846 17-03-2011 01:41:02 6.8 C 73 % 2.31 C
3847 17-03-2011 01:53:02 6.8 C 72 % 2.12 C
3848 17-03-2011 02:05:03 6.8 C 73 % 2.31 C
3849 17-03-2011 02:17:03 6.8 C 73 % 2.31 C
3850 17-03-2011 02:29:03 6.8 C 73 % 2.31 C
Sensor: Nr:Datum:Temp:Feuchte:Taupunkt:
Aussen-T/F 3851 17-03-2011 02:41:03 6.8 C 73 % 2.31 C
3852 17-03-2011 02:53:03 6.7 C 74 % 2.4 C
3853 17-03-2011 03:05:03 6.7 C 74 % 2.4 C
3854 17-03-2011 03:17:03 6.7 C 74 % 2.4 C
3855 17-03-2011 03:29:03 6.8 C 75 % 2.69 C
3856 17-03-2011 03:41:03 6.8 C 74 % 2.5 C
3857 17-03-2011 03:53:03 6.8 C 73 % 2.31 C
3858 17-03-2011 04:05:03 6.8 C 74 % 2.5 C
3859 17-03-2011 04:17:03 6.8 C 74 % 2.5 C
3860 17-03-2011 04:29:03 6.8 C 74 % 2.5 C
3861 17-03-2011 04:41:03 6.8 C 74 % 2.5 C
3862 17-03-2011 04:53:03 6.7 C 74 % 2.4 C
3863 17-03-2011 05:05:03 6.7 C 74 % 2.4 C
3864 17-03-2011 05:17:03 6.7 C 75 % 2.59 C
3865 17-03-2011 05:29:03 6.8 C 75 % 2.69 C
3866 17-03-2011 05:41:03 6.8 C 75 % 2.69 C
3867 17-03-2011 05:53:03 6.8 C 74 % 2.5 C
3868 17-03-2011 06:05:04 6.8 C 74 % 2.5 C
3869 17-03-2011 06:17:04 6.8 C 74 % 2.5 C
3870 17-03-2011 06:29:04 6.8 C 75 % 2.69 C
3871 17-03-2011 06:41:04 6.8 C 75 % 2.69 C
3872 17-03-2011 06:53:04 6.7 C 75 % 2.59 C
3873 17-03-2011 07:05:02 6.7 C 76 % 2.78 C
3874 17-03-2011 07:17:01 6.5 C 77 % 2.77 C
3875 17-03-2011 07:29:01 6.4 C 78 % 2.85 C
Sensor: Nr:Datum:Temp:Feuchte:Taupunkt:
Aussen-T/F 3876 17-03-2011 07:41:02 6.3 C 78 % 2.75 C
3877 17-03-2011 07:53:01 6.3 C 78 % 2.75 C
3878 17-03-2011 08:05:02 6.4 C 77 % 2.67 C
3879 17-03-2011 08:17:02 6.3 C 76 % 2.39 C
3880 17-03-2011 08:29:02 6.4 C 76 % 2.49 C
3881 17-03-2011 08:41:02 6.3 C 76 % 2.39 C
3882 17-03-2011 08:53:02 6.2 C 76 % 2.29 C
3883 17-03-2011 09:05:01 6 C 77 % 2.28 C
3884 17-03-2011 09:17:02 5.9 C 79 % 2.54 C
3885 17-03-2011 09:29:02 6 C 79 % 2.64 C
3886 17-03-2011 09:41:02 6 C 79 % 2.64 C
3887 17-03-2011 09:53:02 5.8 C 81 % 2.8 C <